<?xml version="1.0" encoding="UTF-8"?>
<gpx xmlns:xsi="http://www.w3.org/2001/XMLSchema-instance" xsi:schemaLocation="http://www.topografix.com/GPX/1/1 http://www.topografix.com/GPX/1/1/gpx.xsd" creator="StravaGPX" version="1.1" xmlns="http://www.topografix.com/GPX/1/1">
 <metadata>
  <time>2025-11-09T11:22:59Z</time>
 </metadata>
 <trk>
  <name>Dublin Port Greenway</name>
  <type>walking</type>
  <trkseg>
   <trkpt lat="53.3630970" lon="-6.2266350">
    <ele>11.3</ele>
    <time>2025-11-09T11:22:59Z</time>
   </trkpt>
   <trkpt lat="53.3631380" lon="-6.2265900">
    <ele>10.9</ele>
    <time>2025-11-09T11:23:10Z</time>
   </trkpt>
   <trkpt lat="53.3631650" lon="-6.2265230">
    <ele>11.2</ele>
    <time>2025-11-09T11:23:15Z</time>
   </trkpt>
   <trkpt lat="53.3632100" lon="-6.2264300">
    <ele>10.8</ele>
    <time>2025-11-09T11:23:21Z</time>
   </trkpt>
   <trkpt lat="53.3632420" lon="-6.2263680">
    <ele>10.7</ele>
    <time>2025-11-09T11:23:26Z</time>
   </trkpt>
   <trkpt lat="53.3632780" lon="-6.2263110">
    <ele>9.6</ele>
    <time>2025-11-09T11:23:31Z</time>
   </trkpt>
   <trkpt lat="53.3633200" lon="-6.2262350">
    <ele>9.3</ele>
    <time>2025-11-09T11:23:36Z</time>
   </trkpt>
   <trkpt lat="53.3633720" lon="-6.2261560">
    <ele>8.6</ele>
    <time>2025-11-09T11:23:41Z</time>
   </trkpt>
   <trkpt lat="53.3634080" lon="-6.2260790">
    <ele>8.3</ele>
    <time>2025-11-09T11:23:47Z</time>
   </trkpt>
   <trkpt lat="53.3634500" lon="-6.2259950">
    <ele>6.6</ele>
    <time>2025-11-09T11:23:52Z</time>
   </trkpt>
   <trkpt lat="53.3634950" lon="-6.2258950">
    <ele>7.1</ele>
    <time>2025-11-09T11:23:58Z</time>
   </trkpt>
   <trkpt lat="53.3635210" lon="-6.2258060">
    <ele>7.8</ele>
    <time>2025-11-09T11:24:03Z</time>
   </trkpt>
   <trkpt lat="53.3635500" lon="-6.2257160">
    <ele>8.2</ele>
    <time>2025-11-09T11:24:08Z</time>
   </trkpt>
   <trkpt lat="53.3635770" lon="-6.2256280">
    <ele>8.3</ele>
    <time>2025-11-09T11:24:13Z</time>
   </trkpt>
   <trkpt lat="53.3636010" lon="-6.2255320">
    <ele>7.2</ele>
    <time>2025-11-09T11:24:18Z</time>
   </trkpt>
   <trkpt lat="53.3636330" lon="-6.2254370">
    <ele>6.3</ele>
    <time>2025-11-09T11:24:23Z</time>
   </trkpt>
   <trkpt lat="53.3636470" lon="-6.2253600">
    <ele>6.0</ele>
    <time>2025-11-09T11:24:34Z</time>
   </trkpt>
   <trkpt lat="53.3636250" lon="-6.2252530">
    <ele>5.7</ele>
    <time>2025-11-09T11:24:39Z</time>
   </trkpt>
   <trkpt lat="53.3636210" lon="-6.2251260">
    <ele>5.5</ele>
    <time>2025-11-09T11:24:44Z</time>
   </trkpt>
   <trkpt lat="53.3636210" lon="-6.2250190">
    <ele>5.8</ele>
    <time>2025-11-09T11:24:49Z</time>
   </trkpt>
   <trkpt lat="53.3636100" lon="-6.2249070">
    <ele>6.0</ele>
    <time>2025-11-09T11:24:55Z</time>
   </trkpt>
   <trkpt lat="53.3635920" lon="-6.2248100">
    <ele>5.7</ele>
    <time>2025-11-09T11:25:00Z</time>
   </trkpt>
   <trkpt lat="53.3635770" lon="-6.2247050">
    <ele>5.7</ele>
    <time>2025-11-09T11:25:05Z</time>
   </trkpt>
   <trkpt lat="53.3635620" lon="-6.2245950">
    <ele>5.6</ele>
    <time>2025-11-09T11:25:10Z</time>
   </trkpt>
   <trkpt lat="53.3635510" lon="-6.2244960">
    <ele>5.5</ele>
    <time>2025-11-09T11:25:15Z</time>
   </trkpt>
   <trkpt lat="53.3635280" lon="-6.2243960">
    <ele>5.5</ele>
    <time>2025-11-09T11:25:21Z</time>
   </trkpt>
   <trkpt lat="53.3635030" lon="-6.2242850">
    <ele>5.6</ele>
    <time>2025-11-09T11:25:26Z</time>
   </trkpt>
   <trkpt lat="53.3634930" lon="-6.2241770">
    <ele>5.7</ele>
    <time>2025-11-09T11:25:31Z</time>
   </trkpt>
   <trkpt lat="53.3634620" lon="-6.2240810">
    <ele>5.7</ele>
    <time>2025-11-09T11:25:36Z</time>
   </trkpt>
   <trkpt lat="53.3634190" lon="-6.2239970">
    <ele>5.7</ele>
    <time>2025-11-09T11:25:41Z</time>
   </trkpt>
   <trkpt lat="53.3633970" lon="-6.2239000">
    <ele>5.7</ele>
    <time>2025-11-09T11:25:46Z</time>
   </trkpt>
   <trkpt lat="53.3633830" lon="-6.2237960">
    <ele>5.7</ele>
    <time>2025-11-09T11:25:51Z</time>
   </trkpt>
   <trkpt lat="53.3633770" lon="-6.2236880">
    <ele>6.2</ele>
    <time>2025-11-09T11:25:56Z</time>
   </trkpt>
   <trkpt lat="53.3633580" lon="-6.2235890">
    <ele>6.1</ele>
    <time>2025-11-09T11:26:01Z</time>
   </trkpt>
   <trkpt lat="53.3633490" lon="-6.2234970">
    <ele>5.6</ele>
    <time>2025-11-09T11:26:06Z</time>
   </trkpt>
   <trkpt lat="53.3633360" lon="-6.2233780">
    <ele>5.5</ele>
    <time>2025-11-09T11:26:12Z</time>
   </trkpt>
   <trkpt lat="53.3633130" lon="-6.2232770">
    <ele>5.5</ele>
    <time>2025-11-09T11:26:17Z</time>
   </trkpt>
   <trkpt lat="53.3632830" lon="-6.2231740">
    <ele>5.4</ele>
    <time>2025-11-09T11:26:22Z</time>
   </trkpt>
   <trkpt lat="53.3632530" lon="-6.2230700">
    <ele>5.3</ele>
    <time>2025-11-09T11:26:28Z</time>
   </trkpt>
   <trkpt lat="53.3632360" lon="-6.2229530">
    <ele>5.3</ele>
    <time>2025-11-09T11:26:33Z</time>
   </trkpt>
   <trkpt lat="53.3632150" lon="-6.2228480">
    <ele>5.3</ele>
    <time>2025-11-09T11:26:39Z</time>
   </trkpt>
   <trkpt lat="53.3631920" lon="-6.2227370">
    <ele>5.3</ele>
    <time>2025-11-09T11:26:44Z</time>
   </trkpt>
   <trkpt lat="53.3631640" lon="-6.2226380">
    <ele>5.3</ele>
    <time>2025-11-09T11:26:49Z</time>
   </trkpt>
   <trkpt lat="53.3631230" lon="-6.2225400">
    <ele>5.3</ele>
    <time>2025-11-09T11:26:55Z</time>
   </trkpt>
   <trkpt lat="53.3630940" lon="-6.2224410">
    <ele>5.3</ele>
    <time>2025-11-09T11:27:00Z</time>
   </trkpt>
   <trkpt lat="53.3630690" lon="-6.2223480">
    <ele>5.4</ele>
    <time>2025-11-09T11:27:05Z</time>
   </trkpt>
   <trkpt lat="53.3630390" lon="-6.2222390">
    <ele>5.4</ele>
    <time>2025-11-09T11:27:10Z</time>
   </trkpt>
   <trkpt lat="53.3630100" lon="-6.2221430">
    <ele>5.3</ele>
    <time>2025-11-09T11:27:15Z</time>
   </trkpt>
   <trkpt lat="53.3629810" lon="-6.2220670">
    <ele>5.3</ele>
    <time>2025-11-09T11:27:21Z</time>
   </trkpt>
   <trkpt lat="53.3629950" lon="-6.2219770">
    <ele>5.5</ele>
    <time>2025-11-09T11:28:19Z</time>
   </trkpt>
   <trkpt lat="53.3629720" lon="-6.2218830">
    <ele>5.5</ele>
    <time>2025-11-09T11:28:24Z</time>
   </trkpt>
   <trkpt lat="53.3629910" lon="-6.2217780">
    <ele>5.5</ele>
    <time>2025-11-09T11:28:29Z</time>
   </trkpt>
   <trkpt lat="53.3630120" lon="-6.2217100">
    <ele>5.5</ele>
    <time>2025-11-09T11:28:35Z</time>
   </trkpt>
   <trkpt lat="53.3630510" lon="-6.2216650">
    <ele>5.5</ele>
    <time>2025-11-09T11:29:06Z</time>
   </trkpt>
   <trkpt lat="53.3631260" lon="-6.2216820">
    <ele>5.4</ele>
    <time>2025-11-09T11:29:11Z</time>
   </trkpt>
   <trkpt lat="53.3632070" lon="-6.2216390">
    <ele>5.4</ele>
    <time>2025-11-09T11:29:17Z</time>
   </trkpt>
   <trkpt lat="53.3632180" lon="-6.2215590">
    <ele>5.3</ele>
    <time>2025-11-09T11:29:23Z</time>
   </trkpt>
   <trkpt lat="53.3632020" lon="-6.2214040">
    <ele>5.4</ele>
    <time>2025-11-09T11:29:29Z</time>
   </trkpt>
   <trkpt lat="53.3631830" lon="-6.2212880">
    <ele>5.5</ele>
    <time>2025-11-09T11:29:34Z</time>
   </trkpt>
   <trkpt lat="53.3631760" lon="-6.2211380">
    <ele>5.5</ele>
    <time>2025-11-09T11:29:39Z</time>
   </trkpt>
   <trkpt lat="53.3631620" lon="-6.2210360">
    <ele>5.5</ele>
    <time>2025-11-09T11:29:45Z</time>
   </trkpt>
   <trkpt lat="53.3631560" lon="-6.2209160">
    <ele>5.5</ele>
    <time>2025-11-09T11:29:50Z</time>
   </trkpt>
   <trkpt lat="53.3631400" lon="-6.2207960">
    <ele>5.5</ele>
    <time>2025-11-09T11:29:56Z</time>
   </trkpt>
   <trkpt lat="53.3631130" lon="-6.2206780">
    <ele>5.5</ele>
    <time>2025-11-09T11:30:01Z</time>
   </trkpt>
   <trkpt lat="53.3630970" lon="-6.2205520">
    <ele>5.5</ele>
    <time>2025-11-09T11:30:06Z</time>
   </trkpt>
   <trkpt lat="53.3630810" lon="-6.2204560">
    <ele>5.5</ele>
    <time>2025-11-09T11:30:12Z</time>
   </trkpt>
   <trkpt lat="53.3630780" lon="-6.2203520">
    <ele>5.5</ele>
    <time>2025-11-09T11:30:17Z</time>
   </trkpt>
   <trkpt lat="53.3630640" lon="-6.2202330">
    <ele>5.5</ele>
    <time>2025-11-09T11:30:23Z</time>
   </trkpt>
   <trkpt lat="53.3630530" lon="-6.2201080">
    <ele>5.5</ele>
    <time>2025-11-09T11:30:28Z</time>
   </trkpt>
   <trkpt lat="53.3630420" lon="-6.2199970">
    <ele>5.7</ele>
    <time>2025-11-09T11:30:34Z</time>
   </trkpt>
   <trkpt lat="53.3630240" lon="-6.2198680">
    <ele>5.9</ele>
    <time>2025-11-09T11:30:39Z</time>
   </trkpt>
   <trkpt lat="53.3630040" lon="-6.2197380">
    <ele>6.2</ele>
    <time>2025-11-09T11:30:44Z</time>
   </trkpt>
   <trkpt lat="53.3629860" lon="-6.2196170">
    <ele>6.9</ele>
    <time>2025-11-09T11:30:50Z</time>
   </trkpt>
   <trkpt lat="53.3629720" lon="-6.2194980">
    <ele>7.1</ele>
    <time>2025-11-09T11:30:55Z</time>
   </trkpt>
   <trkpt lat="53.3630060" lon="-6.2194280">
    <ele>6.8</ele>
    <time>2025-11-09T11:31:01Z</time>
   </trkpt>
   <trkpt lat="53.3630680" lon="-6.2194120">
    <ele>6.4</ele>
    <time>2025-11-09T11:31:06Z</time>
   </trkpt>
   <trkpt lat="53.3631240" lon="-6.2193950">
    <ele>6.7</ele>
    <time>2025-11-09T11:31:11Z</time>
   </trkpt>
   <trkpt lat="53.3631710" lon="-6.2193950">
    <ele>6.8</ele>
    <time>2025-11-09T11:31:16Z</time>
   </trkpt>
   <trkpt lat="53.3631260" lon="-6.2194010">
    <ele>6.9</ele>
    <time>2025-11-09T11:31:39Z</time>
   </trkpt>
   <trkpt lat="53.3630550" lon="-6.2193620">
    <ele>5.5</ele>
    <time>2025-11-09T11:44:17Z</time>
   </trkpt>
   <trkpt lat="53.3630100" lon="-6.2194580">
    <ele>5.5</ele>
    <time>2025-11-09T11:44:22Z</time>
   </trkpt>
   <trkpt lat="53.3630220" lon="-6.2195350">
    <ele>6.2</ele>
    <time>2025-11-09T11:46:18Z</time>
   </trkpt>
   <trkpt lat="53.3630000" lon="-6.2196020">
    <ele>6.1</ele>
    <time>2025-11-09T11:46:28Z</time>
   </trkpt>
   <trkpt lat="53.3629560" lon="-6.2196350">
    <ele>5.8</ele>
    <time>2025-11-09T11:46:34Z</time>
   </trkpt>
   <trkpt lat="53.3629690" lon="-6.2197150">
    <ele>5.4</ele>
    <time>2025-11-09T11:46:58Z</time>
   </trkpt>
   <trkpt lat="53.3629790" lon="-6.2198330">
    <ele>5.3</ele>
    <time>2025-11-09T11:47:04Z</time>
   </trkpt>
   <trkpt lat="53.3629890" lon="-6.2199430">
    <ele>4.9</ele>
    <time>2025-11-09T11:47:09Z</time>
   </trkpt>
   <trkpt lat="53.3630080" lon="-6.2200510">
    <ele>4.7</ele>
    <time>2025-11-09T11:47:14Z</time>
   </trkpt>
   <trkpt lat="53.3630250" lon="-6.2201500">
    <ele>5.2</ele>
    <time>2025-11-09T11:47:20Z</time>
   </trkpt>
   <trkpt lat="53.3630450" lon="-6.2202350">
    <ele>5.4</ele>
    <time>2025-11-09T11:47:25Z</time>
   </trkpt>
   <trkpt lat="53.3630640" lon="-6.2203390">
    <ele>5.4</ele>
    <time>2025-11-09T11:47:30Z</time>
   </trkpt>
   <trkpt lat="53.3631040" lon="-6.2204020">
    <ele>5.5</ele>
    <time>2025-11-09T11:47:36Z</time>
   </trkpt>
   <trkpt lat="53.3631020" lon="-6.2205130">
    <ele>5.5</ele>
    <time>2025-11-09T11:47:41Z</time>
   </trkpt>
   <trkpt lat="53.3630820" lon="-6.2206120">
    <ele>5.5</ele>
    <time>2025-11-09T11:47:46Z</time>
   </trkpt>
   <trkpt lat="53.3630920" lon="-6.2207130">
    <ele>5.5</ele>
    <time>2025-11-09T11:47:51Z</time>
   </trkpt>
   <trkpt lat="53.3631050" lon="-6.2208360">
    <ele>5.5</ele>
    <time>2025-11-09T11:47:57Z</time>
   </trkpt>
   <trkpt lat="53.3631200" lon="-6.2209430">
    <ele>5.5</ele>
    <time>2025-11-09T11:48:02Z</time>
   </trkpt>
   <trkpt lat="53.3631320" lon="-6.2210380">
    <ele>5.5</ele>
    <time>2025-11-09T11:48:07Z</time>
   </trkpt>
   <trkpt lat="53.3631410" lon="-6.2211390">
    <ele>5.5</ele>
    <time>2025-11-09T11:48:12Z</time>
   </trkpt>
   <trkpt lat="53.3631480" lon="-6.2212440">
    <ele>5.5</ele>
    <time>2025-11-09T11:48:17Z</time>
   </trkpt>
   <trkpt lat="53.3631590" lon="-6.2213510">
    <ele>5.5</ele>
    <time>2025-11-09T11:48:22Z</time>
   </trkpt>
   <trkpt lat="53.3631720" lon="-6.2214570">
    <ele>5.5</ele>
    <time>2025-11-09T11:48:27Z</time>
   </trkpt>
   <trkpt lat="53.3631770" lon="-6.2215640">
    <ele>5.5</ele>
    <time>2025-11-09T11:48:33Z</time>
   </trkpt>
   <trkpt lat="53.3631870" lon="-6.2216580">
    <ele>5.5</ele>
    <time>2025-11-09T11:48:38Z</time>
   </trkpt>
   <trkpt lat="53.3631990" lon="-6.2217480">
    <ele>5.5</ele>
    <time>2025-11-09T11:48:43Z</time>
   </trkpt>
   <trkpt lat="53.3631530" lon="-6.2217220">
    <ele>5.4</ele>
    <time>2025-11-09T11:49:20Z</time>
   </trkpt>
   <trkpt lat="53.3631040" lon="-6.2217200">
    <ele>5.4</ele>
    <time>2025-11-09T11:49:42Z</time>
   </trkpt>
   <trkpt lat="53.3630060" lon="-6.2216740">
    <ele>5.3</ele>
    <time>2025-11-09T11:49:47Z</time>
   </trkpt>
   <trkpt lat="53.3629600" lon="-6.2217720">
    <ele>5.4</ele>
    <time>2025-11-09T11:49:52Z</time>
   </trkpt>
   <trkpt lat="53.3629570" lon="-6.2218720">
    <ele>5.4</ele>
    <time>2025-11-09T11:49:57Z</time>
   </trkpt>
   <trkpt lat="53.3629700" lon="-6.2219630">
    <ele>5.5</ele>
    <time>2025-11-09T11:50:37Z</time>
   </trkpt>
   <trkpt lat="53.3629880" lon="-6.2220620">
    <ele>5.4</ele>
    <time>2025-11-09T11:50:42Z</time>
   </trkpt>
   <trkpt lat="53.3629780" lon="-6.2222010">
    <ele>5.3</ele>
    <time>2025-11-09T11:50:47Z</time>
   </trkpt>
   <trkpt lat="53.3629670" lon="-6.2223040">
    <ele>5.6</ele>
    <time>2025-11-09T11:50:53Z</time>
   </trkpt>
   <trkpt lat="53.3629520" lon="-6.2224110">
    <ele>5.5</ele>
    <time>2025-11-09T11:50:58Z</time>
   </trkpt>
   <trkpt lat="53.3629430" lon="-6.2225190">
    <ele>5.7</ele>
    <time>2025-11-09T11:51:03Z</time>
   </trkpt>
   <trkpt lat="53.3629380" lon="-6.2226270">
    <ele>6.0</ele>
    <time>2025-11-09T11:51:08Z</time>
   </trkpt>
   <trkpt lat="53.3629330" lon="-6.2227310">
    <ele>5.7</ele>
    <time>2025-11-09T11:51:14Z</time>
   </trkpt>
   <trkpt lat="53.3629170" lon="-6.2228360">
    <ele>5.7</ele>
    <time>2025-11-09T11:51:19Z</time>
   </trkpt>
   <trkpt lat="53.3629070" lon="-6.2229390">
    <ele>6.0</ele>
    <time>2025-11-09T11:51:24Z</time>
   </trkpt>
   <trkpt lat="53.3629020" lon="-6.2230440">
    <ele>6.0</ele>
    <time>2025-11-09T11:51:30Z</time>
   </trkpt>
   <trkpt lat="53.3628900" lon="-6.2231400">
    <ele>6.0</ele>
    <time>2025-11-09T11:51:35Z</time>
   </trkpt>
   <trkpt lat="53.3629030" lon="-6.2232400">
    <ele>6.0</ele>
    <time>2025-11-09T11:51:40Z</time>
   </trkpt>
   <trkpt lat="53.3629100" lon="-6.2233330">
    <ele>5.9</ele>
    <time>2025-11-09T11:51:46Z</time>
   </trkpt>
   <trkpt lat="53.3628950" lon="-6.2234470">
    <ele>6.0</ele>
    <time>2025-11-09T11:51:51Z</time>
   </trkpt>
   <trkpt lat="53.3628700" lon="-6.2235360">
    <ele>6.0</ele>
    <time>2025-11-09T11:51:56Z</time>
   </trkpt>
   <trkpt lat="53.3628300" lon="-6.2236090">
    <ele>6.0</ele>
    <time>2025-11-09T11:52:02Z</time>
   </trkpt>
   <trkpt lat="53.3627810" lon="-6.2236780">
    <ele>5.9</ele>
    <time>2025-11-09T11:52:07Z</time>
   </trkpt>
   <trkpt lat="53.3627250" lon="-6.2237540">
    <ele>5.6</ele>
    <time>2025-11-09T11:52:13Z</time>
   </trkpt>
   <trkpt lat="53.3626840" lon="-6.2238190">
    <ele>5.6</ele>
    <time>2025-11-09T11:52:18Z</time>
   </trkpt>
   <trkpt lat="53.3626460" lon="-6.2238900">
    <ele>5.7</ele>
    <time>2025-11-09T11:52:24Z</time>
   </trkpt>
   <trkpt lat="53.3626790" lon="-6.2238310">
    <ele>5.5</ele>
    <time>2025-11-09T11:53:32Z</time>
   </trkpt>
   <trkpt lat="53.3626950" lon="-6.2237480">
    <ele>5.6</ele>
    <time>2025-11-09T11:53:39Z</time>
   </trkpt>
   <trkpt lat="53.3627410" lon="-6.2237800">
    <ele>5.6</ele>
    <time>2025-11-09T11:54:58Z</time>
   </trkpt>
   <trkpt lat="53.3627890" lon="-6.2238220">
    <ele>5.6</ele>
    <time>2025-11-09T11:55:04Z</time>
   </trkpt>
   <trkpt lat="53.3628080" lon="-6.2239020">
    <ele>5.6</ele>
    <time>2025-11-09T11:55:09Z</time>
   </trkpt>
   <trkpt lat="53.3628450" lon="-6.2239620">
    <ele>5.6</ele>
    <time>2025-11-09T11:55:35Z</time>
   </trkpt>
   <trkpt lat="53.3628920" lon="-6.2240300">
    <ele>5.7</ele>
    <time>2025-11-09T11:55:40Z</time>
   </trkpt>
   <trkpt lat="53.3629420" lon="-6.2240980">
    <ele>5.7</ele>
    <time>2025-11-09T11:55:46Z</time>
   </trkpt>
   <trkpt lat="53.3629950" lon="-6.2241580">
    <ele>5.8</ele>
    <time>2025-11-09T11:55:51Z</time>
   </trkpt>
   <trkpt lat="53.3630440" lon="-6.2242110">
    <ele>5.7</ele>
    <time>2025-11-09T11:55:56Z</time>
   </trkpt>
   <trkpt lat="53.3630930" lon="-6.2242430">
    <ele>5.6</ele>
    <time>2025-11-09T11:56:01Z</time>
   </trkpt>
   <trkpt lat="53.3631420" lon="-6.2242890">
    <ele>5.6</ele>
    <time>2025-11-09T11:56:07Z</time>
   </trkpt>
   <trkpt lat="53.3631870" lon="-6.2243240">
    <ele>5.7</ele>
    <time>2025-11-09T11:56:12Z</time>
   </trkpt>
   <trkpt lat="53.3632520" lon="-6.2243530">
    <ele>5.6</ele>
    <time>2025-11-09T11:56:17Z</time>
   </trkpt>
   <trkpt lat="53.3633100" lon="-6.2243880">
    <ele>5.5</ele>
    <time>2025-11-09T11:56:22Z</time>
   </trkpt>
   <trkpt lat="53.3633470" lon="-6.2244600">
    <ele>5.5</ele>
    <time>2025-11-09T11:56:28Z</time>
   </trkpt>
   <trkpt lat="53.3633940" lon="-6.2244810">
    <ele>5.6</ele>
    <time>2025-11-09T11:56:34Z</time>
   </trkpt>
   <trkpt lat="53.3634500" lon="-6.2243900">
    <ele>5.6</ele>
    <time>2025-11-09T11:56:39Z</time>
   </trkpt>
   <trkpt lat="53.3634950" lon="-6.2243140">
    <ele>5.6</ele>
    <time>2025-11-09T11:56:45Z</time>
   </trkpt>
   <trkpt lat="53.3634770" lon="-6.2242440">
    <ele>5.7</ele>
    <time>2025-11-09T11:59:55Z</time>
   </trkpt>
   <trkpt lat="53.3634590" lon="-6.2241740">
    <ele>5.7</ele>
    <time>2025-11-09T12:17:53Z</time>
   </trkpt>
   <trkpt lat="53.3634530" lon="-6.2240780">
    <ele>4.4</ele>
    <time>2025-11-09T12:17:58Z</time>
   </trkpt>
   <trkpt lat="53.3634370" lon="-6.2239990">
    <ele>5.3</ele>
    <time>2025-11-09T12:18:03Z</time>
   </trkpt>
   <trkpt lat="53.3634130" lon="-6.2239220">
    <ele>6.2</ele>
    <time>2025-11-09T12:18:09Z</time>
   </trkpt>
   <trkpt lat="53.3634130" lon="-6.2238430">
    <ele>6.3</ele>
    <time>2025-11-09T12:18:14Z</time>
   </trkpt>
   <trkpt lat="53.3634030" lon="-6.2237640">
    <ele>6.1</ele>
    <time>2025-11-09T12:18:19Z</time>
   </trkpt>
   <trkpt lat="53.3633800" lon="-6.2236820">
    <ele>5.8</ele>
    <time>2025-11-09T12:18:24Z</time>
   </trkpt>
   <trkpt lat="53.3633620" lon="-6.2236110">
    <ele>5.5</ele>
    <time>2025-11-09T12:18:29Z</time>
   </trkpt>
   <trkpt lat="53.3633520" lon="-6.2235240">
    <ele>5.5</ele>
    <time>2025-11-09T12:18:35Z</time>
   </trkpt>
   <trkpt lat="53.3633410" lon="-6.2234250">
    <ele>5.5</ele>
    <time>2025-11-09T12:18:40Z</time>
   </trkpt>
   <trkpt lat="53.3633320" lon="-6.2233430">
    <ele>5.4</ele>
    <time>2025-11-09T12:18:45Z</time>
   </trkpt>
   <trkpt lat="53.3633150" lon="-6.2232490">
    <ele>5.3</ele>
    <time>2025-11-09T12:18:51Z</time>
   </trkpt>
   <trkpt lat="53.3632840" lon="-6.2231610">
    <ele>5.3</ele>
    <time>2025-11-09T12:18:56Z</time>
   </trkpt>
   <trkpt lat="53.3632580" lon="-6.2230660">
    <ele>5.9</ele>
    <time>2025-11-09T12:19:02Z</time>
   </trkpt>
   <trkpt lat="53.3632460" lon="-6.2229740">
    <ele>5.9</ele>
    <time>2025-11-09T12:19:07Z</time>
   </trkpt>
   <trkpt lat="53.3632270" lon="-6.2228830">
    <ele>5.6</ele>
    <time>2025-11-09T12:19:12Z</time>
   </trkpt>
   <trkpt lat="53.3632050" lon="-6.2227820">
    <ele>5.4</ele>
    <time>2025-11-09T12:19:18Z</time>
   </trkpt>
   <trkpt lat="53.3631700" lon="-6.2226930">
    <ele>5.2</ele>
    <time>2025-11-09T12:19:23Z</time>
   </trkpt>
   <trkpt lat="53.3631450" lon="-6.2226020">
    <ele>5.3</ele>
    <time>2025-11-09T12:19:29Z</time>
   </trkpt>
   <trkpt lat="53.3631220" lon="-6.2225150">
    <ele>5.4</ele>
    <time>2025-11-09T12:19:34Z</time>
   </trkpt>
   <trkpt lat="53.3631100" lon="-6.2224390">
    <ele>5.4</ele>
    <time>2025-11-09T12:19:39Z</time>
   </trkpt>
   <trkpt lat="53.3630700" lon="-6.2223580">
    <ele>5.4</ele>
    <time>2025-11-09T12:19:45Z</time>
   </trkpt>
   <trkpt lat="53.3630490" lon="-6.2222760">
    <ele>5.3</ele>
    <time>2025-11-09T12:19:50Z</time>
   </trkpt>
   <trkpt lat="53.3630390" lon="-6.2221930">
    <ele>5.4</ele>
    <time>2025-11-09T12:19:55Z</time>
   </trkpt>
   <trkpt lat="53.3630320" lon="-6.2221140">
    <ele>5.4</ele>
    <time>2025-11-09T12:20:36Z</time>
   </trkpt>
   <trkpt lat="53.3630140" lon="-6.2220240">
    <ele>5.4</ele>
    <time>2025-11-09T12:20:41Z</time>
   </trkpt>
   <trkpt lat="53.3629860" lon="-6.2219370">
    <ele>5.3</ele>
    <time>2025-11-09T12:20:47Z</time>
   </trkpt>
   <trkpt lat="53.3629570" lon="-6.2218760">
    <ele>5.4</ele>
    <time>2025-11-09T12:20:52Z</time>
   </trkpt>
   <trkpt lat="53.3629040" lon="-6.2218940">
    <ele>5.5</ele>
    <time>2025-11-09T12:20:57Z</time>
   </trkpt>
   <trkpt lat="53.3628550" lon="-6.2219210">
    <ele>5.4</ele>
    <time>2025-11-09T12:21:02Z</time>
   </trkpt>
   <trkpt lat="53.3627970" lon="-6.2219550">
    <ele>5.3</ele>
    <time>2025-11-09T12:21:08Z</time>
   </trkpt>
   <trkpt lat="53.3627390" lon="-6.2219840">
    <ele>5.3</ele>
    <time>2025-11-09T12:21:13Z</time>
   </trkpt>
   <trkpt lat="53.3626880" lon="-6.2220080">
    <ele>5.5</ele>
    <time>2025-11-09T12:21:18Z</time>
   </trkpt>
   <trkpt lat="53.3626290" lon="-6.2220360">
    <ele>5.7</ele>
    <time>2025-11-09T12:21:24Z</time>
   </trkpt>
   <trkpt lat="53.3625750" lon="-6.2220710">
    <ele>5.7</ele>
    <time>2025-11-09T12:21:29Z</time>
   </trkpt>
   <trkpt lat="53.3625170" lon="-6.2221050">
    <ele>5.5</ele>
    <time>2025-11-09T12:21:35Z</time>
   </trkpt>
   <trkpt lat="53.3624680" lon="-6.2221310">
    <ele>5.4</ele>
    <time>2025-11-09T12:21:40Z</time>
   </trkpt>
   <trkpt lat="53.3624140" lon="-6.2221600">
    <ele>5.6</ele>
    <time>2025-11-09T12:21:45Z</time>
   </trkpt>
   <trkpt lat="53.3623610" lon="-6.2221990">
    <ele>5.6</ele>
    <time>2025-11-09T12:21:50Z</time>
   </trkpt>
   <trkpt lat="53.3623030" lon="-6.2222380">
    <ele>5.6</ele>
    <time>2025-11-09T12:21:56Z</time>
   </trkpt>
   <trkpt lat="53.3622500" lon="-6.2222780">
    <ele>5.6</ele>
    <time>2025-11-09T12:22:01Z</time>
   </trkpt>
   <trkpt lat="53.3621920" lon="-6.2223060">
    <ele>5.8</ele>
    <time>2025-11-09T12:22:06Z</time>
   </trkpt>
   <trkpt lat="53.3621340" lon="-6.2223170">
    <ele>5.8</ele>
    <time>2025-11-09T12:22:12Z</time>
   </trkpt>
   <trkpt lat="53.3620790" lon="-6.2223700">
    <ele>5.8</ele>
    <time>2025-11-09T12:22:17Z</time>
   </trkpt>
   <trkpt lat="53.3620320" lon="-6.2224190">
    <ele>5.8</ele>
    <time>2025-11-09T12:22:22Z</time>
   </trkpt>
   <trkpt lat="53.3619810" lon="-6.2224780">
    <ele>5.5</ele>
    <time>2025-11-09T12:22:28Z</time>
   </trkpt>
   <trkpt lat="53.3619270" lon="-6.2225350">
    <ele>5.7</ele>
    <time>2025-11-09T12:22:33Z</time>
   </trkpt>
   <trkpt lat="53.3618760" lon="-6.2225870">
    <ele>5.8</ele>
    <time>2025-11-09T12:22:38Z</time>
   </trkpt>
   <trkpt lat="53.3618300" lon="-6.2226620">
    <ele>5.7</ele>
    <time>2025-11-09T12:22:43Z</time>
   </trkpt>
   <trkpt lat="53.3617870" lon="-6.2227310">
    <ele>5.8</ele>
    <time>2025-11-09T12:22:49Z</time>
   </trkpt>
   <trkpt lat="53.3617300" lon="-6.2227890">
    <ele>5.8</ele>
    <time>2025-11-09T12:22:54Z</time>
   </trkpt>
   <trkpt lat="53.3616850" lon="-6.2228600">
    <ele>5.6</ele>
    <time>2025-11-09T12:22:59Z</time>
   </trkpt>
   <trkpt lat="53.3616480" lon="-6.2229370">
    <ele>5.8</ele>
    <time>2025-11-09T12:23:04Z</time>
   </trkpt>
   <trkpt lat="53.3616080" lon="-6.2230140">
    <ele>5.9</ele>
    <time>2025-11-09T12:23:10Z</time>
   </trkpt>
   <trkpt lat="53.3615720" lon="-6.2230950">
    <ele>6.0</ele>
    <time>2025-11-09T12:23:15Z</time>
   </trkpt>
   <trkpt lat="53.3615300" lon="-6.2231680">
    <ele>6.4</ele>
    <time>2025-11-09T12:23:21Z</time>
   </trkpt>
   <trkpt lat="53.3614890" lon="-6.2232460">
    <ele>6.0</ele>
    <time>2025-11-09T12:23:26Z</time>
   </trkpt>
   <trkpt lat="53.3614610" lon="-6.2233370">
    <ele>5.6</ele>
    <time>2025-11-09T12:23:31Z</time>
   </trkpt>
   <trkpt lat="53.3614240" lon="-6.2234190">
    <ele>5.4</ele>
    <time>2025-11-09T12:23:37Z</time>
   </trkpt>
   <trkpt lat="53.3613960" lon="-6.2235040">
    <ele>5.7</ele>
    <time>2025-11-09T12:23:42Z</time>
   </trkpt>
   <trkpt lat="53.3613720" lon="-6.2235970">
    <ele>5.7</ele>
    <time>2025-11-09T12:23:47Z</time>
   </trkpt>
   <trkpt lat="53.3613410" lon="-6.2236860">
    <ele>5.5</ele>
    <time>2025-11-09T12:23:53Z</time>
   </trkpt>
   <trkpt lat="53.3613120" lon="-6.2237690">
    <ele>5.4</ele>
    <time>2025-11-09T12:23:58Z</time>
   </trkpt>
   <trkpt lat="53.3612870" lon="-6.2238630">
    <ele>5.4</ele>
    <time>2025-11-09T12:24:03Z</time>
   </trkpt>
   <trkpt lat="53.3612700" lon="-6.2239430">
    <ele>5.6</ele>
    <time>2025-11-09T12:24:08Z</time>
   </trkpt>
   <trkpt lat="53.3612500" lon="-6.2240200">
    <ele>6.1</ele>
    <time>2025-11-09T12:24:14Z</time>
   </trkpt>
   <trkpt lat="53.3612330" lon="-6.2241170">
    <ele>6.0</ele>
    <time>2025-11-09T12:24:19Z</time>
   </trkpt>
   <trkpt lat="53.3612180" lon="-6.2242120">
    <ele>5.9</ele>
    <time>2025-11-09T12:24:24Z</time>
   </trkpt>
   <trkpt lat="53.3612040" lon="-6.2243120">
    <ele>6.4</ele>
    <time>2025-11-09T12:24:30Z</time>
   </trkpt>
   <trkpt lat="53.3611830" lon="-6.2244020">
    <ele>6.0</ele>
    <time>2025-11-09T12:24:35Z</time>
   </trkpt>
   <trkpt lat="53.3611610" lon="-6.2244950">
    <ele>5.6</ele>
    <time>2025-11-09T12:24:40Z</time>
   </trkpt>
   <trkpt lat="53.3611460" lon="-6.2245930">
    <ele>5.9</ele>
    <time>2025-11-09T12:24:46Z</time>
   </trkpt>
   <trkpt lat="53.3611370" lon="-6.2246930">
    <ele>6.0</ele>
    <time>2025-11-09T12:24:51Z</time>
   </trkpt>
   <trkpt lat="53.3611460" lon="-6.2248040">
    <ele>6.1</ele>
    <time>2025-11-09T12:24:57Z</time>
   </trkpt>
   <trkpt lat="53.3611200" lon="-6.2248930">
    <ele>6.4</ele>
    <time>2025-11-09T12:25:02Z</time>
   </trkpt>
   <trkpt lat="53.3611200" lon="-6.2249940">
    <ele>6.4</ele>
    <time>2025-11-09T12:25:07Z</time>
   </trkpt>
   <trkpt lat="53.3611200" lon="-6.2250950">
    <ele>6.3</ele>
    <time>2025-11-09T12:25:13Z</time>
   </trkpt>
   <trkpt lat="53.3611200" lon="-6.2251900">
    <ele>6.4</ele>
    <time>2025-11-09T12:25:18Z</time>
   </trkpt>
   <trkpt lat="53.3611210" lon="-6.2252960">
    <ele>6.2</ele>
    <time>2025-11-09T12:25:23Z</time>
   </trkpt>
   <trkpt lat="53.3611070" lon="-6.2253860">
    <ele>5.9</ele>
    <time>2025-11-09T12:25:29Z</time>
   </trkpt>
   <trkpt lat="53.3611130" lon="-6.2254870">
    <ele>5.8</ele>
    <time>2025-11-09T12:25:34Z</time>
   </trkpt>
   <trkpt lat="53.3611150" lon="-6.2255860">
    <ele>5.6</ele>
    <time>2025-11-09T12:25:39Z</time>
   </trkpt>
   <trkpt lat="53.3611240" lon="-6.2256900">
    <ele>6.1</ele>
    <time>2025-11-09T12:25:45Z</time>
   </trkpt>
   <trkpt lat="53.3611060" lon="-6.2257790">
    <ele>6.6</ele>
    <time>2025-11-09T12:25:50Z</time>
   </trkpt>
   <trkpt lat="53.3611050" lon="-6.2258700">
    <ele>6.8</ele>
    <time>2025-11-09T12:25:56Z</time>
   </trkpt>
   <trkpt lat="53.3611130" lon="-6.2259800">
    <ele>6.7</ele>
    <time>2025-11-09T12:26:01Z</time>
   </trkpt>
   <trkpt lat="53.3611030" lon="-6.2260730">
    <ele>6.8</ele>
    <time>2025-11-09T12:26:07Z</time>
   </trkpt>
   <trkpt lat="53.3611120" lon="-6.2261720">
    <ele>7.0</ele>
    <time>2025-11-09T12:26:12Z</time>
   </trkpt>
   <trkpt lat="53.3611210" lon="-6.2262780">
    <ele>7.0</ele>
    <time>2025-11-09T12:26:18Z</time>
   </trkpt>
   <trkpt lat="53.3611060" lon="-6.2263640">
    <ele>7.2</ele>
    <time>2025-11-09T12:26:23Z</time>
   </trkpt>
   <trkpt lat="53.3610970" lon="-6.2264640">
    <ele>7.3</ele>
    <time>2025-11-09T12:26:29Z</time>
   </trkpt>
   <trkpt lat="53.3610980" lon="-6.2265670">
    <ele>7.1</ele>
    <time>2025-11-09T12:26:34Z</time>
   </trkpt>
   <trkpt lat="53.3611030" lon="-6.2266680">
    <ele>6.9</ele>
    <time>2025-11-09T12:26:40Z</time>
   </trkpt>
   <trkpt lat="53.3610940" lon="-6.2267700">
    <ele>7.1</ele>
    <time>2025-11-09T12:26:45Z</time>
   </trkpt>
   <trkpt lat="53.3611100" lon="-6.2268540">
    <ele>7.4</ele>
    <time>2025-11-09T12:26:50Z</time>
   </trkpt>
   <trkpt lat="53.3611000" lon="-6.2269480">
    <ele>7.6</ele>
    <time>2025-11-09T12:26:56Z</time>
   </trkpt>
   <trkpt lat="53.3611040" lon="-6.2270440">
    <ele>7.3</ele>
    <time>2025-11-09T12:27:01Z</time>
   </trkpt>
   <trkpt lat="53.3610850" lon="-6.2271380">
    <ele>7.5</ele>
    <time>2025-11-09T12:27:07Z</time>
   </trkpt>
   <trkpt lat="53.3610820" lon="-6.2272320">
    <ele>7.7</ele>
    <time>2025-11-09T12:27:12Z</time>
   </trkpt>
   <trkpt lat="53.3610810" lon="-6.2273230">
    <ele>7.0</ele>
    <time>2025-11-09T12:27:17Z</time>
   </trkpt>
   <trkpt lat="53.3610750" lon="-6.2274280">
    <ele>8.0</ele>
    <time>2025-11-09T12:27:23Z</time>
   </trkpt>
   <trkpt lat="53.3610670" lon="-6.2275220">
    <ele>8.5</ele>
    <time>2025-11-09T12:27:28Z</time>
   </trkpt>
   <trkpt lat="53.3610680" lon="-6.2276240">
    <ele>8.4</ele>
    <time>2025-11-09T12:27:34Z</time>
   </trkpt>
   <trkpt lat="53.3610490" lon="-6.2277010">
    <ele>8.7</ele>
    <time>2025-11-09T12:27:39Z</time>
   </trkpt>
   <trkpt lat="53.3610390" lon="-6.2277930">
    <ele>8.6</ele>
    <time>2025-11-09T12:27:45Z</time>
   </trkpt>
   <trkpt lat="53.3610310" lon="-6.2278890">
    <ele>8.4</ele>
    <time>2025-11-09T12:27:50Z</time>
   </trkpt>
   <trkpt lat="53.3610220" lon="-6.2279820">
    <ele>8.3</ele>
    <time>2025-11-09T12:27:56Z</time>
   </trkpt>
   <trkpt lat="53.3610020" lon="-6.2280780">
    <ele>7.7</ele>
    <time>2025-11-09T12:28:01Z</time>
   </trkpt>
   <trkpt lat="53.3609830" lon="-6.2281740">
    <ele>8.3</ele>
    <time>2025-11-09T12:28:07Z</time>
   </trkpt>
   <trkpt lat="53.3609650" lon="-6.2282680">
    <ele>8.5</ele>
    <time>2025-11-09T12:28:12Z</time>
   </trkpt>
   <trkpt lat="53.3609490" lon="-6.2283640">
    <ele>8.4</ele>
    <time>2025-11-09T12:28:17Z</time>
   </trkpt>
   <trkpt lat="53.3609340" lon="-6.2284650">
    <ele>8.4</ele>
    <time>2025-11-09T12:28:23Z</time>
   </trkpt>
   <trkpt lat="53.3609240" lon="-6.2285720">
    <ele>7.9</ele>
    <time>2025-11-09T12:28:28Z</time>
   </trkpt>
   <trkpt lat="53.3609030" lon="-6.2286680">
    <ele>7.9</ele>
    <time>2025-11-09T12:28:33Z</time>
   </trkpt>
   <trkpt lat="53.3608820" lon="-6.2287640">
    <ele>9.3</ele>
    <time>2025-11-09T12:28:39Z</time>
   </trkpt>
   <trkpt lat="53.3608630" lon="-6.2288610">
    <ele>9.9</ele>
    <time>2025-11-09T12:28:44Z</time>
   </trkpt>
   <trkpt lat="53.3608500" lon="-6.2289600">
    <ele>10.1</ele>
    <time>2025-11-09T12:28:49Z</time>
   </trkpt>
   <trkpt lat="53.3608180" lon="-6.2290400">
    <ele>10.4</ele>
    <time>2025-11-09T12:28:54Z</time>
   </trkpt>
   <trkpt lat="53.3607960" lon="-6.2291370">
    <ele>10.2</ele>
    <time>2025-11-09T12:29:00Z</time>
   </trkpt>
   <trkpt lat="53.3607760" lon="-6.2292400">
    <ele>10.0</ele>
    <time>2025-11-09T12:29:05Z</time>
   </trkpt>
   <trkpt lat="53.3607480" lon="-6.2293300">
    <ele>10.5</ele>
    <time>2025-11-09T12:29:10Z</time>
   </trkpt>
   <trkpt lat="53.3607200" lon="-6.2294180">
    <ele>11.0</ele>
    <time>2025-11-09T12:29:16Z</time>
   </trkpt>
   <trkpt lat="53.3606880" lon="-6.2295020">
    <ele>11.1</ele>
    <time>2025-11-09T12:29:21Z</time>
   </trkpt>
   <trkpt lat="53.3606640" lon="-6.2296010">
    <ele>10.9</ele>
    <time>2025-11-09T12:29:26Z</time>
   </trkpt>
   <trkpt lat="53.3606440" lon="-6.2296980">
    <ele>10.5</ele>
    <time>2025-11-09T12:29:32Z</time>
   </trkpt>
   <trkpt lat="53.3606250" lon="-6.2297960">
    <ele>10.6</ele>
    <time>2025-11-09T12:29:37Z</time>
   </trkpt>
   <trkpt lat="53.3606000" lon="-6.2298890">
    <ele>10.6</ele>
    <time>2025-11-09T12:29:42Z</time>
   </trkpt>
   <trkpt lat="53.3605550" lon="-6.2299560">
    <ele>10.7</ele>
    <time>2025-11-09T12:29:48Z</time>
   </trkpt>
   <trkpt lat="53.3605230" lon="-6.2300410">
    <ele>10.7</ele>
    <time>2025-11-09T12:29:53Z</time>
   </trkpt>
   <trkpt lat="53.3604920" lon="-6.2301190">
    <ele>10.7</ele>
    <time>2025-11-09T12:29:58Z</time>
   </trkpt>
   <trkpt lat="53.3604540" lon="-6.2302060">
    <ele>10.8</ele>
    <time>2025-11-09T12:30:04Z</time>
   </trkpt>
   <trkpt lat="53.3604250" lon="-6.2302940">
    <ele>10.9</ele>
    <time>2025-11-09T12:30:09Z</time>
   </trkpt>
   <trkpt lat="53.3603940" lon="-6.2303810">
    <ele>11.0</ele>
    <time>2025-11-09T12:30:14Z</time>
   </trkpt>
   <trkpt lat="53.3603560" lon="-6.2304540">
    <ele>11.1</ele>
    <time>2025-11-09T12:30:20Z</time>
   </trkpt>
   <trkpt lat="53.3603200" lon="-6.2305300">
    <ele>10.9</ele>
    <time>2025-11-09T12:30:25Z</time>
   </trkpt>
   <trkpt lat="53.3602920" lon="-6.2305960">
    <ele>10.9</ele>
    <time>2025-11-09T12:30:31Z</time>
   </trkpt>
   <trkpt lat="53.3602550" lon="-6.2306650">
    <ele>11.0</ele>
    <time>2025-11-09T12:30:37Z</time>
   </trkpt>
   <trkpt lat="53.3602210" lon="-6.2307230">
    <ele>11.1</ele>
    <time>2025-11-09T12:30:42Z</time>
   </trkpt>
   <trkpt lat="53.3601890" lon="-6.2307870">
    <ele>11.2</ele>
    <time>2025-11-09T12:30:47Z</time>
   </trkpt>
   <trkpt lat="53.3601550" lon="-6.2308400">
    <ele>11.2</ele>
    <time>2025-11-09T12:30:52Z</time>
   </trkpt>
   <trkpt lat="53.3601300" lon="-6.2309200">
    <ele>11.3</ele>
    <time>2025-11-09T12:30:58Z</time>
   </trkpt>
   <trkpt lat="53.3600960" lon="-6.2310040">
    <ele>11.2</ele>
    <time>2025-11-09T12:31:03Z</time>
   </trkpt>
   <trkpt lat="53.3600520" lon="-6.2310820">
    <ele>11.3</ele>
    <time>2025-11-09T12:31:08Z</time>
   </trkpt>
   <trkpt lat="53.3600150" lon="-6.2311560">
    <ele>11.3</ele>
    <time>2025-11-09T12:31:14Z</time>
   </trkpt>
   <trkpt lat="53.3599610" lon="-6.2312090">
    <ele>11.3</ele>
    <time>2025-11-09T12:31:19Z</time>
   </trkpt>
   <trkpt lat="53.3599150" lon="-6.2312840">
    <ele>11.3</ele>
    <time>2025-11-09T12:31:24Z</time>
   </trkpt>
   <trkpt lat="53.3598730" lon="-6.2313580">
    <ele>11.3</ele>
    <time>2025-11-09T12:31:29Z</time>
   </trkpt>
   <trkpt lat="53.3598300" lon="-6.2314260">
    <ele>11.3</ele>
    <time>2025-11-09T12:31:35Z</time>
   </trkpt>
   <trkpt lat="53.3597870" lon="-6.2314990">
    <ele>11.3</ele>
    <time>2025-11-09T12:31:40Z</time>
   </trkpt>
   <trkpt lat="53.3597480" lon="-6.2315790">
    <ele>11.3</ele>
    <time>2025-11-09T12:31:45Z</time>
   </trkpt>
   <trkpt lat="53.3597010" lon="-6.2316400">
    <ele>11.3</ele>
    <time>2025-11-09T12:31:51Z</time>
   </trkpt>
   <trkpt lat="53.3596510" lon="-6.2316870">
    <ele>11.3</ele>
    <time>2025-11-09T12:31:56Z</time>
   </trkpt>
   <trkpt lat="53.3595990" lon="-6.2316360">
    <ele>11.4</ele>
    <time>2025-11-09T12:32:01Z</time>
   </trkpt>
   <trkpt lat="53.3595710" lon="-6.2315640">
    <ele>11.3</ele>
    <time>2025-11-09T12:32:07Z</time>
   </trkpt>
   <trkpt lat="53.3595250" lon="-6.2315400">
    <ele>11.4</ele>
    <time>2025-11-09T12:32:29Z</time>
   </trkpt>
   <trkpt lat="53.3595070" lon="-6.2314340">
    <ele>11.2</ele>
    <time>2025-11-09T12:32:34Z</time>
   </trkpt>
   <trkpt lat="53.3594900" lon="-6.2313350">
    <ele>11.0</ele>
    <time>2025-11-09T12:32:40Z</time>
   </trkpt>
   <trkpt lat="53.3594800" lon="-6.2312360">
    <ele>10.9</ele>
    <time>2025-11-09T12:32:45Z</time>
   </trkpt>
   <trkpt lat="53.3594560" lon="-6.2311520">
    <ele>10.9</ele>
    <time>2025-11-09T12:32:50Z</time>
   </trkpt>
   <trkpt lat="53.3594420" lon="-6.2310640">
    <ele>10.8</ele>
    <time>2025-11-09T12:32:55Z</time>
   </trkpt>
   <trkpt lat="53.3594130" lon="-6.2309680">
    <ele>10.7</ele>
    <time>2025-11-09T12:33:01Z</time>
   </trkpt>
   <trkpt lat="53.3593910" lon="-6.2308900">
    <ele>10.6</ele>
    <time>2025-11-09T12:33:06Z</time>
   </trkpt>
   <trkpt lat="53.3593710" lon="-6.2307920">
    <ele>10.5</ele>
    <time>2025-11-09T12:33:11Z</time>
   </trkpt>
   <trkpt lat="53.3593530" lon="-6.2306910">
    <ele>10.4</ele>
    <time>2025-11-09T12:33:16Z</time>
   </trkpt>
   <trkpt lat="53.3593230" lon="-6.2306190">
    <ele>10.2</ele>
    <time>2025-11-09T12:33:21Z</time>
   </trkpt>
   <trkpt lat="53.3593060" lon="-6.2305210">
    <ele>10.0</ele>
    <time>2025-11-09T12:33:27Z</time>
   </trkpt>
   <trkpt lat="53.3592870" lon="-6.2304190">
    <ele>9.7</ele>
    <time>2025-11-09T12:33:32Z</time>
   </trkpt>
   <trkpt lat="53.3592620" lon="-6.2303310">
    <ele>9.4</ele>
    <time>2025-11-09T12:33:37Z</time>
   </trkpt>
   <trkpt lat="53.3592480" lon="-6.2302350">
    <ele>9.0</ele>
    <time>2025-11-09T12:33:42Z</time>
   </trkpt>
   <trkpt lat="53.3592130" lon="-6.2301490">
    <ele>8.6</ele>
    <time>2025-11-09T12:33:48Z</time>
   </trkpt>
   <trkpt lat="53.3591870" lon="-6.2300520">
    <ele>8.4</ele>
    <time>2025-11-09T12:33:53Z</time>
   </trkpt>
   <trkpt lat="53.3591610" lon="-6.2299590">
    <ele>8.1</ele>
    <time>2025-11-09T12:33:58Z</time>
   </trkpt>
   <trkpt lat="53.3591310" lon="-6.2298730">
    <ele>7.8</ele>
    <time>2025-11-09T12:34:03Z</time>
   </trkpt>
   <trkpt lat="53.3591080" lon="-6.2297770">
    <ele>7.7</ele>
    <time>2025-11-09T12:34:08Z</time>
   </trkpt>
   <trkpt lat="53.3590890" lon="-6.2296810">
    <ele>7.1</ele>
    <time>2025-11-09T12:34:14Z</time>
   </trkpt>
   <trkpt lat="53.3590720" lon="-6.2295840">
    <ele>6.8</ele>
    <time>2025-11-09T12:34:19Z</time>
   </trkpt>
   <trkpt lat="53.3590450" lon="-6.2294980">
    <ele>6.7</ele>
    <time>2025-11-09T12:34:24Z</time>
   </trkpt>
   <trkpt lat="53.3590140" lon="-6.2294130">
    <ele>6.7</ele>
    <time>2025-11-09T12:34:30Z</time>
   </trkpt>
   <trkpt lat="53.3589900" lon="-6.2293180">
    <ele>6.6</ele>
    <time>2025-11-09T12:34:35Z</time>
   </trkpt>
   <trkpt lat="53.3589650" lon="-6.2292260">
    <ele>7.3</ele>
    <time>2025-11-09T12:34:40Z</time>
   </trkpt>
   <trkpt lat="53.3589390" lon="-6.2291380">
    <ele>7.8</ele>
    <time>2025-11-09T12:34:46Z</time>
   </trkpt>
   <trkpt lat="53.3589190" lon="-6.2290420">
    <ele>8.1</ele>
    <time>2025-11-09T12:34:51Z</time>
   </trkpt>
   <trkpt lat="53.3588990" lon="-6.2289450">
    <ele>8.1</ele>
    <time>2025-11-09T12:34:56Z</time>
   </trkpt>
   <trkpt lat="53.3588750" lon="-6.2288590">
    <ele>8.2</ele>
    <time>2025-11-09T12:35:01Z</time>
   </trkpt>
   <trkpt lat="53.3588560" lon="-6.2287680">
    <ele>8.1</ele>
    <time>2025-11-09T12:35:07Z</time>
   </trkpt>
   <trkpt lat="53.3588340" lon="-6.2286780">
    <ele>8.2</ele>
    <time>2025-11-09T12:35:12Z</time>
   </trkpt>
   <trkpt lat="53.3588120" lon="-6.2285880">
    <ele>8.2</ele>
    <time>2025-11-09T12:35:17Z</time>
   </trkpt>
   <trkpt lat="53.3587820" lon="-6.2284860">
    <ele>8.2</ele>
    <time>2025-11-09T12:35:23Z</time>
   </trkpt>
   <trkpt lat="53.3587580" lon="-6.2283980">
    <ele>8.1</ele>
    <time>2025-11-09T12:35:28Z</time>
   </trkpt>
   <trkpt lat="53.3587380" lon="-6.2282920">
    <ele>7.3</ele>
    <time>2025-11-09T12:35:33Z</time>
   </trkpt>
   <trkpt lat="53.3587220" lon="-6.2282040">
    <ele>7.6</ele>
    <time>2025-11-09T12:35:38Z</time>
   </trkpt>
   <trkpt lat="53.3586960" lon="-6.2281190">
    <ele>7.4</ele>
    <time>2025-11-09T12:35:44Z</time>
   </trkpt>
   <trkpt lat="53.3587090" lon="-6.2280370">
    <ele>7.1</ele>
    <time>2025-11-09T12:35:49Z</time>
   </trkpt>
   <trkpt lat="53.3587380" lon="-6.2279740">
    <ele>6.7</ele>
    <time>2025-11-09T12:39:30Z</time>
   </trkpt>
   <trkpt lat="53.3587600" lon="-6.2279000">
    <ele>6.6</ele>
    <time>2025-11-09T12:39:37Z</time>
   </trkpt>
   <trkpt lat="53.3587900" lon="-6.2278320">
    <ele>6.6</ele>
    <time>2025-11-09T12:39:42Z</time>
   </trkpt>
   <trkpt lat="53.3588240" lon="-6.2277780">
    <ele>6.5</ele>
    <time>2025-11-09T12:39:47Z</time>
   </trkpt>
   <trkpt lat="53.3588520" lon="-6.2277080">
    <ele>6.5</ele>
    <time>2025-11-09T12:39:52Z</time>
   </trkpt>
   <trkpt lat="53.3588840" lon="-6.2276410">
    <ele>6.6</ele>
    <time>2025-11-09T12:39:57Z</time>
   </trkpt>
   <trkpt lat="53.3589150" lon="-6.2275840">
    <ele>6.6</ele>
    <time>2025-11-09T12:40:03Z</time>
   </trkpt>
   <trkpt lat="53.3589520" lon="-6.2275240">
    <ele>6.6</ele>
    <time>2025-11-09T12:40:09Z</time>
   </trkpt>
   <trkpt lat="53.3589610" lon="-6.2274410">
    <ele>6.7</ele>
    <time>2025-11-09T12:40:18Z</time>
   </trkpt>
   <trkpt lat="53.3589820" lon="-6.2273420">
    <ele>7.4</ele>
    <time>2025-11-09T12:40:23Z</time>
   </trkpt>
   <trkpt lat="53.3590110" lon="-6.2272660">
    <ele>7.8</ele>
    <time>2025-11-09T12:40:29Z</time>
   </trkpt>
   <trkpt lat="53.3590400" lon="-6.2271910">
    <ele>7.4</ele>
    <time>2025-11-09T12:40:34Z</time>
   </trkpt>
   <trkpt lat="53.3590690" lon="-6.2271140">
    <ele>7.2</ele>
    <time>2025-11-09T12:40:39Z</time>
   </trkpt>
   <trkpt lat="53.3590900" lon="-6.2270460">
    <ele>6.7</ele>
    <time>2025-11-09T12:40:44Z</time>
   </trkpt>
   <trkpt lat="53.3591030" lon="-6.2269700">
    <ele>6.9</ele>
    <time>2025-11-09T12:40:49Z</time>
   </trkpt>
   <trkpt lat="53.3590750" lon="-6.2268830">
    <ele>6.5</ele>
    <time>2025-11-09T12:40:55Z</time>
   </trkpt>
   <trkpt lat="53.3590520" lon="-6.2268050">
    <ele>6.4</ele>
    <time>2025-11-09T12:41:00Z</time>
   </trkpt>
   <trkpt lat="53.3590320" lon="-6.2267190">
    <ele>6.4</ele>
    <time>2025-11-09T12:41:05Z</time>
   </trkpt>
   <trkpt lat="53.3590090" lon="-6.2266550">
    <ele>6.4</ele>
    <time>2025-11-09T12:41:10Z</time>
   </trkpt>
   <trkpt lat="53.3589880" lon="-6.2265740">
    <ele>6.3</ele>
    <time>2025-11-09T12:41:15Z</time>
   </trkpt>
   <trkpt lat="53.3589700" lon="-6.2264880">
    <ele>6.4</ele>
    <time>2025-11-09T12:41:20Z</time>
   </trkpt>
   <trkpt lat="53.3589530" lon="-6.2264090">
    <ele>6.3</ele>
    <time>2025-11-09T12:41:26Z</time>
   </trkpt>
   <trkpt lat="53.3589380" lon="-6.2263280">
    <ele>7.3</ele>
    <time>2025-11-09T12:41:34Z</time>
   </trkpt>
   <trkpt lat="53.3589210" lon="-6.2262430">
    <ele>7.8</ele>
    <time>2025-11-09T12:41:39Z</time>
   </trkpt>
   <trkpt lat="53.3588970" lon="-6.2261450">
    <ele>8.0</ele>
    <time>2025-11-09T12:41:45Z</time>
   </trkpt>
   <trkpt lat="53.3588730" lon="-6.2260560">
    <ele>7.8</ele>
    <time>2025-11-09T12:41:51Z</time>
   </trkpt>
   <trkpt lat="53.3588540" lon="-6.2259630">
    <ele>7.4</ele>
    <time>2025-11-09T12:41:56Z</time>
   </trkpt>
   <trkpt lat="53.3588280" lon="-6.2258960">
    <ele>7.7</ele>
    <time>2025-11-09T12:42:01Z</time>
   </trkpt>
   <trkpt lat="53.3588140" lon="-6.2257960">
    <ele>7.9</ele>
    <time>2025-11-09T12:42:07Z</time>
   </trkpt>
   <trkpt lat="53.3587920" lon="-6.2257310">
    <ele>7.9</ele>
    <time>2025-11-09T12:42:12Z</time>
   </trkpt>
   <trkpt lat="53.3587740" lon="-6.2256530">
    <ele>7.9</ele>
    <time>2025-11-09T12:42:17Z</time>
   </trkpt>
   <trkpt lat="53.3587380" lon="-6.2255650">
    <ele>7.3</ele>
    <time>2025-11-09T12:42:23Z</time>
   </trkpt>
   <trkpt lat="53.3587260" lon="-6.2254890">
    <ele>7.4</ele>
    <time>2025-11-09T12:42:43Z</time>
   </trkpt>
   <trkpt lat="53.3587040" lon="-6.2253800">
    <ele>7.7</ele>
    <time>2025-11-09T12:42:48Z</time>
   </trkpt>
   <trkpt lat="53.3586770" lon="-6.2252810">
    <ele>7.7</ele>
    <time>2025-11-09T12:42:54Z</time>
   </trkpt>
   <trkpt lat="53.3586550" lon="-6.2251940">
    <ele>7.8</ele>
    <time>2025-11-09T12:42:59Z</time>
   </trkpt>
   <trkpt lat="53.3586320" lon="-6.2251080">
    <ele>7.2</ele>
    <time>2025-11-09T12:43:04Z</time>
   </trkpt>
   <trkpt lat="53.3586090" lon="-6.2250170">
    <ele>7.5</ele>
    <time>2025-11-09T12:43:10Z</time>
   </trkpt>
   <trkpt lat="53.3585750" lon="-6.2249640">
    <ele>7.0</ele>
    <time>2025-11-09T12:43:16Z</time>
   </trkpt>
   <trkpt lat="53.3585660" lon="-6.2248850">
    <ele>6.0</ele>
    <time>2025-11-09T12:44:35Z</time>
   </trkpt>
   <trkpt lat="53.3585390" lon="-6.2248030">
    <ele>6.1</ele>
    <time>2025-11-09T12:44:40Z</time>
   </trkpt>
   <trkpt lat="53.3585230" lon="-6.2247210">
    <ele>6.7</ele>
    <time>2025-11-09T12:44:46Z</time>
   </trkpt>
   <trkpt lat="53.3585080" lon="-6.2246180">
    <ele>6.5</ele>
    <time>2025-11-09T12:44:51Z</time>
   </trkpt>
   <trkpt lat="53.3584910" lon="-6.2245370">
    <ele>6.4</ele>
    <time>2025-11-09T12:44:56Z</time>
   </trkpt>
   <trkpt lat="53.3584640" lon="-6.2244710">
    <ele>6.5</ele>
    <time>2025-11-09T12:45:03Z</time>
   </trkpt>
   <trkpt lat="53.3584490" lon="-6.2243980">
    <ele>6.1</ele>
    <time>2025-11-09T12:45:08Z</time>
   </trkpt>
   <trkpt lat="53.3584340" lon="-6.2243220">
    <ele>5.7</ele>
    <time>2025-11-09T12:45:14Z</time>
   </trkpt>
   <trkpt lat="53.3584220" lon="-6.2242450">
    <ele>5.8</ele>
    <time>2025-11-09T12:45:20Z</time>
   </trkpt>
   <trkpt lat="53.3584060" lon="-6.2241710">
    <ele>5.7</ele>
    <time>2025-11-09T12:45:25Z</time>
   </trkpt>
   <trkpt lat="53.3583900" lon="-6.2240990">
    <ele>5.9</ele>
    <time>2025-11-09T12:45:31Z</time>
   </trkpt>
   <trkpt lat="53.3583720" lon="-6.2240180">
    <ele>5.8</ele>
    <time>2025-11-09T12:45:37Z</time>
   </trkpt>
   <trkpt lat="53.3583570" lon="-6.2239440">
    <ele>5.5</ele>
    <time>2025-11-09T12:45:42Z</time>
   </trkpt>
   <trkpt lat="53.3583410" lon="-6.2238670">
    <ele>6.0</ele>
    <time>2025-11-09T12:45:47Z</time>
   </trkpt>
   <trkpt lat="53.3583270" lon="-6.2237860">
    <ele>6.0</ele>
    <time>2025-11-09T12:45:52Z</time>
   </trkpt>
   <trkpt lat="53.3583130" lon="-6.2237120">
    <ele>6.0</ele>
    <time>2025-11-09T12:45:57Z</time>
   </trkpt>
   <trkpt lat="53.3582960" lon="-6.2236330">
    <ele>6.1</ele>
    <time>2025-11-09T12:46:02Z</time>
   </trkpt>
   <trkpt lat="53.3582750" lon="-6.2235570">
    <ele>6.4</ele>
    <time>2025-11-09T12:46:07Z</time>
   </trkpt>
   <trkpt lat="53.3582550" lon="-6.2234660">
    <ele>6.9</ele>
    <time>2025-11-09T12:46:13Z</time>
   </trkpt>
   <trkpt lat="53.3582320" lon="-6.2233800">
    <ele>7.2</ele>
    <time>2025-11-09T12:46:18Z</time>
   </trkpt>
   <trkpt lat="53.3582160" lon="-6.2232950">
    <ele>7.0</ele>
    <time>2025-11-09T12:46:24Z</time>
   </trkpt>
   <trkpt lat="53.3581990" lon="-6.2232120">
    <ele>7.4</ele>
    <time>2025-11-09T12:46:29Z</time>
   </trkpt>
   <trkpt lat="53.3581820" lon="-6.2231240">
    <ele>7.8</ele>
    <time>2025-11-09T12:46:34Z</time>
   </trkpt>
   <trkpt lat="53.3581610" lon="-6.2230300">
    <ele>7.7</ele>
    <time>2025-11-09T12:46:39Z</time>
   </trkpt>
   <trkpt lat="53.3581470" lon="-6.2229560">
    <ele>7.2</ele>
    <time>2025-11-09T12:46:44Z</time>
   </trkpt>
   <trkpt lat="53.3581290" lon="-6.2228840">
    <ele>7.0</ele>
    <time>2025-11-09T12:46:50Z</time>
   </trkpt>
   <trkpt lat="53.3581080" lon="-6.2228000">
    <ele>6.9</ele>
    <time>2025-11-09T12:46:56Z</time>
   </trkpt>
   <trkpt lat="53.3580930" lon="-6.2227230">
    <ele>6.9</ele>
    <time>2025-11-09T12:47:01Z</time>
   </trkpt>
   <trkpt lat="53.3580770" lon="-6.2226400">
    <ele>6.9</ele>
    <time>2025-11-09T12:47:06Z</time>
   </trkpt>
   <trkpt lat="53.3580550" lon="-6.2225420">
    <ele>6.9</ele>
    <time>2025-11-09T12:47:12Z</time>
   </trkpt>
   <trkpt lat="53.3580390" lon="-6.2224540">
    <ele>7.0</ele>
    <time>2025-11-09T12:47:17Z</time>
   </trkpt>
   <trkpt lat="53.3580190" lon="-6.2223680">
    <ele>7.7</ele>
    <time>2025-11-09T12:47:23Z</time>
   </trkpt>
   <trkpt lat="53.3579990" lon="-6.2222710">
    <ele>7.3</ele>
    <time>2025-11-09T12:47:28Z</time>
   </trkpt>
   <trkpt lat="53.3579820" lon="-6.2221860">
    <ele>7.0</ele>
    <time>2025-11-09T12:47:34Z</time>
   </trkpt>
   <trkpt lat="53.3579640" lon="-6.2221020">
    <ele>7.0</ele>
    <time>2025-11-09T12:47:39Z</time>
   </trkpt>
   <trkpt lat="53.3579470" lon="-6.2220040">
    <ele>6.9</ele>
    <time>2025-11-09T12:47:45Z</time>
   </trkpt>
   <trkpt lat="53.3579280" lon="-6.2219270">
    <ele>7.7</ele>
    <time>2025-11-09T12:47:51Z</time>
   </trkpt>
   <trkpt lat="53.3579080" lon="-6.2218390">
    <ele>7.3</ele>
    <time>2025-11-09T12:47:56Z</time>
   </trkpt>
   <trkpt lat="53.3578870" lon="-6.2217710">
    <ele>7.1</ele>
    <time>2025-11-09T12:48:01Z</time>
   </trkpt>
   <trkpt lat="53.3578670" lon="-6.2217030">
    <ele>7.0</ele>
    <time>2025-11-09T12:48:06Z</time>
   </trkpt>
   <trkpt lat="53.3578350" lon="-6.2216280">
    <ele>6.9</ele>
    <time>2025-11-09T12:48:12Z</time>
   </trkpt>
   <trkpt lat="53.3578230" lon="-6.2215070">
    <ele>7.4</ele>
    <time>2025-11-09T12:48:17Z</time>
   </trkpt>
   <trkpt lat="53.3578100" lon="-6.2214310">
    <ele>7.4</ele>
    <time>2025-11-09T12:48:25Z</time>
   </trkpt>
   <trkpt lat="53.3577970" lon="-6.2213570">
    <ele>7.1</ele>
    <time>2025-11-09T12:48:32Z</time>
   </trkpt>
   <trkpt lat="53.3577780" lon="-6.2212410">
    <ele>7.1</ele>
    <time>2025-11-09T12:48:37Z</time>
   </trkpt>
   <trkpt lat="53.3577610" lon="-6.2211510">
    <ele>7.3</ele>
    <time>2025-11-09T12:48:42Z</time>
   </trkpt>
   <trkpt lat="53.3577430" lon="-6.2210770">
    <ele>7.2</ele>
    <time>2025-11-09T12:48:48Z</time>
   </trkpt>
   <trkpt lat="53.3577320" lon="-6.2210010">
    <ele>7.3</ele>
    <time>2025-11-09T12:48:53Z</time>
   </trkpt>
   <trkpt lat="53.3577160" lon="-6.2209150">
    <ele>7.4</ele>
    <time>2025-11-09T12:48:58Z</time>
   </trkpt>
   <trkpt lat="53.3576950" lon="-6.2208280">
    <ele>7.4</ele>
    <time>2025-11-09T12:49:03Z</time>
   </trkpt>
   <trkpt lat="53.3576820" lon="-6.2207460">
    <ele>7.4</ele>
    <time>2025-11-09T12:49:08Z</time>
   </trkpt>
   <trkpt lat="53.3576630" lon="-6.2206690">
    <ele>7.4</ele>
    <time>2025-11-09T12:49:14Z</time>
   </trkpt>
   <trkpt lat="53.3576470" lon="-6.2205970">
    <ele>6.8</ele>
    <time>2025-11-09T12:49:22Z</time>
   </trkpt>
   <trkpt lat="53.3576320" lon="-6.2204780">
    <ele>6.6</ele>
    <time>2025-11-09T12:49:28Z</time>
   </trkpt>
   <trkpt lat="53.3576150" lon="-6.2203950">
    <ele>6.2</ele>
    <time>2025-11-09T12:49:33Z</time>
   </trkpt>
   <trkpt lat="53.3575820" lon="-6.2203080">
    <ele>6.6</ele>
    <time>2025-11-09T12:49:39Z</time>
   </trkpt>
   <trkpt lat="53.3575590" lon="-6.2202210">
    <ele>6.8</ele>
    <time>2025-11-09T12:49:44Z</time>
   </trkpt>
   <trkpt lat="53.3575470" lon="-6.2201370">
    <ele>6.6</ele>
    <time>2025-11-09T12:49:49Z</time>
   </trkpt>
   <trkpt lat="53.3575270" lon="-6.2200410">
    <ele>7.0</ele>
    <time>2025-11-09T12:49:55Z</time>
   </trkpt>
   <trkpt lat="53.3575030" lon="-6.2199440">
    <ele>6.6</ele>
    <time>2025-11-09T12:50:00Z</time>
   </trkpt>
   <trkpt lat="53.3574910" lon="-6.2198460">
    <ele>6.7</ele>
    <time>2025-11-09T12:50:06Z</time>
   </trkpt>
   <trkpt lat="53.3574720" lon="-6.2197620">
    <ele>6.0</ele>
    <time>2025-11-09T12:50:11Z</time>
   </trkpt>
   <trkpt lat="53.3574470" lon="-6.2196760">
    <ele>6.2</ele>
    <time>2025-11-09T12:50:17Z</time>
   </trkpt>
   <trkpt lat="53.3574280" lon="-6.2195870">
    <ele>6.3</ele>
    <time>2025-11-09T12:50:22Z</time>
   </trkpt>
   <trkpt lat="53.3574050" lon="-6.2195180">
    <ele>6.3</ele>
    <time>2025-11-09T12:50:27Z</time>
   </trkpt>
   <trkpt lat="53.3573760" lon="-6.2194470">
    <ele>6.5</ele>
    <time>2025-11-09T12:50:40Z</time>
   </trkpt>
   <trkpt lat="53.3573570" lon="-6.2193520">
    <ele>6.4</ele>
    <time>2025-11-09T12:50:45Z</time>
   </trkpt>
   <trkpt lat="53.3573240" lon="-6.2192980">
    <ele>6.2</ele>
    <time>2025-11-09T12:50:52Z</time>
   </trkpt>
   <trkpt lat="53.3572670" lon="-6.2192560">
    <ele>6.3</ele>
    <time>2025-11-09T12:50:57Z</time>
   </trkpt>
   <trkpt lat="53.3572100" lon="-6.2192040">
    <ele>6.2</ele>
    <time>2025-11-09T12:51:02Z</time>
   </trkpt>
   <trkpt lat="53.3571830" lon="-6.2191330">
    <ele>6.1</ele>
    <time>2025-11-09T12:51:09Z</time>
   </trkpt>
   <trkpt lat="53.3571640" lon="-6.2190500">
    <ele>6.3</ele>
    <time>2025-11-09T12:51:15Z</time>
   </trkpt>
   <trkpt lat="53.3571530" lon="-6.2189770">
    <ele>6.1</ele>
    <time>2025-11-09T12:51:22Z</time>
   </trkpt>
   <trkpt lat="53.3571210" lon="-6.2189030">
    <ele>6.1</ele>
    <time>2025-11-09T12:51:27Z</time>
   </trkpt>
   <trkpt lat="53.3571040" lon="-6.2188270">
    <ele>6.3</ele>
    <time>2025-11-09T12:51:41Z</time>
   </trkpt>
   <trkpt lat="53.3570780" lon="-6.2187640">
    <ele>7.2</ele>
    <time>2025-11-09T12:52:32Z</time>
   </trkpt>
   <trkpt lat="53.3570380" lon="-6.2187090">
    <ele>5.4</ele>
    <time>2025-11-09T12:54:02Z</time>
   </trkpt>
   <trkpt lat="53.3570060" lon="-6.2186520">
    <ele>5.2</ele>
    <time>2025-11-09T12:54:08Z</time>
   </trkpt>
   <trkpt lat="53.3569720" lon="-6.2186020">
    <ele>5.2</ele>
    <time>2025-11-09T12:54:14Z</time>
   </trkpt>
   <trkpt lat="53.3569410" lon="-6.2185370">
    <ele>5.4</ele>
    <time>2025-11-09T12:54:20Z</time>
   </trkpt>
   <trkpt lat="53.3569060" lon="-6.2184720">
    <ele>5.4</ele>
    <time>2025-11-09T12:54:25Z</time>
   </trkpt>
   <trkpt lat="53.3568750" lon="-6.2184050">
    <ele>5.1</ele>
    <time>2025-11-09T12:54:31Z</time>
   </trkpt>
   <trkpt lat="53.3568440" lon="-6.2183390">
    <ele>4.8</ele>
    <time>2025-11-09T12:54:36Z</time>
   </trkpt>
   <trkpt lat="53.3568220" lon="-6.2182560">
    <ele>4.7</ele>
    <time>2025-11-09T12:54:42Z</time>
   </trkpt>
   <trkpt lat="53.3568030" lon="-6.2181720">
    <ele>5.2</ele>
    <time>2025-11-09T12:54:47Z</time>
   </trkpt>
   <trkpt lat="53.3568080" lon="-6.2180690">
    <ele>4.8</ele>
    <time>2025-11-09T12:54:52Z</time>
   </trkpt>
   <trkpt lat="53.3568000" lon="-6.2179940">
    <ele>4.7</ele>
    <time>2025-11-09T12:54:57Z</time>
   </trkpt>
   <trkpt lat="53.3567880" lon="-6.2179150">
    <ele>4.5</ele>
    <time>2025-11-09T12:55:03Z</time>
   </trkpt>
   <trkpt lat="53.3567880" lon="-6.2178160">
    <ele>4.5</ele>
    <time>2025-11-09T12:55:09Z</time>
   </trkpt>
   <trkpt lat="53.3567850" lon="-6.2177250">
    <ele>4.5</ele>
    <time>2025-11-09T12:55:14Z</time>
   </trkpt>
   <trkpt lat="53.3567780" lon="-6.2176400">
    <ele>4.6</ele>
    <time>2025-11-09T12:55:21Z</time>
   </trkpt>
   <trkpt lat="53.3567730" lon="-6.2175640">
    <ele>4.5</ele>
    <time>2025-11-09T12:55:26Z</time>
   </trkpt>
   <trkpt lat="53.3567680" lon="-6.2174780">
    <ele>4.6</ele>
    <time>2025-11-09T12:55:32Z</time>
   </trkpt>
   <trkpt lat="53.3567500" lon="-6.2173950">
    <ele>4.7</ele>
    <time>2025-11-09T12:55:37Z</time>
   </trkpt>
   <trkpt lat="53.3567380" lon="-6.2172950">
    <ele>4.7</ele>
    <time>2025-11-09T12:55:43Z</time>
   </trkpt>
   <trkpt lat="53.3567320" lon="-6.2172070">
    <ele>4.8</ele>
    <time>2025-11-09T12:55:48Z</time>
   </trkpt>
   <trkpt lat="53.3567280" lon="-6.2171250">
    <ele>4.8</ele>
    <time>2025-11-09T12:55:53Z</time>
   </trkpt>
   <trkpt lat="53.3567290" lon="-6.2170450">
    <ele>4.5</ele>
    <time>2025-11-09T12:55:59Z</time>
   </trkpt>
   <trkpt lat="53.3567180" lon="-6.2169670">
    <ele>4.3</ele>
    <time>2025-11-09T12:56:05Z</time>
   </trkpt>
   <trkpt lat="53.3567050" lon="-6.2168800">
    <ele>4.4</ele>
    <time>2025-11-09T12:56:10Z</time>
   </trkpt>
   <trkpt lat="53.3566900" lon="-6.2168000">
    <ele>4.5</ele>
    <time>2025-11-09T12:56:16Z</time>
   </trkpt>
   <trkpt lat="53.3566880" lon="-6.2167040">
    <ele>4.6</ele>
    <time>2025-11-09T12:56:21Z</time>
   </trkpt>
   <trkpt lat="53.3566680" lon="-6.2166080">
    <ele>4.5</ele>
    <time>2025-11-09T12:56:26Z</time>
   </trkpt>
   <trkpt lat="53.3566640" lon="-6.2165110">
    <ele>4.4</ele>
    <time>2025-11-09T12:56:32Z</time>
   </trkpt>
   <trkpt lat="53.3566670" lon="-6.2164160">
    <ele>4.4</ele>
    <time>2025-11-09T12:56:37Z</time>
   </trkpt>
   <trkpt lat="53.3566760" lon="-6.2163380">
    <ele>4.6</ele>
    <time>2025-11-09T12:56:42Z</time>
   </trkpt>
   <trkpt lat="53.3566800" lon="-6.2162600">
    <ele>4.8</ele>
    <time>2025-11-09T12:56:48Z</time>
   </trkpt>
   <trkpt lat="53.3566820" lon="-6.2161550">
    <ele>4.6</ele>
    <time>2025-11-09T12:56:54Z</time>
   </trkpt>
   <trkpt lat="53.3566800" lon="-6.2160530">
    <ele>4.4</ele>
    <time>2025-11-09T12:56:59Z</time>
   </trkpt>
   <trkpt lat="53.3566720" lon="-6.2159640">
    <ele>4.4</ele>
    <time>2025-11-09T12:57:05Z</time>
   </trkpt>
   <trkpt lat="53.3566780" lon="-6.2158520">
    <ele>4.6</ele>
    <time>2025-11-09T12:57:10Z</time>
   </trkpt>
   <trkpt lat="53.3566770" lon="-6.2157600">
    <ele>4.6</ele>
    <time>2025-11-09T12:57:16Z</time>
   </trkpt>
   <trkpt lat="53.3566560" lon="-6.2156730">
    <ele>4.5</ele>
    <time>2025-11-09T12:57:21Z</time>
   </trkpt>
   <trkpt lat="53.3566560" lon="-6.2155640">
    <ele>4.4</ele>
    <time>2025-11-09T12:57:26Z</time>
   </trkpt>
   <trkpt lat="53.3566630" lon="-6.2154710">
    <ele>4.3</ele>
    <time>2025-11-09T12:57:32Z</time>
   </trkpt>
   <trkpt lat="53.3566630" lon="-6.2153790">
    <ele>4.4</ele>
    <time>2025-11-09T12:57:37Z</time>
   </trkpt>
   <trkpt lat="53.3566570" lon="-6.2152850">
    <ele>4.4</ele>
    <time>2025-11-09T12:57:43Z</time>
   </trkpt>
   <trkpt lat="53.3566690" lon="-6.2151970">
    <ele>4.4</ele>
    <time>2025-11-09T12:57:48Z</time>
   </trkpt>
   <trkpt lat="53.3566650" lon="-6.2151220">
    <ele>4.4</ele>
    <time>2025-11-09T12:57:54Z</time>
   </trkpt>
   <trkpt lat="53.3566630" lon="-6.2150470">
    <ele>4.4</ele>
    <time>2025-11-09T12:57:59Z</time>
   </trkpt>
   <trkpt lat="53.3566580" lon="-6.2149530">
    <ele>4.6</ele>
    <time>2025-11-09T12:58:05Z</time>
   </trkpt>
   <trkpt lat="53.3566590" lon="-6.2148700">
    <ele>4.8</ele>
    <time>2025-11-09T12:58:10Z</time>
   </trkpt>
   <trkpt lat="53.3566540" lon="-6.2147910">
    <ele>4.8</ele>
    <time>2025-11-09T12:58:16Z</time>
   </trkpt>
   <trkpt lat="53.3566560" lon="-6.2147070">
    <ele>4.7</ele>
    <time>2025-11-09T12:58:22Z</time>
   </trkpt>
   <trkpt lat="53.3566470" lon="-6.2146310">
    <ele>4.7</ele>
    <time>2025-11-09T12:58:28Z</time>
   </trkpt>
   <trkpt lat="53.3566400" lon="-6.2145560">
    <ele>4.7</ele>
    <time>2025-11-09T12:58:33Z</time>
   </trkpt>
   <trkpt lat="53.3566420" lon="-6.2144720">
    <ele>4.7</ele>
    <time>2025-11-09T12:58:56Z</time>
   </trkpt>
   <trkpt lat="53.3566850" lon="-6.2144220">
    <ele>4.3</ele>
    <time>2025-11-09T12:59:07Z</time>
   </trkpt>
   <trkpt lat="53.3567200" lon="-6.2143660">
    <ele>4.4</ele>
    <time>2025-11-09T12:59:13Z</time>
   </trkpt>
   <trkpt lat="53.3567470" lon="-6.2142900">
    <ele>4.5</ele>
    <time>2025-11-09T12:59:19Z</time>
   </trkpt>
   <trkpt lat="53.3567640" lon="-6.2142160">
    <ele>4.5</ele>
    <time>2025-11-09T12:59:24Z</time>
   </trkpt>
   <trkpt lat="53.3567530" lon="-6.2141340">
    <ele>4.6</ele>
    <time>2025-11-09T12:59:56Z</time>
   </trkpt>
   <trkpt lat="53.3567540" lon="-6.2140450">
    <ele>4.7</ele>
    <time>2025-11-09T13:00:01Z</time>
   </trkpt>
   <trkpt lat="53.3567570" lon="-6.2139700">
    <ele>4.9</ele>
    <time>2025-11-09T13:00:07Z</time>
   </trkpt>
   <trkpt lat="53.3567450" lon="-6.2138930">
    <ele>4.9</ele>
    <time>2025-11-09T13:00:14Z</time>
   </trkpt>
   <trkpt lat="53.3567240" lon="-6.2138220">
    <ele>5.4</ele>
    <time>2025-11-09T13:00:20Z</time>
   </trkpt>
   <trkpt lat="53.3567150" lon="-6.2137470">
    <ele>5.9</ele>
    <time>2025-11-09T13:00:28Z</time>
   </trkpt>
   <trkpt lat="53.3567080" lon="-6.2136470">
    <ele>5.9</ele>
    <time>2025-11-09T13:00:33Z</time>
   </trkpt>
   <trkpt lat="53.3566920" lon="-6.2135520">
    <ele>6.0</ele>
    <time>2025-11-09T13:00:38Z</time>
   </trkpt>
   <trkpt lat="53.3566660" lon="-6.2134900">
    <ele>6.0</ele>
    <time>2025-11-09T13:00:43Z</time>
   </trkpt>
   <trkpt lat="53.3566490" lon="-6.2133950">
    <ele>6.2</ele>
    <time>2025-11-09T13:00:49Z</time>
   </trkpt>
   <trkpt lat="53.3566470" lon="-6.2133190">
    <ele>6.5</ele>
    <time>2025-11-09T13:00:54Z</time>
   </trkpt>
   <trkpt lat="53.3566450" lon="-6.2132360">
    <ele>6.3</ele>
    <time>2025-11-09T13:00:59Z</time>
   </trkpt>
   <trkpt lat="53.3566400" lon="-6.2131190">
    <ele>6.5</ele>
    <time>2025-11-09T13:01:05Z</time>
   </trkpt>
   <trkpt lat="53.3566300" lon="-6.2130250">
    <ele>6.5</ele>
    <time>2025-11-09T13:01:10Z</time>
   </trkpt>
   <trkpt lat="53.3566210" lon="-6.2129450">
    <ele>6.7</ele>
    <time>2025-11-09T13:01:15Z</time>
   </trkpt>
   <trkpt lat="53.3566110" lon="-6.2128700">
    <ele>6.8</ele>
    <time>2025-11-09T13:01:20Z</time>
   </trkpt>
   <trkpt lat="53.3566110" lon="-6.2127880">
    <ele>6.8</ele>
    <time>2025-11-09T13:01:25Z</time>
   </trkpt>
   <trkpt lat="53.3566140" lon="-6.2127080">
    <ele>6.8</ele>
    <time>2025-11-09T13:01:31Z</time>
   </trkpt>
   <trkpt lat="53.3566160" lon="-6.2126320">
    <ele>6.9</ele>
    <time>2025-11-09T13:01:37Z</time>
   </trkpt>
   <trkpt lat="53.3566170" lon="-6.2125380">
    <ele>6.8</ele>
    <time>2025-11-09T13:01:42Z</time>
   </trkpt>
   <trkpt lat="53.3566190" lon="-6.2124620">
    <ele>6.8</ele>
    <time>2025-11-09T13:01:47Z</time>
   </trkpt>
   <trkpt lat="53.3566250" lon="-6.2123850">
    <ele>7.0</ele>
    <time>2025-11-09T13:01:52Z</time>
   </trkpt>
   <trkpt lat="53.3566040" lon="-6.2122980">
    <ele>6.9</ele>
    <time>2025-11-09T13:01:57Z</time>
   </trkpt>
   <trkpt lat="53.3566030" lon="-6.2121950">
    <ele>6.8</ele>
    <time>2025-11-09T13:02:03Z</time>
   </trkpt>
   <trkpt lat="53.3565940" lon="-6.2120990">
    <ele>6.8</ele>
    <time>2025-11-09T13:02:09Z</time>
   </trkpt>
   <trkpt lat="53.3565810" lon="-6.2120020">
    <ele>7.0</ele>
    <time>2025-11-09T13:02:14Z</time>
   </trkpt>
   <trkpt lat="53.3565770" lon="-6.2119130">
    <ele>6.9</ele>
    <time>2025-11-09T13:02:20Z</time>
   </trkpt>
   <trkpt lat="53.3565680" lon="-6.2118000">
    <ele>6.8</ele>
    <time>2025-11-09T13:02:25Z</time>
   </trkpt>
   <trkpt lat="53.3565590" lon="-6.2117160">
    <ele>6.8</ele>
    <time>2025-11-09T13:02:31Z</time>
   </trkpt>
   <trkpt lat="53.3565530" lon="-6.2116310">
    <ele>6.8</ele>
    <time>2025-11-09T13:02:36Z</time>
   </trkpt>
   <trkpt lat="53.3565660" lon="-6.2115540">
    <ele>6.9</ele>
    <time>2025-11-09T13:02:41Z</time>
   </trkpt>
   <trkpt lat="53.3565940" lon="-6.2114750">
    <ele>6.9</ele>
    <time>2025-11-09T13:02:47Z</time>
   </trkpt>
   <trkpt lat="53.3566180" lon="-6.2113950">
    <ele>6.9</ele>
    <time>2025-11-09T13:02:52Z</time>
   </trkpt>
   <trkpt lat="53.3566160" lon="-6.2113110">
    <ele>7.2</ele>
    <time>2025-11-09T13:02:57Z</time>
   </trkpt>
   <trkpt lat="53.3566030" lon="-6.2112040">
    <ele>7.2</ele>
    <time>2025-11-09T13:03:02Z</time>
   </trkpt>
   <trkpt lat="53.3565840" lon="-6.2111240">
    <ele>7.2</ele>
    <time>2025-11-09T13:03:09Z</time>
   </trkpt>
   <trkpt lat="53.3565810" lon="-6.2110410">
    <ele>7.5</ele>
    <time>2025-11-09T13:03:14Z</time>
   </trkpt>
   <trkpt lat="53.3565750" lon="-6.2109600">
    <ele>8.0</ele>
    <time>2025-11-09T13:03:42Z</time>
   </trkpt>
   <trkpt lat="53.3565810" lon="-6.2108820">
    <ele>8.9</ele>
    <time>2025-11-09T13:06:26Z</time>
   </trkpt>
   <trkpt lat="53.3565940" lon="-6.2108070">
    <ele>8.8</ele>
    <time>2025-11-09T13:06:37Z</time>
   </trkpt>
   <trkpt lat="53.3565880" lon="-6.2107300">
    <ele>8.3</ele>
    <time>2025-11-09T13:06:50Z</time>
   </trkpt>
   <trkpt lat="53.3565840" lon="-6.2106470">
    <ele>8.1</ele>
    <time>2025-11-09T13:06:57Z</time>
   </trkpt>
   <trkpt lat="53.3565390" lon="-6.2106190">
    <ele>7.4</ele>
    <time>2025-11-09T13:07:14Z</time>
   </trkpt>
   <trkpt lat="53.3564930" lon="-6.2106110">
    <ele>7.8</ele>
    <time>2025-11-09T13:07:19Z</time>
   </trkpt>
   <trkpt lat="53.3564410" lon="-6.2106210">
    <ele>7.7</ele>
    <time>2025-11-09T13:07:27Z</time>
   </trkpt>
   <trkpt lat="53.3563920" lon="-6.2106330">
    <ele>7.8</ele>
    <time>2025-11-09T13:07:36Z</time>
   </trkpt>
   <trkpt lat="53.3563470" lon="-6.2106510">
    <ele>6.9</ele>
    <time>2025-11-09T13:09:18Z</time>
   </trkpt>
   <trkpt lat="53.3563010" lon="-6.2106490">
    <ele>6.3</ele>
    <time>2025-11-09T13:09:54Z</time>
   </trkpt>
   <trkpt lat="53.3563420" lon="-6.2107050">
    <ele>6.0</ele>
    <time>2025-11-09T13:10:48Z</time>
   </trkpt>
   <trkpt lat="53.3564170" lon="-6.2107280">
    <ele>5.9</ele>
    <time>2025-11-09T13:10:53Z</time>
   </trkpt>
   <trkpt lat="53.3564210" lon="-6.2108080">
    <ele>6.3</ele>
    <time>2025-11-09T13:11:03Z</time>
   </trkpt>
   <trkpt lat="53.3564290" lon="-6.2108920">
    <ele>6.3</ele>
    <time>2025-11-09T13:11:08Z</time>
   </trkpt>
   <trkpt lat="53.3564680" lon="-6.2108470">
    <ele>6.9</ele>
    <time>2025-11-09T13:11:39Z</time>
   </trkpt>
   <trkpt lat="53.3564700" lon="-6.2107690">
    <ele>6.7</ele>
    <time>2025-11-09T13:12:02Z</time>
   </trkpt>
   <trkpt lat="53.3565130" lon="-6.2106970">
    <ele>6.2</ele>
    <time>2025-11-09T13:12:07Z</time>
   </trkpt>
   <trkpt lat="53.3565580" lon="-6.2106930">
    <ele>5.9</ele>
    <time>2025-11-09T13:12:12Z</time>
   </trkpt>
   <trkpt lat="53.3565590" lon="-6.2107680">
    <ele>5.8</ele>
    <time>2025-11-09T13:12:31Z</time>
   </trkpt>
   <trkpt lat="53.3565760" lon="-6.2108800">
    <ele>5.7</ele>
    <time>2025-11-09T13:12:36Z</time>
   </trkpt>
   <trkpt lat="53.3565610" lon="-6.2107900">
    <ele>6.6</ele>
    <time>2025-11-09T13:14:12Z</time>
   </trkpt>
   <trkpt lat="53.3565670" lon="-6.2107110">
    <ele>6.7</ele>
    <time>2025-11-09T13:14:18Z</time>
   </trkpt>
   <trkpt lat="53.3565360" lon="-6.2106430">
    <ele>6.5</ele>
    <time>2025-11-09T13:14:23Z</time>
   </trkpt>
   <trkpt lat="53.3564840" lon="-6.2106410">
    <ele>6.1</ele>
    <time>2025-11-09T13:14:40Z</time>
   </trkpt>
   <trkpt lat="53.3564190" lon="-6.2106550">
    <ele>6.1</ele>
    <time>2025-11-09T13:14:45Z</time>
   </trkpt>
   <trkpt lat="53.3563610" lon="-6.2106620">
    <ele>6.0</ele>
    <time>2025-11-09T13:14:51Z</time>
   </trkpt>
   <trkpt lat="53.3563130" lon="-6.2106770">
    <ele>6.1</ele>
    <time>2025-11-09T13:14:59Z</time>
   </trkpt>
   <trkpt lat="53.3562890" lon="-6.2106120">
    <ele>6.3</ele>
    <time>2025-11-09T13:15:11Z</time>
   </trkpt>
   <trkpt lat="53.3562740" lon="-6.2106880">
    <ele>6.8</ele>
    <time>2025-11-09T13:16:57Z</time>
   </trkpt>
   <trkpt lat="53.3562310" lon="-6.2106590">
    <ele>6.7</ele>
    <time>2025-11-09T13:17:31Z</time>
   </trkpt>
   <trkpt lat="53.3561740" lon="-6.2106840">
    <ele>6.8</ele>
    <time>2025-11-09T13:17:37Z</time>
   </trkpt>
   <trkpt lat="53.3561310" lon="-6.2107090">
    <ele>6.9</ele>
    <time>2025-11-09T13:17:42Z</time>
   </trkpt>
   <trkpt lat="53.3560860" lon="-6.2107170">
    <ele>6.8</ele>
    <time>2025-11-09T13:17:54Z</time>
   </trkpt>
   <trkpt lat="53.3560370" lon="-6.2107190">
    <ele>7.0</ele>
    <time>2025-11-09T13:17:59Z</time>
   </trkpt>
   <trkpt lat="53.3559870" lon="-6.2107300">
    <ele>6.8</ele>
    <time>2025-11-09T13:18:05Z</time>
   </trkpt>
   <trkpt lat="53.3559290" lon="-6.2107220">
    <ele>6.3</ele>
    <time>2025-11-09T13:18:10Z</time>
   </trkpt>
   <trkpt lat="53.3558780" lon="-6.2107310">
    <ele>6.1</ele>
    <time>2025-11-09T13:18:16Z</time>
   </trkpt>
   <trkpt lat="53.3558230" lon="-6.2107370">
    <ele>6.3</ele>
    <time>2025-11-09T13:18:22Z</time>
   </trkpt>
   <trkpt lat="53.3557760" lon="-6.2107490">
    <ele>6.2</ele>
    <time>2025-11-09T13:18:27Z</time>
   </trkpt>
   <trkpt lat="53.3557280" lon="-6.2107560">
    <ele>6.1</ele>
    <time>2025-11-09T13:18:32Z</time>
   </trkpt>
   <trkpt lat="53.3556710" lon="-6.2107610">
    <ele>5.9</ele>
    <time>2025-11-09T13:18:37Z</time>
   </trkpt>
   <trkpt lat="53.3556180" lon="-6.2107650">
    <ele>5.8</ele>
    <time>2025-11-09T13:18:42Z</time>
   </trkpt>
   <trkpt lat="53.3555700" lon="-6.2107740">
    <ele>5.7</ele>
    <time>2025-11-09T13:18:47Z</time>
   </trkpt>
   <trkpt lat="53.3555160" lon="-6.2107690">
    <ele>5.7</ele>
    <time>2025-11-09T13:18:53Z</time>
   </trkpt>
   <trkpt lat="53.3554660" lon="-6.2107770">
    <ele>5.5</ele>
    <time>2025-11-09T13:18:59Z</time>
   </trkpt>
   <trkpt lat="53.3554140" lon="-6.2107840">
    <ele>5.5</ele>
    <time>2025-11-09T13:19:04Z</time>
   </trkpt>
   <trkpt lat="53.3553550" lon="-6.2107770">
    <ele>5.7</ele>
    <time>2025-11-09T13:19:10Z</time>
   </trkpt>
   <trkpt lat="53.3553080" lon="-6.2107820">
    <ele>5.6</ele>
    <time>2025-11-09T13:19:15Z</time>
   </trkpt>
   <trkpt lat="53.3552610" lon="-6.2107860">
    <ele>6.2</ele>
    <time>2025-11-09T13:19:20Z</time>
   </trkpt>
   <trkpt lat="53.3552150" lon="-6.2107910">
    <ele>6.2</ele>
    <time>2025-11-09T13:19:25Z</time>
   </trkpt>
   <trkpt lat="53.3551670" lon="-6.2107940">
    <ele>6.1</ele>
    <time>2025-11-09T13:19:30Z</time>
   </trkpt>
   <trkpt lat="53.3551150" lon="-6.2107910">
    <ele>6.0</ele>
    <time>2025-11-09T13:19:35Z</time>
   </trkpt>
   <trkpt lat="53.3550710" lon="-6.2108030">
    <ele>5.9</ele>
    <time>2025-11-09T13:19:40Z</time>
   </trkpt>
   <trkpt lat="53.3550090" lon="-6.2108000">
    <ele>6.1</ele>
    <time>2025-11-09T13:19:46Z</time>
   </trkpt>
   <trkpt lat="53.3549590" lon="-6.2108050">
    <ele>6.3</ele>
    <time>2025-11-09T13:19:52Z</time>
   </trkpt>
   <trkpt lat="53.3549100" lon="-6.2108140">
    <ele>6.2</ele>
    <time>2025-11-09T13:19:57Z</time>
   </trkpt>
   <trkpt lat="53.3548620" lon="-6.2108320">
    <ele>6.2</ele>
    <time>2025-11-09T13:20:02Z</time>
   </trkpt>
   <trkpt lat="53.3548030" lon="-6.2108310">
    <ele>6.2</ele>
    <time>2025-11-09T13:20:08Z</time>
   </trkpt>
   <trkpt lat="53.3547550" lon="-6.2108610">
    <ele>6.3</ele>
    <time>2025-11-09T13:20:13Z</time>
   </trkpt>
   <trkpt lat="53.3546950" lon="-6.2108630">
    <ele>6.2</ele>
    <time>2025-11-09T13:20:19Z</time>
   </trkpt>
   <trkpt lat="53.3546420" lon="-6.2108600">
    <ele>6.2</ele>
    <time>2025-11-09T13:20:24Z</time>
   </trkpt>
   <trkpt lat="53.3545900" lon="-6.2108750">
    <ele>6.1</ele>
    <time>2025-11-09T13:20:30Z</time>
   </trkpt>
   <trkpt lat="53.3545420" lon="-6.2108910">
    <ele>6.3</ele>
    <time>2025-11-09T13:20:35Z</time>
   </trkpt>
   <trkpt lat="53.3544810" lon="-6.2108850">
    <ele>6.1</ele>
    <time>2025-11-09T13:20:41Z</time>
   </trkpt>
   <trkpt lat="53.3544280" lon="-6.2108880">
    <ele>6.0</ele>
    <time>2025-11-09T13:20:46Z</time>
   </trkpt>
   <trkpt lat="53.3543750" lon="-6.2108870">
    <ele>6.1</ele>
    <time>2025-11-09T13:20:52Z</time>
   </trkpt>
   <trkpt lat="53.3543250" lon="-6.2108700">
    <ele>6.2</ele>
    <time>2025-11-09T13:20:57Z</time>
   </trkpt>
   <trkpt lat="53.3542720" lon="-6.2108710">
    <ele>6.3</ele>
    <time>2025-11-09T13:21:03Z</time>
   </trkpt>
   <trkpt lat="53.3542160" lon="-6.2108670">
    <ele>6.5</ele>
    <time>2025-11-09T13:21:08Z</time>
   </trkpt>
   <trkpt lat="53.3541670" lon="-6.2108940">
    <ele>6.1</ele>
    <time>2025-11-09T13:21:14Z</time>
   </trkpt>
   <trkpt lat="53.3541070" lon="-6.2108920">
    <ele>6.0</ele>
    <time>2025-11-09T13:21:19Z</time>
   </trkpt>
   <trkpt lat="53.3540560" lon="-6.2109090">
    <ele>6.1</ele>
    <time>2025-11-09T13:21:25Z</time>
   </trkpt>
   <trkpt lat="53.3539970" lon="-6.2109080">
    <ele>5.9</ele>
    <time>2025-11-09T13:21:30Z</time>
   </trkpt>
   <trkpt lat="53.3539440" lon="-6.2109140">
    <ele>5.8</ele>
    <time>2025-11-09T13:21:36Z</time>
   </trkpt>
   <trkpt lat="53.3538910" lon="-6.2109250">
    <ele>5.5</ele>
    <time>2025-11-09T13:21:41Z</time>
   </trkpt>
   <trkpt lat="53.3538470" lon="-6.2109530">
    <ele>5.5</ele>
    <time>2025-11-09T13:21:47Z</time>
   </trkpt>
   <trkpt lat="53.3537850" lon="-6.2109480">
    <ele>5.4</ele>
    <time>2025-11-09T13:21:52Z</time>
   </trkpt>
   <trkpt lat="53.3537370" lon="-6.2109510">
    <ele>5.2</ele>
    <time>2025-11-09T13:21:58Z</time>
   </trkpt>
   <trkpt lat="53.3536860" lon="-6.2109400">
    <ele>5.3</ele>
    <time>2025-11-09T13:22:05Z</time>
   </trkpt>
   <trkpt lat="53.3536610" lon="-6.2108730">
    <ele>5.4</ele>
    <time>2025-11-09T13:22:11Z</time>
   </trkpt>
   <trkpt lat="53.3536560" lon="-6.2107950">
    <ele>5.4</ele>
    <time>2025-11-09T13:22:16Z</time>
   </trkpt>
   <trkpt lat="53.3536440" lon="-6.2107110">
    <ele>5.4</ele>
    <time>2025-11-09T13:22:22Z</time>
   </trkpt>
   <trkpt lat="53.3536360" lon="-6.2106350">
    <ele>5.3</ele>
    <time>2025-11-09T13:22:27Z</time>
   </trkpt>
   <trkpt lat="53.3536380" lon="-6.2105490">
    <ele>5.3</ele>
    <time>2025-11-09T13:22:33Z</time>
   </trkpt>
   <trkpt lat="53.3536320" lon="-6.2104660">
    <ele>5.1</ele>
    <time>2025-11-09T13:22:38Z</time>
   </trkpt>
   <trkpt lat="53.3536280" lon="-6.2103840">
    <ele>4.7</ele>
    <time>2025-11-09T13:22:44Z</time>
   </trkpt>
   <trkpt lat="53.3536210" lon="-6.2103050">
    <ele>4.7</ele>
    <time>2025-11-09T13:22:50Z</time>
   </trkpt>
   <trkpt lat="53.3536180" lon="-6.2102200">
    <ele>4.9</ele>
    <time>2025-11-09T13:22:56Z</time>
   </trkpt>
   <trkpt lat="53.3536100" lon="-6.2101410">
    <ele>4.6</ele>
    <time>2025-11-09T13:23:01Z</time>
   </trkpt>
   <trkpt lat="53.3536070" lon="-6.2100650">
    <ele>4.1</ele>
    <time>2025-11-09T13:23:06Z</time>
   </trkpt>
   <trkpt lat="53.3536000" lon="-6.2099820">
    <ele>3.9</ele>
    <time>2025-11-09T13:23:11Z</time>
   </trkpt>
   <trkpt lat="53.3535940" lon="-6.2099020">
    <ele>4.0</ele>
    <time>2025-11-09T13:23:18Z</time>
   </trkpt>
   <trkpt lat="53.3535990" lon="-6.2098250">
    <ele>4.0</ele>
    <time>2025-11-09T13:23:23Z</time>
   </trkpt>
   <trkpt lat="53.3535990" lon="-6.2097420">
    <ele>4.3</ele>
    <time>2025-11-09T13:23:28Z</time>
   </trkpt>
   <trkpt lat="53.3535930" lon="-6.2096490">
    <ele>4.3</ele>
    <time>2025-11-09T13:23:34Z</time>
   </trkpt>
   <trkpt lat="53.3535850" lon="-6.2095680">
    <ele>4.4</ele>
    <time>2025-11-09T13:24:08Z</time>
   </trkpt>
   <trkpt lat="53.3535790" lon="-6.2094850">
    <ele>4.4</ele>
    <time>2025-11-09T13:24:13Z</time>
   </trkpt>
   <trkpt lat="53.3535790" lon="-6.2094090">
    <ele>4.4</ele>
    <time>2025-11-09T13:24:18Z</time>
   </trkpt>
   <trkpt lat="53.3535770" lon="-6.2093340">
    <ele>4.4</ele>
    <time>2025-11-09T13:24:23Z</time>
   </trkpt>
   <trkpt lat="53.3535740" lon="-6.2092510">
    <ele>4.3</ele>
    <time>2025-11-09T13:24:29Z</time>
   </trkpt>
   <trkpt lat="53.3535710" lon="-6.2091630">
    <ele>4.5</ele>
    <time>2025-11-09T13:24:35Z</time>
   </trkpt>
   <trkpt lat="53.3535710" lon="-6.2090670">
    <ele>4.6</ele>
    <time>2025-11-09T13:24:41Z</time>
   </trkpt>
   <trkpt lat="53.3535710" lon="-6.2089770">
    <ele>4.4</ele>
    <time>2025-11-09T13:24:46Z</time>
   </trkpt>
   <trkpt lat="53.3535670" lon="-6.2088860">
    <ele>4.1</ele>
    <time>2025-11-09T13:24:52Z</time>
   </trkpt>
   <trkpt lat="53.3535600" lon="-6.2088090">
    <ele>4.4</ele>
    <time>2025-11-09T13:24:57Z</time>
   </trkpt>
   <trkpt lat="53.3535530" lon="-6.2087250">
    <ele>4.6</ele>
    <time>2025-11-09T13:25:02Z</time>
   </trkpt>
   <trkpt lat="53.3535530" lon="-6.2086430">
    <ele>4.7</ele>
    <time>2025-11-09T13:25:07Z</time>
   </trkpt>
   <trkpt lat="53.3535480" lon="-6.2085460">
    <ele>4.9</ele>
    <time>2025-11-09T13:25:13Z</time>
   </trkpt>
   <trkpt lat="53.3535460" lon="-6.2084570">
    <ele>5.2</ele>
    <time>2025-11-09T13:25:18Z</time>
   </trkpt>
   <trkpt lat="53.3535420" lon="-6.2083640">
    <ele>5.6</ele>
    <time>2025-11-09T13:25:24Z</time>
   </trkpt>
   <trkpt lat="53.3535360" lon="-6.2082740">
    <ele>5.6</ele>
    <time>2025-11-09T13:25:29Z</time>
   </trkpt>
   <trkpt lat="53.3535290" lon="-6.2081910">
    <ele>5.6</ele>
    <time>2025-11-09T13:25:35Z</time>
   </trkpt>
   <trkpt lat="53.3535260" lon="-6.2081130">
    <ele>5.7</ele>
    <time>2025-11-09T13:25:40Z</time>
   </trkpt>
   <trkpt lat="53.3535190" lon="-6.2080210">
    <ele>6.0</ele>
    <time>2025-11-09T13:25:46Z</time>
   </trkpt>
   <trkpt lat="53.3535100" lon="-6.2079360">
    <ele>5.8</ele>
    <time>2025-11-09T13:25:51Z</time>
   </trkpt>
   <trkpt lat="53.3535050" lon="-6.2078450">
    <ele>5.7</ele>
    <time>2025-11-09T13:25:57Z</time>
   </trkpt>
   <trkpt lat="53.3534930" lon="-6.2077510">
    <ele>5.8</ele>
    <time>2025-11-09T13:26:02Z</time>
   </trkpt>
   <trkpt lat="53.3534860" lon="-6.2076610">
    <ele>5.9</ele>
    <time>2025-11-09T13:26:08Z</time>
   </trkpt>
   <trkpt lat="53.3534830" lon="-6.2075690">
    <ele>5.9</ele>
    <time>2025-11-09T13:26:13Z</time>
   </trkpt>
   <trkpt lat="53.3534750" lon="-6.2074780">
    <ele>5.7</ele>
    <time>2025-11-09T13:26:19Z</time>
   </trkpt>
   <trkpt lat="53.3534720" lon="-6.2073980">
    <ele>5.8</ele>
    <time>2025-11-09T13:26:24Z</time>
   </trkpt>
   <trkpt lat="53.3534690" lon="-6.2073140">
    <ele>5.7</ele>
    <time>2025-11-09T13:26:29Z</time>
   </trkpt>
   <trkpt lat="53.3534630" lon="-6.2072210">
    <ele>5.7</ele>
    <time>2025-11-09T13:26:35Z</time>
   </trkpt>
   <trkpt lat="53.3534540" lon="-6.2071270">
    <ele>5.7</ele>
    <time>2025-11-09T13:26:40Z</time>
   </trkpt>
   <trkpt lat="53.3534500" lon="-6.2070320">
    <ele>5.6</ele>
    <time>2025-11-09T13:26:46Z</time>
   </trkpt>
   <trkpt lat="53.3534410" lon="-6.2069350">
    <ele>5.6</ele>
    <time>2025-11-09T13:26:51Z</time>
   </trkpt>
   <trkpt lat="53.3534310" lon="-6.2068380">
    <ele>5.7</ele>
    <time>2025-11-09T13:26:57Z</time>
   </trkpt>
   <trkpt lat="53.3534200" lon="-6.2067470">
    <ele>5.7</ele>
    <time>2025-11-09T13:27:02Z</time>
   </trkpt>
   <trkpt lat="53.3534110" lon="-6.2066520">
    <ele>5.8</ele>
    <time>2025-11-09T13:27:08Z</time>
   </trkpt>
   <trkpt lat="53.3534000" lon="-6.2065550">
    <ele>5.9</ele>
    <time>2025-11-09T13:27:13Z</time>
   </trkpt>
   <trkpt lat="53.3533930" lon="-6.2064630">
    <ele>5.7</ele>
    <time>2025-11-09T13:27:19Z</time>
   </trkpt>
   <trkpt lat="53.3533860" lon="-6.2063700">
    <ele>5.6</ele>
    <time>2025-11-09T13:27:24Z</time>
   </trkpt>
   <trkpt lat="53.3533840" lon="-6.2062740">
    <ele>5.6</ele>
    <time>2025-11-09T13:27:30Z</time>
   </trkpt>
   <trkpt lat="53.3533770" lon="-6.2061780">
    <ele>5.6</ele>
    <time>2025-11-09T13:27:35Z</time>
   </trkpt>
   <trkpt lat="53.3533670" lon="-6.2060850">
    <ele>5.6</ele>
    <time>2025-11-09T13:27:40Z</time>
   </trkpt>
   <trkpt lat="53.3533620" lon="-6.2059880">
    <ele>5.8</ele>
    <time>2025-11-09T13:27:46Z</time>
   </trkpt>
   <trkpt lat="53.3533530" lon="-6.2058900">
    <ele>5.5</ele>
    <time>2025-11-09T13:27:51Z</time>
   </trkpt>
   <trkpt lat="53.3533480" lon="-6.2058000">
    <ele>5.5</ele>
    <time>2025-11-09T13:27:57Z</time>
   </trkpt>
   <trkpt lat="53.3533400" lon="-6.2057100">
    <ele>5.5</ele>
    <time>2025-11-09T13:28:02Z</time>
   </trkpt>
   <trkpt lat="53.3533330" lon="-6.2056140">
    <ele>5.7</ele>
    <time>2025-11-09T13:28:08Z</time>
   </trkpt>
   <trkpt lat="53.3533270" lon="-6.2055230">
    <ele>5.8</ele>
    <time>2025-11-09T13:28:13Z</time>
   </trkpt>
   <trkpt lat="53.3533220" lon="-6.2054330">
    <ele>5.6</ele>
    <time>2025-11-09T13:28:18Z</time>
   </trkpt>
   <trkpt lat="53.3533160" lon="-6.2053370">
    <ele>5.7</ele>
    <time>2025-11-09T13:28:24Z</time>
   </trkpt>
   <trkpt lat="53.3533080" lon="-6.2052390">
    <ele>5.8</ele>
    <time>2025-11-09T13:28:29Z</time>
   </trkpt>
   <trkpt lat="53.3533060" lon="-6.2051480">
    <ele>5.4</ele>
    <time>2025-11-09T13:28:34Z</time>
   </trkpt>
   <trkpt lat="53.3532990" lon="-6.2050530">
    <ele>5.6</ele>
    <time>2025-11-09T13:28:40Z</time>
   </trkpt>
   <trkpt lat="53.3532950" lon="-6.2049560">
    <ele>5.8</ele>
    <time>2025-11-09T13:28:45Z</time>
   </trkpt>
   <trkpt lat="53.3532880" lon="-6.2048660">
    <ele>5.9</ele>
    <time>2025-11-09T13:28:51Z</time>
   </trkpt>
   <trkpt lat="53.3532820" lon="-6.2047750">
    <ele>5.7</ele>
    <time>2025-11-09T13:28:56Z</time>
   </trkpt>
   <trkpt lat="53.3532770" lon="-6.2046800">
    <ele>5.6</ele>
    <time>2025-11-09T13:29:02Z</time>
   </trkpt>
   <trkpt lat="53.3532820" lon="-6.2046050">
    <ele>5.6</ele>
    <time>2025-11-09T13:29:21Z</time>
   </trkpt>
   <trkpt lat="53.3532720" lon="-6.2045040">
    <ele>5.6</ele>
    <time>2025-11-09T13:29:26Z</time>
   </trkpt>
   <trkpt lat="53.3532620" lon="-6.2044070">
    <ele>5.5</ele>
    <time>2025-11-09T13:29:32Z</time>
   </trkpt>
   <trkpt lat="53.3532490" lon="-6.2043180">
    <ele>5.7</ele>
    <time>2025-11-09T13:29:37Z</time>
   </trkpt>
   <trkpt lat="53.3532500" lon="-6.2042280">
    <ele>5.8</ele>
    <time>2025-11-09T13:29:43Z</time>
   </trkpt>
   <trkpt lat="53.3532430" lon="-6.2041340">
    <ele>5.8</ele>
    <time>2025-11-09T13:29:48Z</time>
   </trkpt>
   <trkpt lat="53.3532390" lon="-6.2040420">
    <ele>5.8</ele>
    <time>2025-11-09T13:29:53Z</time>
   </trkpt>
   <trkpt lat="53.3532370" lon="-6.2039420">
    <ele>5.9</ele>
    <time>2025-11-09T13:29:58Z</time>
   </trkpt>
   <trkpt lat="53.3532360" lon="-6.2038390">
    <ele>5.9</ele>
    <time>2025-11-09T13:30:04Z</time>
   </trkpt>
   <trkpt lat="53.3532350" lon="-6.2037430">
    <ele>5.8</ele>
    <time>2025-11-09T13:30:09Z</time>
   </trkpt>
   <trkpt lat="53.3532390" lon="-6.2036500">
    <ele>5.6</ele>
    <time>2025-11-09T13:30:15Z</time>
   </trkpt>
   <trkpt lat="53.3532370" lon="-6.2035520">
    <ele>5.5</ele>
    <time>2025-11-09T13:30:20Z</time>
   </trkpt>
   <trkpt lat="53.3532340" lon="-6.2034550">
    <ele>5.4</ele>
    <time>2025-11-09T13:30:25Z</time>
   </trkpt>
   <trkpt lat="53.3532330" lon="-6.2033550">
    <ele>5.6</ele>
    <time>2025-11-09T13:30:31Z</time>
   </trkpt>
   <trkpt lat="53.3532330" lon="-6.2032580">
    <ele>5.4</ele>
    <time>2025-11-09T13:30:36Z</time>
   </trkpt>
   <trkpt lat="53.3532250" lon="-6.2031630">
    <ele>5.4</ele>
    <time>2025-11-09T13:30:41Z</time>
   </trkpt>
   <trkpt lat="53.3532330" lon="-6.2030670">
    <ele>5.3</ele>
    <time>2025-11-09T13:30:47Z</time>
   </trkpt>
   <trkpt lat="53.3532350" lon="-6.2029890">
    <ele>5.1</ele>
    <time>2025-11-09T13:30:53Z</time>
   </trkpt>
   <trkpt lat="53.3532260" lon="-6.2029010">
    <ele>5.0</ele>
    <time>2025-11-09T13:30:58Z</time>
   </trkpt>
   <trkpt lat="53.3532250" lon="-6.2028230">
    <ele>5.9</ele>
    <time>2025-11-09T13:32:19Z</time>
   </trkpt>
   <trkpt lat="53.3532230" lon="-6.2027360">
    <ele>6.0</ele>
    <time>2025-11-09T13:32:37Z</time>
   </trkpt>
   <trkpt lat="53.3532250" lon="-6.2026510">
    <ele>6.0</ele>
    <time>2025-11-09T13:32:43Z</time>
   </trkpt>
   <trkpt lat="53.3532250" lon="-6.2025730">
    <ele>5.9</ele>
    <time>2025-11-09T13:32:49Z</time>
   </trkpt>
   <trkpt lat="53.3532280" lon="-6.2024960">
    <ele>5.9</ele>
    <time>2025-11-09T13:32:56Z</time>
   </trkpt>
   <trkpt lat="53.3532250" lon="-6.2024170">
    <ele>5.9</ele>
    <time>2025-11-09T13:33:01Z</time>
   </trkpt>
   <trkpt lat="53.3532280" lon="-6.2023410">
    <ele>6.0</ele>
    <time>2025-11-09T13:33:07Z</time>
   </trkpt>
   <trkpt lat="53.3532270" lon="-6.2022630">
    <ele>5.9</ele>
    <time>2025-11-09T13:33:12Z</time>
   </trkpt>
   <trkpt lat="53.3532160" lon="-6.2021850">
    <ele>6.2</ele>
    <time>2025-11-09T13:33:18Z</time>
   </trkpt>
   <trkpt lat="53.3532130" lon="-6.2021050">
    <ele>6.0</ele>
    <time>2025-11-09T13:33:24Z</time>
   </trkpt>
   <trkpt lat="53.3532070" lon="-6.2020280">
    <ele>5.8</ele>
    <time>2025-11-09T13:33:31Z</time>
   </trkpt>
   <trkpt lat="53.3532200" lon="-6.2019420">
    <ele>5.9</ele>
    <time>2025-11-09T13:33:36Z</time>
   </trkpt>
   <trkpt lat="53.3532200" lon="-6.2018650">
    <ele>5.8</ele>
    <time>2025-11-09T13:33:43Z</time>
   </trkpt>
   <trkpt lat="53.3532140" lon="-6.2017860">
    <ele>5.7</ele>
    <time>2025-11-09T13:33:48Z</time>
   </trkpt>
   <trkpt lat="53.3532060" lon="-6.2017010">
    <ele>5.8</ele>
    <time>2025-11-09T13:33:55Z</time>
   </trkpt>
   <trkpt lat="53.3532090" lon="-6.2016180">
    <ele>5.8</ele>
    <time>2025-11-09T13:34:01Z</time>
   </trkpt>
   <trkpt lat="53.3532100" lon="-6.2015340">
    <ele>5.8</ele>
    <time>2025-11-09T13:34:07Z</time>
   </trkpt>
   <trkpt lat="53.3532070" lon="-6.2014510">
    <ele>5.8</ele>
    <time>2025-11-09T13:34:16Z</time>
   </trkpt>
   <trkpt lat="53.3532090" lon="-6.2013680">
    <ele>5.7</ele>
    <time>2025-11-09T13:34:21Z</time>
   </trkpt>
   <trkpt lat="53.3532050" lon="-6.2012800">
    <ele>5.8</ele>
    <time>2025-11-09T13:34:28Z</time>
   </trkpt>
   <trkpt lat="53.3532050" lon="-6.2011860">
    <ele>5.7</ele>
    <time>2025-11-09T13:34:34Z</time>
   </trkpt>
   <trkpt lat="53.3532010" lon="-6.2011040">
    <ele>5.6</ele>
    <time>2025-11-09T13:34:40Z</time>
   </trkpt>
   <trkpt lat="53.3532050" lon="-6.2010220">
    <ele>5.7</ele>
    <time>2025-11-09T13:34:46Z</time>
   </trkpt>
   <trkpt lat="53.3531990" lon="-6.2009270">
    <ele>5.5</ele>
    <time>2025-11-09T13:34:51Z</time>
   </trkpt>
   <trkpt lat="53.3531980" lon="-6.2008400">
    <ele>5.4</ele>
    <time>2025-11-09T13:34:57Z</time>
   </trkpt>
   <trkpt lat="53.3531900" lon="-6.2007650">
    <ele>5.5</ele>
    <time>2025-11-09T13:35:02Z</time>
   </trkpt>
   <trkpt lat="53.3531900" lon="-6.2006890">
    <ele>5.6</ele>
    <time>2025-11-09T13:35:08Z</time>
   </trkpt>
   <trkpt lat="53.3531860" lon="-6.2005970">
    <ele>5.5</ele>
    <time>2025-11-09T13:35:13Z</time>
   </trkpt>
   <trkpt lat="53.3531890" lon="-6.2005110">
    <ele>5.4</ele>
    <time>2025-11-09T13:35:20Z</time>
   </trkpt>
   <trkpt lat="53.3531860" lon="-6.2004160">
    <ele>5.3</ele>
    <time>2025-11-09T13:35:25Z</time>
   </trkpt>
   <trkpt lat="53.3531840" lon="-6.2003370">
    <ele>5.3</ele>
    <time>2025-11-09T13:35:30Z</time>
   </trkpt>
   <trkpt lat="53.3531820" lon="-6.2002610">
    <ele>5.2</ele>
    <time>2025-11-09T13:35:35Z</time>
   </trkpt>
   <trkpt lat="53.3531850" lon="-6.2001760">
    <ele>5.1</ele>
    <time>2025-11-09T13:35:41Z</time>
   </trkpt>
   <trkpt lat="53.3531810" lon="-6.2000980">
    <ele>5.3</ele>
    <time>2025-11-09T13:35:46Z</time>
   </trkpt>
   <trkpt lat="53.3531740" lon="-6.2000120">
    <ele>5.3</ele>
    <time>2025-11-09T13:35:51Z</time>
   </trkpt>
   <trkpt lat="53.3531770" lon="-6.1999340">
    <ele>5.3</ele>
    <time>2025-11-09T13:35:56Z</time>
   </trkpt>
   <trkpt lat="53.3531750" lon="-6.1998520">
    <ele>5.5</ele>
    <time>2025-11-09T13:36:01Z</time>
   </trkpt>
   <trkpt lat="53.3531740" lon="-6.1997720">
    <ele>5.5</ele>
    <time>2025-11-09T13:36:06Z</time>
   </trkpt>
   <trkpt lat="53.3531720" lon="-6.1996880">
    <ele>5.4</ele>
    <time>2025-11-09T13:36:11Z</time>
   </trkpt>
   <trkpt lat="53.3531730" lon="-6.1996030">
    <ele>5.3</ele>
    <time>2025-11-09T13:36:16Z</time>
   </trkpt>
   <trkpt lat="53.3531720" lon="-6.1995160">
    <ele>5.3</ele>
    <time>2025-11-09T13:36:22Z</time>
   </trkpt>
   <trkpt lat="53.3531700" lon="-6.1994360">
    <ele>5.4</ele>
    <time>2025-11-09T13:36:27Z</time>
   </trkpt>
   <trkpt lat="53.3531700" lon="-6.1993580">
    <ele>5.3</ele>
    <time>2025-11-09T13:36:32Z</time>
   </trkpt>
   <trkpt lat="53.3531670" lon="-6.1992750">
    <ele>5.3</ele>
    <time>2025-11-09T13:36:37Z</time>
   </trkpt>
   <trkpt lat="53.3531690" lon="-6.1991940">
    <ele>5.3</ele>
    <time>2025-11-09T13:36:43Z</time>
   </trkpt>
   <trkpt lat="53.3531670" lon="-6.1991150">
    <ele>5.1</ele>
    <time>2025-11-09T13:36:48Z</time>
   </trkpt>
   <trkpt lat="53.3531750" lon="-6.1990330">
    <ele>5.3</ele>
    <time>2025-11-09T13:36:53Z</time>
   </trkpt>
   <trkpt lat="53.3531890" lon="-6.1989570">
    <ele>5.4</ele>
    <time>2025-11-09T13:36:59Z</time>
   </trkpt>
   <trkpt lat="53.3532200" lon="-6.1988950">
    <ele>5.4</ele>
    <time>2025-11-09T13:37:04Z</time>
   </trkpt>
   <trkpt lat="53.3532340" lon="-6.1988170">
    <ele>5.4</ele>
    <time>2025-11-09T13:37:09Z</time>
   </trkpt>
   <trkpt lat="53.3532430" lon="-6.1987370">
    <ele>5.4</ele>
    <time>2025-11-09T13:37:14Z</time>
   </trkpt>
   <trkpt lat="53.3532420" lon="-6.1986520">
    <ele>5.4</ele>
    <time>2025-11-09T13:37:19Z</time>
   </trkpt>
   <trkpt lat="53.3532380" lon="-6.1985640">
    <ele>5.5</ele>
    <time>2025-11-09T13:37:25Z</time>
   </trkpt>
   <trkpt lat="53.3532330" lon="-6.1984820">
    <ele>5.7</ele>
    <time>2025-11-09T13:37:30Z</time>
   </trkpt>
   <trkpt lat="53.3532370" lon="-6.1983860">
    <ele>5.7</ele>
    <time>2025-11-09T13:37:35Z</time>
   </trkpt>
   <trkpt lat="53.3532350" lon="-6.1983080">
    <ele>5.6</ele>
    <time>2025-11-09T13:37:40Z</time>
   </trkpt>
   <trkpt lat="53.3532350" lon="-6.1982280">
    <ele>5.4</ele>
    <time>2025-11-09T13:37:45Z</time>
   </trkpt>
   <trkpt lat="53.3532320" lon="-6.1981490">
    <ele>5.3</ele>
    <time>2025-11-09T13:37:50Z</time>
   </trkpt>
   <trkpt lat="53.3532300" lon="-6.1980650">
    <ele>5.4</ele>
    <time>2025-11-09T13:37:56Z</time>
   </trkpt>
   <trkpt lat="53.3532310" lon="-6.1979830">
    <ele>5.4</ele>
    <time>2025-11-09T13:38:01Z</time>
   </trkpt>
   <trkpt lat="53.3532280" lon="-6.1979040">
    <ele>5.3</ele>
    <time>2025-11-09T13:38:07Z</time>
   </trkpt>
   <trkpt lat="53.3532250" lon="-6.1978240">
    <ele>5.4</ele>
    <time>2025-11-09T13:38:12Z</time>
   </trkpt>
   <trkpt lat="53.3532230" lon="-6.1977330">
    <ele>5.4</ele>
    <time>2025-11-09T13:38:17Z</time>
   </trkpt>
   <trkpt lat="53.3532210" lon="-6.1976500">
    <ele>5.4</ele>
    <time>2025-11-09T13:38:22Z</time>
   </trkpt>
   <trkpt lat="53.3532200" lon="-6.1975610">
    <ele>5.3</ele>
    <time>2025-11-09T13:38:28Z</time>
   </trkpt>
   <trkpt lat="53.3532230" lon="-6.1974820">
    <ele>5.3</ele>
    <time>2025-11-09T13:38:33Z</time>
   </trkpt>
   <trkpt lat="53.3532240" lon="-6.1973990">
    <ele>5.3</ele>
    <time>2025-11-09T13:38:38Z</time>
   </trkpt>
   <trkpt lat="53.3532210" lon="-6.1973070">
    <ele>5.4</ele>
    <time>2025-11-09T13:38:43Z</time>
   </trkpt>
   <trkpt lat="53.3532200" lon="-6.1972220">
    <ele>5.4</ele>
    <time>2025-11-09T13:38:49Z</time>
   </trkpt>
   <trkpt lat="53.3532220" lon="-6.1971300">
    <ele>5.5</ele>
    <time>2025-11-09T13:38:54Z</time>
   </trkpt>
   <trkpt lat="53.3532220" lon="-6.1970400">
    <ele>5.5</ele>
    <time>2025-11-09T13:39:00Z</time>
   </trkpt>
   <trkpt lat="53.3532170" lon="-6.1969500">
    <ele>5.5</ele>
    <time>2025-11-09T13:39:05Z</time>
   </trkpt>
   <trkpt lat="53.3532150" lon="-6.1968540">
    <ele>5.5</ele>
    <time>2025-11-09T13:39:11Z</time>
   </trkpt>
   <trkpt lat="53.3532150" lon="-6.1967700">
    <ele>5.5</ele>
    <time>2025-11-09T13:39:16Z</time>
   </trkpt>
   <trkpt lat="53.3532160" lon="-6.1966850">
    <ele>5.5</ele>
    <time>2025-11-09T13:39:22Z</time>
   </trkpt>
   <trkpt lat="53.3532190" lon="-6.1966030">
    <ele>5.5</ele>
    <time>2025-11-09T13:39:27Z</time>
   </trkpt>
   <trkpt lat="53.3532190" lon="-6.1965210">
    <ele>5.6</ele>
    <time>2025-11-09T13:39:33Z</time>
   </trkpt>
   <trkpt lat="53.3532070" lon="-6.1964430">
    <ele>5.6</ele>
    <time>2025-11-09T13:39:39Z</time>
   </trkpt>
   <trkpt lat="53.3531730" lon="-6.1963700">
    <ele>5.6</ele>
    <time>2025-11-09T13:39:44Z</time>
   </trkpt>
   <trkpt lat="53.3531390" lon="-6.1963140">
    <ele>6.0</ele>
    <time>2025-11-09T13:39:50Z</time>
   </trkpt>
   <trkpt lat="53.3531170" lon="-6.1962300">
    <ele>6.1</ele>
    <time>2025-11-09T13:39:56Z</time>
   </trkpt>
   <trkpt lat="53.3531060" lon="-6.1961380">
    <ele>6.2</ele>
    <time>2025-11-09T13:40:01Z</time>
   </trkpt>
   <trkpt lat="53.3530840" lon="-6.1960630">
    <ele>6.2</ele>
    <time>2025-11-09T13:40:13Z</time>
   </trkpt>
   <trkpt lat="53.3530410" lon="-6.1960110">
    <ele>5.7</ele>
    <time>2025-11-09T13:40:38Z</time>
   </trkpt>
   <trkpt lat="53.3530070" lon="-6.1959190">
    <ele>5.5</ele>
    <time>2025-11-09T13:40:43Z</time>
   </trkpt>
   <trkpt lat="53.3529820" lon="-6.1958390">
    <ele>5.7</ele>
    <time>2025-11-09T13:40:48Z</time>
   </trkpt>
   <trkpt lat="53.3529290" lon="-6.1958470">
    <ele>5.8</ele>
    <time>2025-11-09T13:40:54Z</time>
   </trkpt>
   <trkpt lat="53.3528830" lon="-6.1958430">
    <ele>5.7</ele>
    <time>2025-11-09T13:41:05Z</time>
   </trkpt>
   <trkpt lat="53.3528120" lon="-6.1958560">
    <ele>5.6</ele>
    <time>2025-11-09T13:41:11Z</time>
   </trkpt>
   <trkpt lat="53.3527420" lon="-6.1958610">
    <ele>5.8</ele>
    <time>2025-11-09T13:41:16Z</time>
   </trkpt>
   <trkpt lat="53.3526710" lon="-6.1958730">
    <ele>6.0</ele>
    <time>2025-11-09T13:41:22Z</time>
   </trkpt>
   <trkpt lat="53.3526070" lon="-6.1958860">
    <ele>5.8</ele>
    <time>2025-11-09T13:41:27Z</time>
   </trkpt>
   <trkpt lat="53.3525510" lon="-6.1958850">
    <ele>6.0</ele>
    <time>2025-11-09T13:41:32Z</time>
   </trkpt>
   <trkpt lat="53.3524970" lon="-6.1959180">
    <ele>5.7</ele>
    <time>2025-11-09T13:42:06Z</time>
   </trkpt>
   <trkpt lat="53.3524280" lon="-6.1959660">
    <ele>5.6</ele>
    <time>2025-11-09T13:42:11Z</time>
   </trkpt>
   <trkpt lat="53.3523760" lon="-6.1959280">
    <ele>5.6</ele>
    <time>2025-11-09T13:42:17Z</time>
   </trkpt>
   <trkpt lat="53.3523010" lon="-6.1960160">
    <ele>5.9</ele>
    <time>2025-11-09T13:42:22Z</time>
   </trkpt>
   <trkpt lat="53.3522360" lon="-6.1960210">
    <ele>6.1</ele>
    <time>2025-11-09T13:42:28Z</time>
   </trkpt>
   <trkpt lat="53.3521610" lon="-6.1960140">
    <ele>6.0</ele>
    <time>2025-11-09T13:42:33Z</time>
   </trkpt>
   <trkpt lat="53.3520940" lon="-6.1960040">
    <ele>6.2</ele>
    <time>2025-11-09T13:42:39Z</time>
   </trkpt>
   <trkpt lat="53.3520230" lon="-6.1959780">
    <ele>6.3</ele>
    <time>2025-11-09T13:42:44Z</time>
   </trkpt>
   <trkpt lat="53.3519570" lon="-6.1959980">
    <ele>6.2</ele>
    <time>2025-11-09T13:42:49Z</time>
   </trkpt>
   <trkpt lat="53.3518900" lon="-6.1959970">
    <ele>6.3</ele>
    <time>2025-11-09T13:42:54Z</time>
   </trkpt>
   <trkpt lat="53.3518390" lon="-6.1960150">
    <ele>6.3</ele>
    <time>2025-11-09T13:42:59Z</time>
   </trkpt>
   <trkpt lat="53.3517870" lon="-6.1960130">
    <ele>5.8</ele>
    <time>2025-11-09T13:44:17Z</time>
   </trkpt>
   <trkpt lat="53.3517180" lon="-6.1960090">
    <ele>6.2</ele>
    <time>2025-11-09T13:44:22Z</time>
   </trkpt>
   <trkpt lat="53.3516390" lon="-6.1960150">
    <ele>6.3</ele>
    <time>2025-11-09T13:44:28Z</time>
   </trkpt>
   <trkpt lat="53.3515740" lon="-6.1959880">
    <ele>6.1</ele>
    <time>2025-11-09T13:44:33Z</time>
   </trkpt>
   <trkpt lat="53.3515070" lon="-6.1960050">
    <ele>5.9</ele>
    <time>2025-11-09T13:44:38Z</time>
   </trkpt>
   <trkpt lat="53.3514330" lon="-6.1960200">
    <ele>5.9</ele>
    <time>2025-11-09T13:44:43Z</time>
   </trkpt>
   <trkpt lat="53.3513600" lon="-6.1960080">
    <ele>5.7</ele>
    <time>2025-11-09T13:44:49Z</time>
   </trkpt>
   <trkpt lat="53.3512920" lon="-6.1959870">
    <ele>6.2</ele>
    <time>2025-11-09T13:44:54Z</time>
   </trkpt>
   <trkpt lat="53.3512170" lon="-6.1959640">
    <ele>6.2</ele>
    <time>2025-11-09T13:45:00Z</time>
   </trkpt>
   <trkpt lat="53.3511410" lon="-6.1959620">
    <ele>5.8</ele>
    <time>2025-11-09T13:45:05Z</time>
   </trkpt>
   <trkpt lat="53.3510680" lon="-6.1959560">
    <ele>5.7</ele>
    <time>2025-11-09T13:45:11Z</time>
   </trkpt>
   <trkpt lat="53.3509960" lon="-6.1959640">
    <ele>5.7</ele>
    <time>2025-11-09T13:45:16Z</time>
   </trkpt>
   <trkpt lat="53.3509240" lon="-6.1959730">
    <ele>5.9</ele>
    <time>2025-11-09T13:45:22Z</time>
   </trkpt>
   <trkpt lat="53.3508640" lon="-6.1959980">
    <ele>5.9</ele>
    <time>2025-11-09T13:45:27Z</time>
   </trkpt>
   <trkpt lat="53.3508110" lon="-6.1960070">
    <ele>5.6</ele>
    <time>2025-11-09T13:45:42Z</time>
   </trkpt>
   <trkpt lat="53.3507240" lon="-6.1959670">
    <ele>5.6</ele>
    <time>2025-11-09T13:45:48Z</time>
   </trkpt>
   <trkpt lat="53.3506660" lon="-6.1959290">
    <ele>5.6</ele>
    <time>2025-11-09T13:45:53Z</time>
   </trkpt>
   <trkpt lat="53.3505930" lon="-6.1959470">
    <ele>5.6</ele>
    <time>2025-11-09T13:45:58Z</time>
   </trkpt>
   <trkpt lat="53.3505320" lon="-6.1959420">
    <ele>5.7</ele>
    <time>2025-11-09T13:46:03Z</time>
   </trkpt>
   <trkpt lat="53.3504700" lon="-6.1959580">
    <ele>5.5</ele>
    <time>2025-11-09T13:46:08Z</time>
   </trkpt>
   <trkpt lat="53.3504210" lon="-6.1959390">
    <ele>5.6</ele>
    <time>2025-11-09T13:46:13Z</time>
   </trkpt>
   <trkpt lat="53.3503890" lon="-6.1958760">
    <ele>5.8</ele>
    <time>2025-11-09T13:46:19Z</time>
   </trkpt>
   <trkpt lat="53.3503470" lon="-6.1957890">
    <ele>5.8</ele>
    <time>2025-11-09T13:46:24Z</time>
   </trkpt>
   <trkpt lat="53.3503690" lon="-6.1958640">
    <ele>5.4</ele>
    <time>2025-11-09T13:46:38Z</time>
   </trkpt>
   <trkpt lat="53.3504110" lon="-6.1959000">
    <ele>5.8</ele>
    <time>2025-11-09T13:46:46Z</time>
   </trkpt>
   <trkpt lat="53.3504430" lon="-6.1959530">
    <ele>5.7</ele>
    <time>2025-11-09T13:46:52Z</time>
   </trkpt>
   <trkpt lat="53.3504960" lon="-6.1959290">
    <ele>5.7</ele>
    <time>2025-11-09T13:49:50Z</time>
   </trkpt>
   <trkpt lat="53.3505420" lon="-6.1959060">
    <ele>5.7</ele>
    <time>2025-11-09T13:49:56Z</time>
   </trkpt>
   <trkpt lat="53.3505780" lon="-6.1959560">
    <ele>6.3</ele>
    <time>2025-11-09T13:51:05Z</time>
   </trkpt>
   <trkpt lat="53.3506370" lon="-6.1959540">
    <ele>6.4</ele>
    <time>2025-11-09T13:51:10Z</time>
   </trkpt>
   <trkpt lat="53.3506810" lon="-6.1959800">
    <ele>6.5</ele>
    <time>2025-11-09T13:51:16Z</time>
   </trkpt>
   <trkpt lat="53.3507410" lon="-6.1959430">
    <ele>6.5</ele>
    <time>2025-11-09T13:51:21Z</time>
   </trkpt>
   <trkpt lat="53.3507950" lon="-6.1959420">
    <ele>6.1</ele>
    <time>2025-11-09T13:51:26Z</time>
   </trkpt>
   <trkpt lat="53.3508420" lon="-6.1959600">
    <ele>5.9</ele>
    <time>2025-11-09T13:51:31Z</time>
   </trkpt>
   <trkpt lat="53.3508980" lon="-6.1959580">
    <ele>5.8</ele>
    <time>2025-11-09T13:51:36Z</time>
   </trkpt>
   <trkpt lat="53.3509600" lon="-6.1959600">
    <ele>5.7</ele>
    <time>2025-11-09T13:51:41Z</time>
   </trkpt>
   <trkpt lat="53.3510160" lon="-6.1959660">
    <ele>5.7</ele>
    <time>2025-11-09T13:51:47Z</time>
   </trkpt>
   <trkpt lat="53.3510810" lon="-6.1959550">
    <ele>5.7</ele>
    <time>2025-11-09T13:51:53Z</time>
   </trkpt>
   <trkpt lat="53.3511440" lon="-6.1959990">
    <ele>5.6</ele>
    <time>2025-11-09T13:51:59Z</time>
   </trkpt>
   <trkpt lat="53.3512010" lon="-6.1959800">
    <ele>5.6</ele>
    <time>2025-11-09T13:52:05Z</time>
   </trkpt>
   <trkpt lat="53.3512470" lon="-6.1959690">
    <ele>5.6</ele>
    <time>2025-11-09T13:52:11Z</time>
   </trkpt>
   <trkpt lat="53.3512930" lon="-6.1959730">
    <ele>5.8</ele>
    <time>2025-11-09T13:52:16Z</time>
   </trkpt>
   <trkpt lat="53.3513450" lon="-6.1959810">
    <ele>6.1</ele>
    <time>2025-11-09T13:52:23Z</time>
   </trkpt>
   <trkpt lat="53.3513950" lon="-6.1959840">
    <ele>5.9</ele>
    <time>2025-11-09T13:52:28Z</time>
   </trkpt>
   <trkpt lat="53.3514540" lon="-6.1959830">
    <ele>5.8</ele>
    <time>2025-11-09T13:52:33Z</time>
   </trkpt>
   <trkpt lat="53.3515180" lon="-6.1959910">
    <ele>6.0</ele>
    <time>2025-11-09T13:52:39Z</time>
   </trkpt>
   <trkpt lat="53.3515850" lon="-6.1959980">
    <ele>6.0</ele>
    <time>2025-11-09T13:52:44Z</time>
   </trkpt>
   <trkpt lat="53.3516510" lon="-6.1959960">
    <ele>5.8</ele>
    <time>2025-11-09T13:52:50Z</time>
   </trkpt>
   <trkpt lat="53.3517160" lon="-6.1959860">
    <ele>5.7</ele>
    <time>2025-11-09T13:52:56Z</time>
   </trkpt>
   <trkpt lat="53.3517740" lon="-6.1959650">
    <ele>5.7</ele>
    <time>2025-11-09T13:53:02Z</time>
   </trkpt>
   <trkpt lat="53.3518230" lon="-6.1959440">
    <ele>5.7</ele>
    <time>2025-11-09T13:53:07Z</time>
   </trkpt>
   <trkpt lat="53.3518790" lon="-6.1959690">
    <ele>6.4</ele>
    <time>2025-11-09T13:53:13Z</time>
   </trkpt>
   <trkpt lat="53.3519450" lon="-6.1959890">
    <ele>5.9</ele>
    <time>2025-11-09T13:53:18Z</time>
   </trkpt>
   <trkpt lat="53.3520130" lon="-6.1959930">
    <ele>5.7</ele>
    <time>2025-11-09T13:53:23Z</time>
   </trkpt>
   <trkpt lat="53.3520700" lon="-6.1959730">
    <ele>5.6</ele>
    <time>2025-11-09T13:53:29Z</time>
   </trkpt>
   <trkpt lat="53.3521230" lon="-6.1959710">
    <ele>5.6</ele>
    <time>2025-11-09T13:53:34Z</time>
   </trkpt>
   <trkpt lat="53.3521690" lon="-6.1959650">
    <ele>5.6</ele>
    <time>2025-11-09T13:53:40Z</time>
   </trkpt>
   <trkpt lat="53.3522220" lon="-6.1959730">
    <ele>5.7</ele>
    <time>2025-11-09T13:54:16Z</time>
   </trkpt>
   <trkpt lat="53.3522790" lon="-6.1959730">
    <ele>5.7</ele>
    <time>2025-11-09T13:54:21Z</time>
   </trkpt>
   <trkpt lat="53.3523380" lon="-6.1959700">
    <ele>5.6</ele>
    <time>2025-11-09T13:54:26Z</time>
   </trkpt>
   <trkpt lat="53.3524160" lon="-6.1959700">
    <ele>5.6</ele>
    <time>2025-11-09T13:54:32Z</time>
   </trkpt>
   <trkpt lat="53.3524730" lon="-6.1959210">
    <ele>5.7</ele>
    <time>2025-11-09T13:54:37Z</time>
   </trkpt>
   <trkpt lat="53.3525320" lon="-6.1958810">
    <ele>5.7</ele>
    <time>2025-11-09T13:54:42Z</time>
   </trkpt>
   <trkpt lat="53.3526080" lon="-6.1958640">
    <ele>5.7</ele>
    <time>2025-11-09T13:54:47Z</time>
   </trkpt>
   <trkpt lat="53.3526810" lon="-6.1958590">
    <ele>5.8</ele>
    <time>2025-11-09T13:54:53Z</time>
   </trkpt>
   <trkpt lat="53.3527490" lon="-6.1958390">
    <ele>5.9</ele>
    <time>2025-11-09T13:54:58Z</time>
   </trkpt>
   <trkpt lat="53.3528120" lon="-6.1958330">
    <ele>5.8</ele>
    <time>2025-11-09T13:55:03Z</time>
   </trkpt>
   <trkpt lat="53.3528830" lon="-6.1958430">
    <ele>6.0</ele>
    <time>2025-11-09T13:55:09Z</time>
   </trkpt>
   <trkpt lat="53.3529380" lon="-6.1958780">
    <ele>5.9</ele>
    <time>2025-11-09T13:55:14Z</time>
   </trkpt>
   <trkpt lat="53.3529710" lon="-6.1959380">
    <ele>5.3</ele>
    <time>2025-11-09T13:55:52Z</time>
   </trkpt>
   <trkpt lat="53.3530300" lon="-6.1959730">
    <ele>5.3</ele>
    <time>2025-11-09T13:55:57Z</time>
   </trkpt>
   <trkpt lat="53.3530770" lon="-6.1960250">
    <ele>5.6</ele>
    <time>2025-11-09T13:56:03Z</time>
   </trkpt>
   <trkpt lat="53.3531120" lon="-6.1961540">
    <ele>5.7</ele>
    <time>2025-11-09T13:56:08Z</time>
   </trkpt>
   <trkpt lat="53.3531090" lon="-6.1962770">
    <ele>5.3</ele>
    <time>2025-11-09T13:56:14Z</time>
   </trkpt>
   <trkpt lat="53.3531330" lon="-6.1963730">
    <ele>5.4</ele>
    <time>2025-11-09T13:56:19Z</time>
   </trkpt>
   <trkpt lat="53.3531640" lon="-6.1964580">
    <ele>5.3</ele>
    <time>2025-11-09T13:56:24Z</time>
   </trkpt>
   <trkpt lat="53.3531880" lon="-6.1965560">
    <ele>5.0</ele>
    <time>2025-11-09T13:56:29Z</time>
   </trkpt>
   <trkpt lat="53.3531900" lon="-6.1966660">
    <ele>4.9</ele>
    <time>2025-11-09T13:56:35Z</time>
   </trkpt>
   <trkpt lat="53.3531850" lon="-6.1967580">
    <ele>5.4</ele>
    <time>2025-11-09T13:58:27Z</time>
   </trkpt>
   <trkpt lat="53.3531920" lon="-6.1969080">
    <ele>5.5</ele>
    <time>2025-11-09T13:58:33Z</time>
   </trkpt>
   <trkpt lat="53.3531950" lon="-6.1970250">
    <ele>5.3</ele>
    <time>2025-11-09T13:58:38Z</time>
   </trkpt>
   <trkpt lat="53.3532010" lon="-6.1971400">
    <ele>5.3</ele>
    <time>2025-11-09T13:58:44Z</time>
   </trkpt>
   <trkpt lat="53.3532170" lon="-6.1972600">
    <ele>5.3</ele>
    <time>2025-11-09T13:58:49Z</time>
   </trkpt>
   <trkpt lat="53.3532150" lon="-6.1973890">
    <ele>5.3</ele>
    <time>2025-11-09T13:58:55Z</time>
   </trkpt>
   <trkpt lat="53.3532220" lon="-6.1975080">
    <ele>5.4</ele>
    <time>2025-11-09T13:59:00Z</time>
   </trkpt>
   <trkpt lat="53.3532160" lon="-6.1976350">
    <ele>5.4</ele>
    <time>2025-11-09T13:59:06Z</time>
   </trkpt>
   <trkpt lat="53.3532150" lon="-6.1977510">
    <ele>5.4</ele>
    <time>2025-11-09T13:59:11Z</time>
   </trkpt>
   <trkpt lat="53.3532240" lon="-6.1978650">
    <ele>5.4</ele>
    <time>2025-11-09T13:59:17Z</time>
   </trkpt>
   <trkpt lat="53.3532180" lon="-6.1979900">
    <ele>5.4</ele>
    <time>2025-11-09T13:59:22Z</time>
   </trkpt>
   <trkpt lat="53.3532200" lon="-6.1980710">
    <ele>5.5</ele>
    <time>2025-11-09T13:59:40Z</time>
   </trkpt>
   <trkpt lat="53.3532200" lon="-6.1982350">
    <ele>5.2</ele>
    <time>2025-11-09T13:59:46Z</time>
   </trkpt>
   <trkpt lat="53.3532280" lon="-6.1983630">
    <ele>5.2</ele>
    <time>2025-11-09T13:59:51Z</time>
   </trkpt>
   <trkpt lat="53.3532310" lon="-6.1984860">
    <ele>5.4</ele>
    <time>2025-11-09T13:59:57Z</time>
   </trkpt>
   <trkpt lat="53.3532280" lon="-6.1986050">
    <ele>5.6</ele>
    <time>2025-11-09T14:00:02Z</time>
   </trkpt>
   <trkpt lat="53.3532300" lon="-6.1987350">
    <ele>5.6</ele>
    <time>2025-11-09T14:00:07Z</time>
   </trkpt>
   <trkpt lat="53.3532280" lon="-6.1988440">
    <ele>5.6</ele>
    <time>2025-11-09T14:00:13Z</time>
   </trkpt>
   <trkpt lat="53.3531950" lon="-6.1989680">
    <ele>5.6</ele>
    <time>2025-11-09T14:00:18Z</time>
   </trkpt>
   <trkpt lat="53.3531940" lon="-6.1990530">
    <ele>5.6</ele>
    <time>2025-11-09T14:00:23Z</time>
   </trkpt>
   <trkpt lat="53.3531590" lon="-6.1991050">
    <ele>5.7</ele>
    <time>2025-11-09T14:01:01Z</time>
   </trkpt>
   <trkpt lat="53.3531590" lon="-6.1992580">
    <ele>5.4</ele>
    <time>2025-11-09T14:01:06Z</time>
   </trkpt>
   <trkpt lat="53.3531380" lon="-6.1993810">
    <ele>5.3</ele>
    <time>2025-11-09T14:01:11Z</time>
   </trkpt>
   <trkpt lat="53.3531470" lon="-6.1994980">
    <ele>5.2</ele>
    <time>2025-11-09T14:01:17Z</time>
   </trkpt>
   <trkpt lat="53.3531470" lon="-6.1996150">
    <ele>5.5</ele>
    <time>2025-11-09T14:01:22Z</time>
   </trkpt>
   <trkpt lat="53.3531390" lon="-6.1997310">
    <ele>5.5</ele>
    <time>2025-11-09T14:01:27Z</time>
   </trkpt>
   <trkpt lat="53.3531450" lon="-6.1998380">
    <ele>5.8</ele>
    <time>2025-11-09T14:01:33Z</time>
   </trkpt>
   <trkpt lat="53.3531440" lon="-6.1999760">
    <ele>5.8</ele>
    <time>2025-11-09T14:01:38Z</time>
   </trkpt>
   <trkpt lat="53.3531490" lon="-6.2001000">
    <ele>5.7</ele>
    <time>2025-11-09T14:01:44Z</time>
   </trkpt>
   <trkpt lat="53.3531640" lon="-6.2002200">
    <ele>5.8</ele>
    <time>2025-11-09T14:01:49Z</time>
   </trkpt>
   <trkpt lat="53.3531650" lon="-6.2003370">
    <ele>5.9</ele>
    <time>2025-11-09T14:01:54Z</time>
   </trkpt>
   <trkpt lat="53.3531570" lon="-6.2004470">
    <ele>5.9</ele>
    <time>2025-11-09T14:02:00Z</time>
   </trkpt>
   <trkpt lat="53.3531610" lon="-6.2005750">
    <ele>5.9</ele>
    <time>2025-11-09T14:02:05Z</time>
   </trkpt>
   <trkpt lat="53.3531730" lon="-6.2006820">
    <ele>5.8</ele>
    <time>2025-11-09T14:02:11Z</time>
   </trkpt>
   <trkpt lat="53.3531650" lon="-6.2008270">
    <ele>5.7</ele>
    <time>2025-11-09T14:02:16Z</time>
   </trkpt>
   <trkpt lat="53.3531710" lon="-6.2009550">
    <ele>6.0</ele>
    <time>2025-11-09T14:02:22Z</time>
   </trkpt>
   <trkpt lat="53.3531780" lon="-6.2010640">
    <ele>5.8</ele>
    <time>2025-11-09T14:02:27Z</time>
   </trkpt>
   <trkpt lat="53.3531730" lon="-6.2012080">
    <ele>5.8</ele>
    <time>2025-11-09T14:02:33Z</time>
   </trkpt>
   <trkpt lat="53.3532160" lon="-6.2013050">
    <ele>5.9</ele>
    <time>2025-11-09T14:02:38Z</time>
   </trkpt>
   <trkpt lat="53.3531950" lon="-6.2014390">
    <ele>5.8</ele>
    <time>2025-11-09T14:02:44Z</time>
   </trkpt>
   <trkpt lat="53.3532040" lon="-6.2015520">
    <ele>5.8</ele>
    <time>2025-11-09T14:02:49Z</time>
   </trkpt>
   <trkpt lat="53.3532100" lon="-6.2016690">
    <ele>5.7</ele>
    <time>2025-11-09T14:02:55Z</time>
   </trkpt>
   <trkpt lat="53.3532070" lon="-6.2017890">
    <ele>6.1</ele>
    <time>2025-11-09T14:03:00Z</time>
   </trkpt>
   <trkpt lat="53.3532040" lon="-6.2019120">
    <ele>6.1</ele>
    <time>2025-11-09T14:03:06Z</time>
   </trkpt>
   <trkpt lat="53.3532100" lon="-6.2020380">
    <ele>5.8</ele>
    <time>2025-11-09T14:03:11Z</time>
   </trkpt>
   <trkpt lat="53.3532050" lon="-6.2021610">
    <ele>5.7</ele>
    <time>2025-11-09T14:03:17Z</time>
   </trkpt>
   <trkpt lat="53.3532180" lon="-6.2022730">
    <ele>5.9</ele>
    <time>2025-11-09T14:03:22Z</time>
   </trkpt>
   <trkpt lat="53.3532130" lon="-6.2023910">
    <ele>5.9</ele>
    <time>2025-11-09T14:03:27Z</time>
   </trkpt>
   <trkpt lat="53.3532210" lon="-6.2025100">
    <ele>5.7</ele>
    <time>2025-11-09T14:03:33Z</time>
   </trkpt>
   <trkpt lat="53.3532190" lon="-6.2026180">
    <ele>5.6</ele>
    <time>2025-11-09T14:03:38Z</time>
   </trkpt>
   <trkpt lat="53.3532140" lon="-6.2027320">
    <ele>5.6</ele>
    <time>2025-11-09T14:03:44Z</time>
   </trkpt>
   <trkpt lat="53.3532090" lon="-6.2028080">
    <ele>5.8</ele>
    <time>2025-11-09T14:04:24Z</time>
   </trkpt>
   <trkpt lat="53.3532260" lon="-6.2029210">
    <ele>5.8</ele>
    <time>2025-11-09T14:04:29Z</time>
   </trkpt>
   <trkpt lat="53.3532320" lon="-6.2030680">
    <ele>5.8</ele>
    <time>2025-11-09T14:04:35Z</time>
   </trkpt>
   <trkpt lat="53.3532270" lon="-6.2032060">
    <ele>5.8</ele>
    <time>2025-11-09T14:04:40Z</time>
   </trkpt>
   <trkpt lat="53.3532270" lon="-6.2033330">
    <ele>5.8</ele>
    <time>2025-11-09T14:04:46Z</time>
   </trkpt>
   <trkpt lat="53.3532170" lon="-6.2034500">
    <ele>6.0</ele>
    <time>2025-11-09T14:04:51Z</time>
   </trkpt>
   <trkpt lat="53.3532230" lon="-6.2035730">
    <ele>6.1</ele>
    <time>2025-11-09T14:04:56Z</time>
   </trkpt>
   <trkpt lat="53.3532260" lon="-6.2036960">
    <ele>6.3</ele>
    <time>2025-11-09T14:05:02Z</time>
   </trkpt>
   <trkpt lat="53.3532260" lon="-6.2038150">
    <ele>6.4</ele>
    <time>2025-11-09T14:05:07Z</time>
   </trkpt>
   <trkpt lat="53.3532270" lon="-6.2039420">
    <ele>6.5</ele>
    <time>2025-11-09T14:05:12Z</time>
   </trkpt>
   <trkpt lat="53.3532370" lon="-6.2040570">
    <ele>6.6</ele>
    <time>2025-11-09T14:05:18Z</time>
   </trkpt>
   <trkpt lat="53.3532380" lon="-6.2041920">
    <ele>6.7</ele>
    <time>2025-11-09T14:05:23Z</time>
   </trkpt>
   <trkpt lat="53.3532410" lon="-6.2043150">
    <ele>6.7</ele>
    <time>2025-11-09T14:05:29Z</time>
   </trkpt>
   <trkpt lat="53.3532400" lon="-6.2044390">
    <ele>6.9</ele>
    <time>2025-11-09T14:05:34Z</time>
   </trkpt>
   <trkpt lat="53.3532430" lon="-6.2045490">
    <ele>6.9</ele>
    <time>2025-11-09T14:05:40Z</time>
   </trkpt>
   <trkpt lat="53.3532450" lon="-6.2046670">
    <ele>6.9</ele>
    <time>2025-11-09T14:05:45Z</time>
   </trkpt>
   <trkpt lat="53.3532500" lon="-6.2047710">
    <ele>6.7</ele>
    <time>2025-11-09T14:05:50Z</time>
   </trkpt>
   <trkpt lat="53.3532560" lon="-6.2048940">
    <ele>6.2</ele>
    <time>2025-11-09T14:05:56Z</time>
   </trkpt>
   <trkpt lat="53.3532610" lon="-6.2050270">
    <ele>6.1</ele>
    <time>2025-11-09T14:06:01Z</time>
   </trkpt>
   <trkpt lat="53.3532980" lon="-6.2050790">
    <ele>6.3</ele>
    <time>2025-11-09T14:06:08Z</time>
   </trkpt>
   <trkpt lat="53.3532920" lon="-6.2051770">
    <ele>6.3</ele>
    <time>2025-11-09T14:06:14Z</time>
   </trkpt>
   <trkpt lat="53.3532900" lon="-6.2052600">
    <ele>5.9</ele>
    <time>2025-11-09T14:06:19Z</time>
   </trkpt>
   <trkpt lat="53.3533010" lon="-6.2053440">
    <ele>5.8</ele>
    <time>2025-11-09T14:06:24Z</time>
   </trkpt>
   <trkpt lat="53.3533070" lon="-6.2054230">
    <ele>6.0</ele>
    <time>2025-11-09T14:06:30Z</time>
   </trkpt>
   <trkpt lat="53.3533190" lon="-6.2055120">
    <ele>6.0</ele>
    <time>2025-11-09T14:06:35Z</time>
   </trkpt>
   <trkpt lat="53.3533200" lon="-6.2056060">
    <ele>6.1</ele>
    <time>2025-11-09T14:06:41Z</time>
   </trkpt>
   <trkpt lat="53.3533240" lon="-6.2057030">
    <ele>6.1</ele>
    <time>2025-11-09T14:06:46Z</time>
   </trkpt>
   <trkpt lat="53.3533260" lon="-6.2057890">
    <ele>5.8</ele>
    <time>2025-11-09T14:06:51Z</time>
   </trkpt>
   <trkpt lat="53.3533430" lon="-6.2058750">
    <ele>5.9</ele>
    <time>2025-11-09T14:06:57Z</time>
   </trkpt>
   <trkpt lat="53.3533540" lon="-6.2059680">
    <ele>5.7</ele>
    <time>2025-11-09T14:07:02Z</time>
   </trkpt>
   <trkpt lat="53.3533530" lon="-6.2060620">
    <ele>5.6</ele>
    <time>2025-11-09T14:07:08Z</time>
   </trkpt>
   <trkpt lat="53.3533580" lon="-6.2061520">
    <ele>5.7</ele>
    <time>2025-11-09T14:07:13Z</time>
   </trkpt>
   <trkpt lat="53.3533640" lon="-6.2062350">
    <ele>5.7</ele>
    <time>2025-11-09T14:07:18Z</time>
   </trkpt>
   <trkpt lat="53.3533700" lon="-6.2063400">
    <ele>5.7</ele>
    <time>2025-11-09T14:07:24Z</time>
   </trkpt>
   <trkpt lat="53.3533900" lon="-6.2064120">
    <ele>5.5</ele>
    <time>2025-11-09T14:08:06Z</time>
   </trkpt>
   <trkpt lat="53.3533970" lon="-6.2064900">
    <ele>5.2</ele>
    <time>2025-11-09T14:08:13Z</time>
   </trkpt>
   <trkpt lat="53.3533940" lon="-6.2066110">
    <ele>4.9</ele>
    <time>2025-11-09T14:08:18Z</time>
   </trkpt>
   <trkpt lat="53.3534000" lon="-6.2066890">
    <ele>5.3</ele>
    <time>2025-11-09T14:08:24Z</time>
   </trkpt>
   <trkpt lat="53.3534110" lon="-6.2067650">
    <ele>5.3</ele>
    <time>2025-11-09T14:08:29Z</time>
   </trkpt>
   <trkpt lat="53.3534150" lon="-6.2068520">
    <ele>4.8</ele>
    <time>2025-11-09T14:08:35Z</time>
   </trkpt>
   <trkpt lat="53.3534260" lon="-6.2069580">
    <ele>4.8</ele>
    <time>2025-11-09T14:08:41Z</time>
   </trkpt>
   <trkpt lat="53.3534310" lon="-6.2070430">
    <ele>5.1</ele>
    <time>2025-11-09T14:08:46Z</time>
   </trkpt>
   <trkpt lat="53.3534420" lon="-6.2071160">
    <ele>5.2</ele>
    <time>2025-11-09T14:08:52Z</time>
   </trkpt>
   <trkpt lat="53.3534530" lon="-6.2071890">
    <ele>5.3</ele>
    <time>2025-11-09T14:08:57Z</time>
   </trkpt>
   <trkpt lat="53.3534660" lon="-6.2072720">
    <ele>5.4</ele>
    <time>2025-11-09T14:09:02Z</time>
   </trkpt>
   <trkpt lat="53.3534680" lon="-6.2073490">
    <ele>5.3</ele>
    <time>2025-11-09T14:09:08Z</time>
   </trkpt>
   <trkpt lat="53.3534750" lon="-6.2074320">
    <ele>5.1</ele>
    <time>2025-11-09T14:09:27Z</time>
   </trkpt>
   <trkpt lat="53.3534760" lon="-6.2075320">
    <ele>5.1</ele>
    <time>2025-11-09T14:09:33Z</time>
   </trkpt>
   <trkpt lat="53.3534860" lon="-6.2076130">
    <ele>5.2</ele>
    <time>2025-11-09T14:09:38Z</time>
   </trkpt>
   <trkpt lat="53.3534890" lon="-6.2076960">
    <ele>4.9</ele>
    <time>2025-11-09T14:09:43Z</time>
   </trkpt>
   <trkpt lat="53.3534950" lon="-6.2077710">
    <ele>4.9</ele>
    <time>2025-11-09T14:09:49Z</time>
   </trkpt>
   <trkpt lat="53.3535000" lon="-6.2078790">
    <ele>5.1</ele>
    <time>2025-11-09T14:09:55Z</time>
   </trkpt>
   <trkpt lat="53.3535080" lon="-6.2079590">
    <ele>4.8</ele>
    <time>2025-11-09T14:10:00Z</time>
   </trkpt>
   <trkpt lat="53.3535140" lon="-6.2080490">
    <ele>4.8</ele>
    <time>2025-11-09T14:10:05Z</time>
   </trkpt>
   <trkpt lat="53.3535180" lon="-6.2081280">
    <ele>4.8</ele>
    <time>2025-11-09T14:10:11Z</time>
   </trkpt>
   <trkpt lat="53.3535250" lon="-6.2082260">
    <ele>4.8</ele>
    <time>2025-11-09T14:10:17Z</time>
   </trkpt>
   <trkpt lat="53.3535300" lon="-6.2083140">
    <ele>4.8</ele>
    <time>2025-11-09T14:10:22Z</time>
   </trkpt>
   <trkpt lat="53.3535250" lon="-6.2084000">
    <ele>4.9</ele>
    <time>2025-11-09T14:10:27Z</time>
   </trkpt>
   <trkpt lat="53.3535340" lon="-6.2084940">
    <ele>5.8</ele>
    <time>2025-11-09T14:10:33Z</time>
   </trkpt>
   <trkpt lat="53.3535320" lon="-6.2085740">
    <ele>5.7</ele>
    <time>2025-11-09T14:10:38Z</time>
   </trkpt>
   <trkpt lat="53.3535430" lon="-6.2086550">
    <ele>5.3</ele>
    <time>2025-11-09T14:10:44Z</time>
   </trkpt>
   <trkpt lat="53.3535480" lon="-6.2087520">
    <ele>5.2</ele>
    <time>2025-11-09T14:10:49Z</time>
   </trkpt>
   <trkpt lat="53.3535510" lon="-6.2088510">
    <ele>4.7</ele>
    <time>2025-11-09T14:10:55Z</time>
   </trkpt>
   <trkpt lat="53.3535580" lon="-6.2089480">
    <ele>4.4</ele>
    <time>2025-11-09T14:11:00Z</time>
   </trkpt>
   <trkpt lat="53.3535630" lon="-6.2090460">
    <ele>4.1</ele>
    <time>2025-11-09T14:11:05Z</time>
   </trkpt>
   <trkpt lat="53.3535610" lon="-6.2091470">
    <ele>3.9</ele>
    <time>2025-11-09T14:11:11Z</time>
   </trkpt>
   <trkpt lat="53.3535590" lon="-6.2092310">
    <ele>4.2</ele>
    <time>2025-11-09T14:11:17Z</time>
   </trkpt>
   <trkpt lat="53.3535740" lon="-6.2093030">
    <ele>4.5</ele>
    <time>2025-11-09T14:11:22Z</time>
   </trkpt>
   <trkpt lat="53.3535750" lon="-6.2093840">
    <ele>4.5</ele>
    <time>2025-11-09T14:11:28Z</time>
   </trkpt>
   <trkpt lat="53.3535810" lon="-6.2094670">
    <ele>4.2</ele>
    <time>2025-11-09T14:11:33Z</time>
   </trkpt>
   <trkpt lat="53.3535850" lon="-6.2095620">
    <ele>4.2</ele>
    <time>2025-11-09T14:11:39Z</time>
   </trkpt>
   <trkpt lat="53.3535880" lon="-6.2096390">
    <ele>4.3</ele>
    <time>2025-11-09T14:11:44Z</time>
   </trkpt>
   <trkpt lat="53.3535750" lon="-6.2097140">
    <ele>4.4</ele>
    <time>2025-11-09T14:11:57Z</time>
   </trkpt>
   <trkpt lat="53.3535860" lon="-6.2097990">
    <ele>4.3</ele>
    <time>2025-11-09T14:12:03Z</time>
   </trkpt>
   <trkpt lat="53.3535920" lon="-6.2098770">
    <ele>4.2</ele>
    <time>2025-11-09T14:12:08Z</time>
   </trkpt>
   <trkpt lat="53.3535940" lon="-6.2099540">
    <ele>4.3</ele>
    <time>2025-11-09T14:12:13Z</time>
   </trkpt>
   <trkpt lat="53.3536010" lon="-6.2100360">
    <ele>4.4</ele>
    <time>2025-11-09T14:12:19Z</time>
   </trkpt>
   <trkpt lat="53.3536060" lon="-6.2101190">
    <ele>4.1</ele>
    <time>2025-11-09T14:12:26Z</time>
   </trkpt>
   <trkpt lat="53.3536100" lon="-6.2101950">
    <ele>3.7</ele>
    <time>2025-11-09T14:12:31Z</time>
   </trkpt>
   <trkpt lat="53.3536100" lon="-6.2102750">
    <ele>3.9</ele>
    <time>2025-11-09T14:12:36Z</time>
   </trkpt>
   <trkpt lat="53.3536250" lon="-6.2103560">
    <ele>4.9</ele>
    <time>2025-11-09T14:12:41Z</time>
   </trkpt>
   <trkpt lat="53.3536240" lon="-6.2104430">
    <ele>5.0</ele>
    <time>2025-11-09T14:12:46Z</time>
   </trkpt>
   <trkpt lat="53.3536230" lon="-6.2105230">
    <ele>4.9</ele>
    <time>2025-11-09T14:12:51Z</time>
   </trkpt>
   <trkpt lat="53.3536320" lon="-6.2106060">
    <ele>5.2</ele>
    <time>2025-11-09T14:12:57Z</time>
   </trkpt>
   <trkpt lat="53.3536330" lon="-6.2106950">
    <ele>5.6</ele>
    <time>2025-11-09T14:13:02Z</time>
   </trkpt>
   <trkpt lat="53.3536520" lon="-6.2107690">
    <ele>5.8</ele>
    <time>2025-11-09T14:13:21Z</time>
   </trkpt>
   <trkpt lat="53.3536260" lon="-6.2108510">
    <ele>6.4</ele>
    <time>2025-11-09T14:13:44Z</time>
   </trkpt>
   <trkpt lat="53.3535990" lon="-6.2109500">
    <ele>6.4</ele>
    <time>2025-11-09T14:13:50Z</time>
   </trkpt>
   <trkpt lat="53.3535980" lon="-6.2110490">
    <ele>6.2</ele>
    <time>2025-11-09T14:13:55Z</time>
   </trkpt>
   <trkpt lat="53.3535960" lon="-6.2111290">
    <ele>5.9</ele>
    <time>2025-11-09T14:14:00Z</time>
   </trkpt>
   <trkpt lat="53.3535900" lon="-6.2112130">
    <ele>5.8</ele>
    <time>2025-11-09T14:14:06Z</time>
   </trkpt>
   <trkpt lat="53.3535640" lon="-6.2113020">
    <ele>5.7</ele>
    <time>2025-11-09T14:14:12Z</time>
   </trkpt>
   <trkpt lat="53.3535770" lon="-6.2113810">
    <ele>5.6</ele>
    <time>2025-11-09T14:14:23Z</time>
   </trkpt>
   <trkpt lat="53.3535850" lon="-6.2114600">
    <ele>5.9</ele>
    <time>2025-11-09T14:14:36Z</time>
   </trkpt>
   <trkpt lat="53.3535800" lon="-6.2115600">
    <ele>5.8</ele>
    <time>2025-11-09T14:14:41Z</time>
   </trkpt>
   <trkpt lat="53.3535840" lon="-6.2116470">
    <ele>5.4</ele>
    <time>2025-11-09T14:14:46Z</time>
   </trkpt>
   <trkpt lat="53.3536070" lon="-6.2117430">
    <ele>5.4</ele>
    <time>2025-11-09T14:14:52Z</time>
   </trkpt>
   <trkpt lat="53.3536160" lon="-6.2118470">
    <ele>5.5</ele>
    <time>2025-11-09T14:14:57Z</time>
   </trkpt>
   <trkpt lat="53.3536150" lon="-6.2119280">
    <ele>5.6</ele>
    <time>2025-11-09T14:15:02Z</time>
   </trkpt>
   <trkpt lat="53.3536300" lon="-6.2120090">
    <ele>5.6</ele>
    <time>2025-11-09T14:15:11Z</time>
   </trkpt>
   <trkpt lat="53.3536090" lon="-6.2121380">
    <ele>5.3</ele>
    <time>2025-11-09T14:15:16Z</time>
   </trkpt>
   <trkpt lat="53.3536220" lon="-6.2122470">
    <ele>5.3</ele>
    <time>2025-11-09T14:15:21Z</time>
   </trkpt>
   <trkpt lat="53.3536190" lon="-6.2123490">
    <ele>5.4</ele>
    <time>2025-11-09T14:15:26Z</time>
   </trkpt>
   <trkpt lat="53.3536350" lon="-6.2124450">
    <ele>5.4</ele>
    <time>2025-11-09T14:15:31Z</time>
   </trkpt>
   <trkpt lat="53.3536560" lon="-6.2125460">
    <ele>5.6</ele>
    <time>2025-11-09T14:15:37Z</time>
   </trkpt>
   <trkpt lat="53.3537070" lon="-6.2126170">
    <ele>5.7</ele>
    <time>2025-11-09T14:15:42Z</time>
   </trkpt>
   <trkpt lat="53.3537490" lon="-6.2126700">
    <ele>5.8</ele>
    <time>2025-11-09T14:15:56Z</time>
   </trkpt>
   <trkpt lat="53.3538440" lon="-6.2127360">
    <ele>5.9</ele>
    <time>2025-11-09T14:16:02Z</time>
   </trkpt>
   <trkpt lat="53.3538910" lon="-6.2128490">
    <ele>6.0</ele>
    <time>2025-11-09T14:16:07Z</time>
   </trkpt>
   <trkpt lat="53.3539640" lon="-6.2128810">
    <ele>6.1</ele>
    <time>2025-11-09T14:16:12Z</time>
   </trkpt>
   <trkpt lat="53.3540320" lon="-6.2129530">
    <ele>6.4</ele>
    <time>2025-11-09T14:16:18Z</time>
   </trkpt>
   <trkpt lat="53.3540810" lon="-6.2129000">
    <ele>6.6</ele>
    <time>2025-11-09T14:20:13Z</time>
   </trkpt>
   <trkpt lat="53.3540360" lon="-6.2128710">
    <ele>6.6</ele>
    <time>2025-11-09T14:20:18Z</time>
   </trkpt>
   <trkpt lat="53.3539770" lon="-6.2128180">
    <ele>6.6</ele>
    <time>2025-11-09T14:20:24Z</time>
   </trkpt>
   <trkpt lat="53.3539210" lon="-6.2127550">
    <ele>6.6</ele>
    <time>2025-11-09T14:20:29Z</time>
   </trkpt>
   <trkpt lat="53.3538770" lon="-6.2126740">
    <ele>6.5</ele>
    <time>2025-11-09T14:20:35Z</time>
   </trkpt>
   <trkpt lat="53.3538320" lon="-6.2126170">
    <ele>6.4</ele>
    <time>2025-11-09T14:20:40Z</time>
   </trkpt>
   <trkpt lat="53.3537760" lon="-6.2125460">
    <ele>6.4</ele>
    <time>2025-11-09T14:20:45Z</time>
   </trkpt>
   <trkpt lat="53.3537180" lon="-6.2125060">
    <ele>6.5</ele>
    <time>2025-11-09T14:20:51Z</time>
   </trkpt>
   <trkpt lat="53.3536850" lon="-6.2124380">
    <ele>6.4</ele>
    <time>2025-11-09T14:20:56Z</time>
   </trkpt>
   <trkpt lat="53.3536910" lon="-6.2123380">
    <ele>6.4</ele>
    <time>2025-11-09T14:21:01Z</time>
   </trkpt>
   <trkpt lat="53.3536960" lon="-6.2122550">
    <ele>6.4</ele>
    <time>2025-11-09T14:21:07Z</time>
   </trkpt>
   <trkpt lat="53.3537010" lon="-6.2121600">
    <ele>6.4</ele>
    <time>2025-11-09T14:21:13Z</time>
   </trkpt>
   <trkpt lat="53.3536870" lon="-6.2120490">
    <ele>6.3</ele>
    <time>2025-11-09T14:21:18Z</time>
   </trkpt>
   <trkpt lat="53.3537010" lon="-6.2119510">
    <ele>6.4</ele>
    <time>2025-11-09T14:21:23Z</time>
   </trkpt>
   <trkpt lat="53.3537070" lon="-6.2118690">
    <ele>6.3</ele>
    <time>2025-11-09T14:21:28Z</time>
   </trkpt>
   <trkpt lat="53.3536940" lon="-6.2117950">
    <ele>6.3</ele>
    <time>2025-11-09T14:21:34Z</time>
   </trkpt>
   <trkpt lat="53.3536530" lon="-6.2116880">
    <ele>6.2</ele>
    <time>2025-11-09T14:21:40Z</time>
   </trkpt>
   <trkpt lat="53.3536250" lon="-6.2116120">
    <ele>6.1</ele>
    <time>2025-11-09T14:21:45Z</time>
   </trkpt>
   <trkpt lat="53.3536200" lon="-6.2115180">
    <ele>6.2</ele>
    <time>2025-11-09T14:21:50Z</time>
   </trkpt>
   <trkpt lat="53.3536190" lon="-6.2114290">
    <ele>6.1</ele>
    <time>2025-11-09T14:21:56Z</time>
   </trkpt>
   <trkpt lat="53.3536270" lon="-6.2113450">
    <ele>6.3</ele>
    <time>2025-11-09T14:22:01Z</time>
   </trkpt>
   <trkpt lat="53.3536260" lon="-6.2112390">
    <ele>6.1</ele>
    <time>2025-11-09T14:22:06Z</time>
   </trkpt>
   <trkpt lat="53.3536270" lon="-6.2111400">
    <ele>6.0</ele>
    <time>2025-11-09T14:22:11Z</time>
   </trkpt>
   <trkpt lat="53.3536380" lon="-6.2110380">
    <ele>6.0</ele>
    <time>2025-11-09T14:22:17Z</time>
   </trkpt>
   <trkpt lat="53.3536260" lon="-6.2109340">
    <ele>6.1</ele>
    <time>2025-11-09T14:22:22Z</time>
   </trkpt>
   <trkpt lat="53.3536170" lon="-6.2108310">
    <ele>6.1</ele>
    <time>2025-11-09T14:22:27Z</time>
   </trkpt>
   <trkpt lat="53.3536470" lon="-6.2107670">
    <ele>6.3</ele>
    <time>2025-11-09T14:22:33Z</time>
   </trkpt>
   <trkpt lat="53.3536980" lon="-6.2107370">
    <ele>6.6</ele>
    <time>2025-11-09T14:22:39Z</time>
   </trkpt>
   <trkpt lat="53.3537140" lon="-6.2106660">
    <ele>6.6</ele>
    <time>2025-11-09T14:22:45Z</time>
   </trkpt>
   <trkpt lat="53.3537520" lon="-6.2107190">
    <ele>6.5</ele>
    <time>2025-11-09T14:22:50Z</time>
   </trkpt>
   <trkpt lat="53.3537440" lon="-6.2107940">
    <ele>6.3</ele>
    <time>2025-11-09T14:24:06Z</time>
   </trkpt>
   <trkpt lat="53.3537170" lon="-6.2107270">
    <ele>6.0</ele>
    <time>2025-11-09T14:24:37Z</time>
   </trkpt>
   <trkpt lat="53.3537640" lon="-6.2107090">
    <ele>3.1</ele>
    <time>2025-11-09T14:43:28Z</time>
   </trkpt>
   <trkpt lat="53.3537300" lon="-6.2107590">
    <ele>3.8</ele>
    <time>2025-11-09T14:47:11Z</time>
   </trkpt>
   <trkpt lat="53.3537810" lon="-6.2107270">
    <ele>3.6</ele>
    <time>2025-11-09T14:50:39Z</time>
   </trkpt>
   <trkpt lat="53.3537360" lon="-6.2107460">
    <ele>4.5</ele>
    <time>2025-11-09T14:51:36Z</time>
   </trkpt>
   <trkpt lat="53.3537350" lon="-6.2106690">
    <ele>5.5</ele>
    <time>2025-11-09T14:57:36Z</time>
   </trkpt>
   <trkpt lat="53.3537270" lon="-6.2107430">
    <ele>5.6</ele>
    <time>2025-11-09T14:59:29Z</time>
   </trkpt>
   <trkpt lat="53.3537170" lon="-6.2108230">
    <ele>5.3</ele>
    <time>2025-11-09T15:00:24Z</time>
   </trkpt>
   <trkpt lat="53.3537100" lon="-6.2109030">
    <ele>5.8</ele>
    <time>2025-11-09T15:00:34Z</time>
   </trkpt>
   <trkpt lat="53.3536410" lon="-6.2109950">
    <ele>5.9</ele>
    <time>2025-11-09T15:00:39Z</time>
   </trkpt>
   <trkpt lat="53.3536350" lon="-6.2109080">
    <ele>6.0</ele>
    <time>2025-11-09T15:00:46Z</time>
   </trkpt>
   <trkpt lat="53.3536390" lon="-6.2108140">
    <ele>5.8</ele>
    <time>2025-11-09T15:00:51Z</time>
   </trkpt>
   <trkpt lat="53.3536120" lon="-6.2108760">
    <ele>5.5</ele>
    <time>2025-11-09T15:00:57Z</time>
   </trkpt>
   <trkpt lat="53.3536150" lon="-6.2110050">
    <ele>5.5</ele>
    <time>2025-11-09T15:01:02Z</time>
   </trkpt>
   <trkpt lat="53.3536130" lon="-6.2111570">
    <ele>5.1</ele>
    <time>2025-11-09T15:01:07Z</time>
   </trkpt>
   <trkpt lat="53.3535900" lon="-6.2113030">
    <ele>5.0</ele>
    <time>2025-11-09T15:01:13Z</time>
   </trkpt>
   <trkpt lat="53.3535890" lon="-6.2114330">
    <ele>5.0</ele>
    <time>2025-11-09T15:01:18Z</time>
   </trkpt>
   <trkpt lat="53.3535920" lon="-6.2115680">
    <ele>4.9</ele>
    <time>2025-11-09T15:01:23Z</time>
   </trkpt>
   <trkpt lat="53.3536040" lon="-6.2116960">
    <ele>4.9</ele>
    <time>2025-11-09T15:01:28Z</time>
   </trkpt>
   <trkpt lat="53.3535990" lon="-6.2118280">
    <ele>5.0</ele>
    <time>2025-11-09T15:01:34Z</time>
   </trkpt>
   <trkpt lat="53.3536040" lon="-6.2119680">
    <ele>5.0</ele>
    <time>2025-11-09T15:01:39Z</time>
   </trkpt>
   <trkpt lat="53.3536090" lon="-6.2120990">
    <ele>5.2</ele>
    <time>2025-11-09T15:01:44Z</time>
   </trkpt>
   <trkpt lat="53.3536350" lon="-6.2122140">
    <ele>4.9</ele>
    <time>2025-11-09T15:01:49Z</time>
   </trkpt>
   <trkpt lat="53.3536360" lon="-6.2123540">
    <ele>4.8</ele>
    <time>2025-11-09T15:01:55Z</time>
   </trkpt>
   <trkpt lat="53.3536760" lon="-6.2124410">
    <ele>4.8</ele>
    <time>2025-11-09T15:02:00Z</time>
   </trkpt>
   <trkpt lat="53.3536730" lon="-6.2125320">
    <ele>5.1</ele>
    <time>2025-11-09T15:02:18Z</time>
   </trkpt>
   <trkpt lat="53.3537330" lon="-6.2126500">
    <ele>5.6</ele>
    <time>2025-11-09T15:02:23Z</time>
   </trkpt>
   <trkpt lat="53.3538350" lon="-6.2127030">
    <ele>5.6</ele>
    <time>2025-11-09T15:02:28Z</time>
   </trkpt>
   <trkpt lat="53.3538940" lon="-6.2127870">
    <ele>5.8</ele>
    <time>2025-11-09T15:02:34Z</time>
   </trkpt>
   <trkpt lat="53.3539600" lon="-6.2128690">
    <ele>6.1</ele>
    <time>2025-11-09T15:02:39Z</time>
   </trkpt>
   <trkpt lat="53.3540180" lon="-6.2129200">
    <ele>6.3</ele>
    <time>2025-11-09T15:02:44Z</time>
   </trkpt>
   <trkpt lat="53.3540540" lon="-6.2128730">
    <ele>6.2</ele>
    <time>2025-11-09T15:02:52Z</time>
   </trkpt>
   <trkpt lat="53.3541020" lon="-6.2128720">
    <ele>6.5</ele>
    <time>2025-11-09T15:02:58Z</time>
   </trkpt>
   <trkpt lat="53.3540030" lon="-6.2128860">
    <ele>6.6</ele>
    <time>2025-11-09T15:03:54Z</time>
   </trkpt>
   <trkpt lat="53.3539480" lon="-6.2128480">
    <ele>6.6</ele>
    <time>2025-11-09T15:04:00Z</time>
   </trkpt>
   <trkpt lat="53.3539110" lon="-6.2127500">
    <ele>6.6</ele>
    <time>2025-11-09T15:04:05Z</time>
   </trkpt>
   <trkpt lat="53.3538800" lon="-6.2126960">
    <ele>6.6</ele>
    <time>2025-11-09T15:04:10Z</time>
   </trkpt>
   <trkpt lat="53.3538250" lon="-6.2126420">
    <ele>6.6</ele>
    <time>2025-11-09T15:04:15Z</time>
   </trkpt>
   <trkpt lat="53.3537680" lon="-6.2126020">
    <ele>6.6</ele>
    <time>2025-11-09T15:04:21Z</time>
   </trkpt>
   <trkpt lat="53.3537190" lon="-6.2125730">
    <ele>6.6</ele>
    <time>2025-11-09T15:04:26Z</time>
   </trkpt>
   <trkpt lat="53.3536850" lon="-6.2125180">
    <ele>6.6</ele>
    <time>2025-11-09T15:04:31Z</time>
   </trkpt>
   <trkpt lat="53.3536480" lon="-6.2124360">
    <ele>6.6</ele>
    <time>2025-11-09T15:04:36Z</time>
   </trkpt>
   <trkpt lat="53.3536350" lon="-6.2123350">
    <ele>6.6</ele>
    <time>2025-11-09T15:04:41Z</time>
   </trkpt>
   <trkpt lat="53.3536350" lon="-6.2122130">
    <ele>6.6</ele>
    <time>2025-11-09T15:04:46Z</time>
   </trkpt>
   <trkpt lat="53.3536280" lon="-6.2121050">
    <ele>6.6</ele>
    <time>2025-11-09T15:04:51Z</time>
   </trkpt>
   <trkpt lat="53.3536310" lon="-6.2120240">
    <ele>6.6</ele>
    <time>2025-11-09T15:04:57Z</time>
   </trkpt>
   <trkpt lat="53.3536290" lon="-6.2119110">
    <ele>6.6</ele>
    <time>2025-11-09T15:05:02Z</time>
   </trkpt>
   <trkpt lat="53.3536220" lon="-6.2118010">
    <ele>6.6</ele>
    <time>2025-11-09T15:05:07Z</time>
   </trkpt>
   <trkpt lat="53.3536150" lon="-6.2116980">
    <ele>6.7</ele>
    <time>2025-11-09T15:05:12Z</time>
   </trkpt>
   <trkpt lat="53.3536080" lon="-6.2116130">
    <ele>6.4</ele>
    <time>2025-11-09T15:05:17Z</time>
   </trkpt>
   <trkpt lat="53.3535980" lon="-6.2115300">
    <ele>6.6</ele>
    <time>2025-11-09T15:05:23Z</time>
   </trkpt>
   <trkpt lat="53.3535940" lon="-6.2113880">
    <ele>6.8</ele>
    <time>2025-11-09T15:05:29Z</time>
   </trkpt>
   <trkpt lat="53.3536020" lon="-6.2112840">
    <ele>6.5</ele>
    <time>2025-11-09T15:05:34Z</time>
   </trkpt>
   <trkpt lat="53.3536030" lon="-6.2111710">
    <ele>6.7</ele>
    <time>2025-11-09T15:05:39Z</time>
   </trkpt>
   <trkpt lat="53.3535950" lon="-6.2110610">
    <ele>6.7</ele>
    <time>2025-11-09T15:05:44Z</time>
   </trkpt>
   <trkpt lat="53.3535980" lon="-6.2109600">
    <ele>6.3</ele>
    <time>2025-11-09T15:05:49Z</time>
   </trkpt>
   <trkpt lat="53.3536120" lon="-6.2108520">
    <ele>6.6</ele>
    <time>2025-11-09T15:05:54Z</time>
   </trkpt>
   <trkpt lat="53.3536330" lon="-6.2107700">
    <ele>6.6</ele>
    <time>2025-11-09T15:05:59Z</time>
   </trkpt>
   <trkpt lat="53.3536800" lon="-6.2107560">
    <ele>6.7</ele>
    <time>2025-11-09T15:06:06Z</time>
   </trkpt>
   <trkpt lat="53.3536980" lon="-6.2106850">
    <ele>6.8</ele>
    <time>2025-11-09T15:06:14Z</time>
   </trkpt>
   <trkpt lat="53.3537450" lon="-6.2107150">
    <ele>6.5</ele>
    <time>2025-11-09T15:06:19Z</time>
   </trkpt>
   <trkpt lat="53.3537790" lon="-6.2107720">
    <ele>6.4</ele>
    <time>2025-11-09T15:06:48Z</time>
   </trkpt>
   <trkpt lat="53.3538190" lon="-6.2108220">
    <ele>6.1</ele>
    <time>2025-11-09T15:06:54Z</time>
   </trkpt>
   <trkpt lat="53.3538540" lon="-6.2108760">
    <ele>5.8</ele>
    <time>2025-11-09T15:06:59Z</time>
   </trkpt>
   <trkpt lat="53.3538070" lon="-6.2108940">
    <ele>6.0</ele>
    <time>2025-11-09T15:07:05Z</time>
   </trkpt>
   <trkpt lat="53.3537650" lon="-6.2109180">
    <ele>6.3</ele>
    <time>2025-11-09T15:07:10Z</time>
   </trkpt>
   <trkpt lat="53.3537910" lon="-6.2109840">
    <ele>6.5</ele>
    <time>2025-11-09T15:07:29Z</time>
   </trkpt>
   <trkpt lat="53.3538460" lon="-6.2109810">
    <ele>6.6</ele>
    <time>2025-11-09T15:07:35Z</time>
   </trkpt>
   <trkpt lat="53.3538940" lon="-6.2109800">
    <ele>6.6</ele>
    <time>2025-11-09T15:07:40Z</time>
   </trkpt>
   <trkpt lat="53.3539390" lon="-6.2109440">
    <ele>6.8</ele>
    <time>2025-11-09T15:07:45Z</time>
   </trkpt>
   <trkpt lat="53.3540000" lon="-6.2109610">
    <ele>7.0</ele>
    <time>2025-11-09T15:07:51Z</time>
   </trkpt>
   <trkpt lat="53.3540530" lon="-6.2109560">
    <ele>7.2</ele>
    <time>2025-11-09T15:07:56Z</time>
   </trkpt>
   <trkpt lat="53.3541020" lon="-6.2109540">
    <ele>7.3</ele>
    <time>2025-11-09T15:08:01Z</time>
   </trkpt>
   <trkpt lat="53.3541560" lon="-6.2109560">
    <ele>7.5</ele>
    <time>2025-11-09T15:08:07Z</time>
   </trkpt>
   <trkpt lat="53.3542050" lon="-6.2109360">
    <ele>7.5</ele>
    <time>2025-11-09T15:08:12Z</time>
   </trkpt>
   <trkpt lat="53.3542660" lon="-6.2109200">
    <ele>7.1</ele>
    <time>2025-11-09T15:08:18Z</time>
   </trkpt>
   <trkpt lat="53.3543150" lon="-6.2109330">
    <ele>7.1</ele>
    <time>2025-11-09T15:08:23Z</time>
   </trkpt>
   <trkpt lat="53.3543750" lon="-6.2109460">
    <ele>7.0</ele>
    <time>2025-11-09T15:08:29Z</time>
   </trkpt>
   <trkpt lat="53.3544360" lon="-6.2109670">
    <ele>7.3</ele>
    <time>2025-11-09T15:08:34Z</time>
   </trkpt>
   <trkpt lat="53.3544950" lon="-6.2109590">
    <ele>7.6</ele>
    <time>2025-11-09T15:08:40Z</time>
   </trkpt>
   <trkpt lat="53.3545640" lon="-6.2109530">
    <ele>7.7</ele>
    <time>2025-11-09T15:08:45Z</time>
   </trkpt>
   <trkpt lat="53.3546250" lon="-6.2109410">
    <ele>7.5</ele>
    <time>2025-11-09T15:08:50Z</time>
   </trkpt>
   <trkpt lat="53.3546880" lon="-6.2109370">
    <ele>7.5</ele>
    <time>2025-11-09T15:08:56Z</time>
   </trkpt>
   <trkpt lat="53.3547350" lon="-6.2109260">
    <ele>7.5</ele>
    <time>2025-11-09T15:09:01Z</time>
   </trkpt>
   <trkpt lat="53.3547970" lon="-6.2109270">
    <ele>7.7</ele>
    <time>2025-11-09T15:09:06Z</time>
   </trkpt>
   <trkpt lat="53.3548520" lon="-6.2109140">
    <ele>7.5</ele>
    <time>2025-11-09T15:09:12Z</time>
   </trkpt>
   <trkpt lat="53.3549060" lon="-6.2108920">
    <ele>7.4</ele>
    <time>2025-11-09T15:09:17Z</time>
   </trkpt>
   <trkpt lat="53.3549580" lon="-6.2108690">
    <ele>7.2</ele>
    <time>2025-11-09T15:09:22Z</time>
   </trkpt>
   <trkpt lat="53.3550140" lon="-6.2108530">
    <ele>7.6</ele>
    <time>2025-11-09T15:09:27Z</time>
   </trkpt>
   <trkpt lat="53.3550720" lon="-6.2108470">
    <ele>7.2</ele>
    <time>2025-11-09T15:09:33Z</time>
   </trkpt>
   <trkpt lat="53.3551300" lon="-6.2108450">
    <ele>6.8</ele>
    <time>2025-11-09T15:09:38Z</time>
   </trkpt>
   <trkpt lat="53.3551860" lon="-6.2108470">
    <ele>6.8</ele>
    <time>2025-11-09T15:09:43Z</time>
   </trkpt>
   <trkpt lat="53.3552370" lon="-6.2108430">
    <ele>6.8</ele>
    <time>2025-11-09T15:09:49Z</time>
   </trkpt>
   <trkpt lat="53.3552890" lon="-6.2108340">
    <ele>6.8</ele>
    <time>2025-11-09T15:09:54Z</time>
   </trkpt>
   <trkpt lat="53.3553380" lon="-6.2108520">
    <ele>7.0</ele>
    <time>2025-11-09T15:10:00Z</time>
   </trkpt>
   <trkpt lat="53.3553940" lon="-6.2108190">
    <ele>6.8</ele>
    <time>2025-11-09T15:10:05Z</time>
   </trkpt>
   <trkpt lat="53.3554610" lon="-6.2108360">
    <ele>7.7</ele>
    <time>2025-11-09T15:10:10Z</time>
   </trkpt>
   <trkpt lat="53.3555140" lon="-6.2108150">
    <ele>7.4</ele>
    <time>2025-11-09T15:10:16Z</time>
   </trkpt>
   <trkpt lat="53.3555650" lon="-6.2107890">
    <ele>7.0</ele>
    <time>2025-11-09T15:10:21Z</time>
   </trkpt>
   <trkpt lat="53.3556400" lon="-6.2107960">
    <ele>7.2</ele>
    <time>2025-11-09T15:10:26Z</time>
   </trkpt>
   <trkpt lat="53.3556960" lon="-6.2108030">
    <ele>7.4</ele>
    <time>2025-11-09T15:10:31Z</time>
   </trkpt>
   <trkpt lat="53.3557490" lon="-6.2107830">
    <ele>7.8</ele>
    <time>2025-11-09T15:10:36Z</time>
   </trkpt>
   <trkpt lat="53.3558080" lon="-6.2107500">
    <ele>7.7</ele>
    <time>2025-11-09T15:10:42Z</time>
   </trkpt>
   <trkpt lat="53.3558770" lon="-6.2107440">
    <ele>7.8</ele>
    <time>2025-11-09T15:10:47Z</time>
   </trkpt>
   <trkpt lat="53.3559350" lon="-6.2107390">
    <ele>8.2</ele>
    <time>2025-11-09T15:10:52Z</time>
   </trkpt>
   <trkpt lat="53.3559870" lon="-6.2107360">
    <ele>8.4</ele>
    <time>2025-11-09T15:10:57Z</time>
   </trkpt>
   <trkpt lat="53.3560470" lon="-6.2107270">
    <ele>8.5</ele>
    <time>2025-11-09T15:11:03Z</time>
   </trkpt>
   <trkpt lat="53.3561050" lon="-6.2107250">
    <ele>8.3</ele>
    <time>2025-11-09T15:11:08Z</time>
   </trkpt>
   <trkpt lat="53.3561720" lon="-6.2107270">
    <ele>8.2</ele>
    <time>2025-11-09T15:11:13Z</time>
   </trkpt>
   <trkpt lat="53.3562310" lon="-6.2107190">
    <ele>8.4</ele>
    <time>2025-11-09T15:11:19Z</time>
   </trkpt>
   <trkpt lat="53.3562810" lon="-6.2107200">
    <ele>9.2</ele>
    <time>2025-11-09T15:11:25Z</time>
   </trkpt>
   <trkpt lat="53.3563320" lon="-6.2107350">
    <ele>9.6</ele>
    <time>2025-11-09T15:12:11Z</time>
   </trkpt>
   <trkpt lat="53.3564020" lon="-6.2107010">
    <ele>9.3</ele>
    <time>2025-11-09T15:12:16Z</time>
   </trkpt>
   <trkpt lat="53.3564600" lon="-6.2107080">
    <ele>9.3</ele>
    <time>2025-11-09T15:12:21Z</time>
   </trkpt>
   <trkpt lat="53.3565190" lon="-6.2107560">
    <ele>9.7</ele>
    <time>2025-11-09T15:12:27Z</time>
   </trkpt>
   <trkpt lat="53.3565790" lon="-6.2107810">
    <ele>9.6</ele>
    <time>2025-11-09T15:12:32Z</time>
   </trkpt>
   <trkpt lat="53.3565830" lon="-6.2108840">
    <ele>9.4</ele>
    <time>2025-11-09T15:12:37Z</time>
   </trkpt>
   <trkpt lat="53.3565850" lon="-6.2109900">
    <ele>9.6</ele>
    <time>2025-11-09T15:12:43Z</time>
   </trkpt>
   <trkpt lat="53.3565730" lon="-6.2110900">
    <ele>9.4</ele>
    <time>2025-11-09T15:12:48Z</time>
   </trkpt>
   <trkpt lat="53.3565630" lon="-6.2111750">
    <ele>9.2</ele>
    <time>2025-11-09T15:12:54Z</time>
   </trkpt>
   <trkpt lat="53.3565740" lon="-6.2112670">
    <ele>9.0</ele>
    <time>2025-11-09T15:12:59Z</time>
   </trkpt>
   <trkpt lat="53.3565800" lon="-6.2113420">
    <ele>8.7</ele>
    <time>2025-11-09T15:13:04Z</time>
   </trkpt>
   <trkpt lat="53.3565860" lon="-6.2114190">
    <ele>8.6</ele>
    <time>2025-11-09T15:13:11Z</time>
   </trkpt>
   <trkpt lat="53.3565800" lon="-6.2115560">
    <ele>8.4</ele>
    <time>2025-11-09T15:13:16Z</time>
   </trkpt>
   <trkpt lat="53.3565630" lon="-6.2116650">
    <ele>8.0</ele>
    <time>2025-11-09T15:13:21Z</time>
   </trkpt>
   <trkpt lat="53.3565680" lon="-6.2117830">
    <ele>7.7</ele>
    <time>2025-11-09T15:13:26Z</time>
   </trkpt>
   <trkpt lat="53.3565580" lon="-6.2119070">
    <ele>7.5</ele>
    <time>2025-11-09T15:13:31Z</time>
   </trkpt>
   <trkpt lat="53.3565720" lon="-6.2120240">
    <ele>7.4</ele>
    <time>2025-11-09T15:13:36Z</time>
   </trkpt>
   <trkpt lat="53.3565690" lon="-6.2121240">
    <ele>7.4</ele>
    <time>2025-11-09T15:13:41Z</time>
   </trkpt>
   <trkpt lat="53.3566020" lon="-6.2122200">
    <ele>7.1</ele>
    <time>2025-11-09T15:13:47Z</time>
   </trkpt>
   <trkpt lat="53.3565840" lon="-6.2123560">
    <ele>6.9</ele>
    <time>2025-11-09T15:13:52Z</time>
   </trkpt>
   <trkpt lat="53.3566060" lon="-6.2124340">
    <ele>6.9</ele>
    <time>2025-11-09T15:13:57Z</time>
   </trkpt>
   <trkpt lat="53.3566010" lon="-6.2125140">
    <ele>6.8</ele>
    <time>2025-11-09T15:14:02Z</time>
   </trkpt>
   <trkpt lat="53.3565930" lon="-6.2126160">
    <ele>7.0</ele>
    <time>2025-11-09T15:14:07Z</time>
   </trkpt>
   <trkpt lat="53.3565940" lon="-6.2127530">
    <ele>6.9</ele>
    <time>2025-11-09T15:14:12Z</time>
   </trkpt>
   <trkpt lat="53.3566110" lon="-6.2128720">
    <ele>6.8</ele>
    <time>2025-11-09T15:14:18Z</time>
   </trkpt>
   <trkpt lat="53.3565960" lon="-6.2129490">
    <ele>6.8</ele>
    <time>2025-11-09T15:14:45Z</time>
   </trkpt>
   <trkpt lat="53.3566110" lon="-6.2130470">
    <ele>6.7</ele>
    <time>2025-11-09T15:14:50Z</time>
   </trkpt>
   <trkpt lat="53.3566090" lon="-6.2131680">
    <ele>6.8</ele>
    <time>2025-11-09T15:14:55Z</time>
   </trkpt>
   <trkpt lat="53.3566330" lon="-6.2132860">
    <ele>6.8</ele>
    <time>2025-11-09T15:15:01Z</time>
   </trkpt>
   <trkpt lat="53.3566420" lon="-6.2134130">
    <ele>6.8</ele>
    <time>2025-11-09T15:15:06Z</time>
   </trkpt>
   <trkpt lat="53.3566520" lon="-6.2135000">
    <ele>6.8</ele>
    <time>2025-11-09T15:15:11Z</time>
   </trkpt>
   <trkpt lat="53.3566410" lon="-6.2136060">
    <ele>6.9</ele>
    <time>2025-11-09T15:15:17Z</time>
   </trkpt>
   <trkpt lat="53.3566080" lon="-6.2137250">
    <ele>6.7</ele>
    <time>2025-11-09T15:15:22Z</time>
   </trkpt>
   <trkpt lat="53.3565840" lon="-6.2138440">
    <ele>6.9</ele>
    <time>2025-11-09T15:15:28Z</time>
   </trkpt>
   <trkpt lat="53.3565920" lon="-6.2139650">
    <ele>6.8</ele>
    <time>2025-11-09T15:15:33Z</time>
   </trkpt>
   <trkpt lat="53.3565970" lon="-6.2140720">
    <ele>6.8</ele>
    <time>2025-11-09T15:15:39Z</time>
   </trkpt>
   <trkpt lat="53.3566090" lon="-6.2141840">
    <ele>6.9</ele>
    <time>2025-11-09T15:15:44Z</time>
   </trkpt>
   <trkpt lat="53.3566310" lon="-6.2143160">
    <ele>6.9</ele>
    <time>2025-11-09T15:15:50Z</time>
   </trkpt>
   <trkpt lat="53.3566440" lon="-6.2144230">
    <ele>7.0</ele>
    <time>2025-11-09T15:15:55Z</time>
   </trkpt>
   <trkpt lat="53.3566400" lon="-6.2145210">
    <ele>6.8</ele>
    <time>2025-11-09T15:16:00Z</time>
   </trkpt>
   <trkpt lat="53.3566680" lon="-6.2146150">
    <ele>6.7</ele>
    <time>2025-11-09T15:16:05Z</time>
   </trkpt>
   <trkpt lat="53.3566630" lon="-6.2147480">
    <ele>6.6</ele>
    <time>2025-11-09T15:16:11Z</time>
   </trkpt>
   <trkpt lat="53.3566670" lon="-6.2148630">
    <ele>6.5</ele>
    <time>2025-11-09T15:16:16Z</time>
   </trkpt>
   <trkpt lat="53.3566710" lon="-6.2149680">
    <ele>6.7</ele>
    <time>2025-11-09T15:16:22Z</time>
   </trkpt>
   <trkpt lat="53.3566780" lon="-6.2150850">
    <ele>6.8</ele>
    <time>2025-11-09T15:16:27Z</time>
   </trkpt>
   <trkpt lat="53.3566760" lon="-6.2152140">
    <ele>6.7</ele>
    <time>2025-11-09T15:16:33Z</time>
   </trkpt>
   <trkpt lat="53.3566690" lon="-6.2153430">
    <ele>6.5</ele>
    <time>2025-11-09T15:16:38Z</time>
   </trkpt>
   <trkpt lat="53.3566640" lon="-6.2154450">
    <ele>6.4</ele>
    <time>2025-11-09T15:16:44Z</time>
   </trkpt>
   <trkpt lat="53.3566620" lon="-6.2155500">
    <ele>6.3</ele>
    <time>2025-11-09T15:16:49Z</time>
   </trkpt>
   <trkpt lat="53.3566650" lon="-6.2156680">
    <ele>6.8</ele>
    <time>2025-11-09T15:16:54Z</time>
   </trkpt>
   <trkpt lat="53.3566770" lon="-6.2157760">
    <ele>6.6</ele>
    <time>2025-11-09T15:17:00Z</time>
   </trkpt>
   <trkpt lat="53.3566740" lon="-6.2159130">
    <ele>6.5</ele>
    <time>2025-11-09T15:17:05Z</time>
   </trkpt>
   <trkpt lat="53.3566740" lon="-6.2160340">
    <ele>6.3</ele>
    <time>2025-11-09T15:17:11Z</time>
   </trkpt>
   <trkpt lat="53.3566720" lon="-6.2161590">
    <ele>6.4</ele>
    <time>2025-11-09T15:17:16Z</time>
   </trkpt>
   <trkpt lat="53.3566720" lon="-6.2162610">
    <ele>6.6</ele>
    <time>2025-11-09T15:17:22Z</time>
   </trkpt>
   <trkpt lat="53.3566780" lon="-6.2163480">
    <ele>6.6</ele>
    <time>2025-11-09T15:17:27Z</time>
   </trkpt>
   <trkpt lat="53.3566810" lon="-6.2164290">
    <ele>6.5</ele>
    <time>2025-11-09T15:17:33Z</time>
   </trkpt>
   <trkpt lat="53.3567010" lon="-6.2165180">
    <ele>6.4</ele>
    <time>2025-11-09T15:17:38Z</time>
   </trkpt>
   <trkpt lat="53.3567020" lon="-6.2165950">
    <ele>6.5</ele>
    <time>2025-11-09T15:17:43Z</time>
   </trkpt>
   <trkpt lat="53.3567120" lon="-6.2167190">
    <ele>6.8</ele>
    <time>2025-11-09T15:17:48Z</time>
   </trkpt>
   <trkpt lat="53.3566790" lon="-6.2168960">
    <ele>6.7</ele>
    <time>2025-11-09T15:17:54Z</time>
   </trkpt>
   <trkpt lat="53.3566370" lon="-6.2170000">
    <ele>6.6</ele>
    <time>2025-11-09T15:17:59Z</time>
   </trkpt>
   <trkpt lat="53.3566160" lon="-6.2171180">
    <ele>6.4</ele>
    <time>2025-11-09T15:18:04Z</time>
   </trkpt>
   <trkpt lat="53.3566090" lon="-6.2172400">
    <ele>6.5</ele>
    <time>2025-11-09T15:18:10Z</time>
   </trkpt>
   <trkpt lat="53.3566490" lon="-6.2172840">
    <ele>6.5</ele>
    <time>2025-11-09T15:18:15Z</time>
   </trkpt>
   <trkpt lat="53.3566790" lon="-6.2173490">
    <ele>6.7</ele>
    <time>2025-11-09T15:18:22Z</time>
   </trkpt>
   <trkpt lat="53.3567450" lon="-6.2174400">
    <ele>6.7</ele>
    <time>2025-11-09T15:18:27Z</time>
   </trkpt>
   <trkpt lat="53.3567680" lon="-6.2175090">
    <ele>6.3</ele>
    <time>2025-11-09T15:18:34Z</time>
   </trkpt>
   <trkpt lat="53.3567750" lon="-6.2176150">
    <ele>6.4</ele>
    <time>2025-11-09T15:18:39Z</time>
   </trkpt>
   <trkpt lat="53.3567730" lon="-6.2177260">
    <ele>6.6</ele>
    <time>2025-11-09T15:18:44Z</time>
   </trkpt>
   <trkpt lat="53.3567700" lon="-6.2178500">
    <ele>6.6</ele>
    <time>2025-11-09T15:18:50Z</time>
   </trkpt>
   <trkpt lat="53.3567920" lon="-6.2179500">
    <ele>6.7</ele>
    <time>2025-11-09T15:18:55Z</time>
   </trkpt>
   <trkpt lat="53.3567990" lon="-6.2180640">
    <ele>6.8</ele>
    <time>2025-11-09T15:19:01Z</time>
   </trkpt>
   <trkpt lat="53.3568090" lon="-6.2181820">
    <ele>6.8</ele>
    <time>2025-11-09T15:19:06Z</time>
   </trkpt>
   <trkpt lat="53.3568260" lon="-6.2183000">
    <ele>7.0</ele>
    <time>2025-11-09T15:19:11Z</time>
   </trkpt>
   <trkpt lat="53.3568620" lon="-6.2183970">
    <ele>7.0</ele>
    <time>2025-11-09T15:19:17Z</time>
   </trkpt>
   <trkpt lat="53.3569050" lon="-6.2184850">
    <ele>7.0</ele>
    <time>2025-11-09T15:19:22Z</time>
   </trkpt>
   <trkpt lat="53.3569660" lon="-6.2185580">
    <ele>7.0</ele>
    <time>2025-11-09T15:19:27Z</time>
   </trkpt>
   <trkpt lat="53.3570080" lon="-6.2186420">
    <ele>7.0</ele>
    <time>2025-11-09T15:19:32Z</time>
   </trkpt>
   <trkpt lat="53.3570470" lon="-6.2187220">
    <ele>7.5</ele>
    <time>2025-11-09T15:19:37Z</time>
   </trkpt>
   <trkpt lat="53.3570990" lon="-6.2188110">
    <ele>7.7</ele>
    <time>2025-11-09T15:19:43Z</time>
   </trkpt>
   <trkpt lat="53.3571270" lon="-6.2189150">
    <ele>7.6</ele>
    <time>2025-11-09T15:21:39Z</time>
   </trkpt>
   <trkpt lat="53.3571580" lon="-6.2189880">
    <ele>7.5</ele>
    <time>2025-11-09T15:21:46Z</time>
   </trkpt>
   <trkpt lat="53.3572020" lon="-6.2191230">
    <ele>7.4</ele>
    <time>2025-11-09T15:21:51Z</time>
   </trkpt>
   <trkpt lat="53.3572470" lon="-6.2192370">
    <ele>7.2</ele>
    <time>2025-11-09T15:21:56Z</time>
   </trkpt>
   <trkpt lat="53.3573030" lon="-6.2193370">
    <ele>7.1</ele>
    <time>2025-11-09T15:22:02Z</time>
   </trkpt>
   <trkpt lat="53.3573540" lon="-6.2194240">
    <ele>6.9</ele>
    <time>2025-11-09T15:22:07Z</time>
   </trkpt>
   <trkpt lat="53.3574000" lon="-6.2195070">
    <ele>6.8</ele>
    <time>2025-11-09T15:22:13Z</time>
   </trkpt>
   <trkpt lat="53.3574270" lon="-6.2195980">
    <ele>6.6</ele>
    <time>2025-11-09T15:22:18Z</time>
   </trkpt>
   <trkpt lat="53.3574630" lon="-6.2196950">
    <ele>6.5</ele>
    <time>2025-11-09T15:22:23Z</time>
   </trkpt>
   <trkpt lat="53.3574960" lon="-6.2197690">
    <ele>6.7</ele>
    <time>2025-11-09T15:22:28Z</time>
   </trkpt>
   <trkpt lat="53.3575240" lon="-6.2198390">
    <ele>6.7</ele>
    <time>2025-11-09T15:22:34Z</time>
   </trkpt>
   <trkpt lat="53.3575580" lon="-6.2199290">
    <ele>6.5</ele>
    <time>2025-11-09T15:22:39Z</time>
   </trkpt>
   <trkpt lat="53.3576320" lon="-6.2199650">
    <ele>6.4</ele>
    <time>2025-11-09T15:22:45Z</time>
   </trkpt>
   <trkpt lat="53.3576660" lon="-6.2200370">
    <ele>6.4</ele>
    <time>2025-11-09T15:22:50Z</time>
   </trkpt>
   <trkpt lat="53.3576530" lon="-6.2201540">
    <ele>6.4</ele>
    <time>2025-11-09T15:22:56Z</time>
   </trkpt>
   <trkpt lat="53.3576630" lon="-6.2202640">
    <ele>6.4</ele>
    <time>2025-11-09T15:23:01Z</time>
   </trkpt>
   <trkpt lat="53.3576620" lon="-6.2204020">
    <ele>6.6</ele>
    <time>2025-11-09T15:23:06Z</time>
   </trkpt>
   <trkpt lat="53.3576740" lon="-6.2205310">
    <ele>6.7</ele>
    <time>2025-11-09T15:23:12Z</time>
   </trkpt>
   <trkpt lat="53.3576840" lon="-6.2206620">
    <ele>6.6</ele>
    <time>2025-11-09T15:23:17Z</time>
   </trkpt>
   <trkpt lat="53.3577120" lon="-6.2207620">
    <ele>6.5</ele>
    <time>2025-11-09T15:23:22Z</time>
   </trkpt>
   <trkpt lat="53.3577280" lon="-6.2208700">
    <ele>6.5</ele>
    <time>2025-11-09T15:23:27Z</time>
   </trkpt>
   <trkpt lat="53.3577780" lon="-6.2209150">
    <ele>6.6</ele>
    <time>2025-11-09T15:23:32Z</time>
   </trkpt>
   <trkpt lat="53.3577640" lon="-6.2210610">
    <ele>6.7</ele>
    <time>2025-11-09T15:23:38Z</time>
   </trkpt>
   <trkpt lat="53.3577730" lon="-6.2211560">
    <ele>6.7</ele>
    <time>2025-11-09T15:23:43Z</time>
   </trkpt>
   <trkpt lat="53.3578010" lon="-6.2212400">
    <ele>6.5</ele>
    <time>2025-11-09T15:23:48Z</time>
   </trkpt>
   <trkpt lat="53.3578220" lon="-6.2213640">
    <ele>6.6</ele>
    <time>2025-11-09T15:23:54Z</time>
   </trkpt>
   <trkpt lat="53.3578440" lon="-6.2214360">
    <ele>6.6</ele>
    <time>2025-11-09T15:24:00Z</time>
   </trkpt>
   <trkpt lat="53.3578500" lon="-6.2215190">
    <ele>6.8</ele>
    <time>2025-11-09T15:24:06Z</time>
   </trkpt>
   <trkpt lat="53.3578780" lon="-6.2215860">
    <ele>6.7</ele>
    <time>2025-11-09T15:24:11Z</time>
   </trkpt>
   <trkpt lat="53.3578840" lon="-6.2216700">
    <ele>6.7</ele>
    <time>2025-11-09T15:24:17Z</time>
   </trkpt>
   <trkpt lat="53.3578970" lon="-6.2217600">
    <ele>7.1</ele>
    <time>2025-11-09T15:24:22Z</time>
   </trkpt>
   <trkpt lat="53.3579160" lon="-6.2218330">
    <ele>7.0</ele>
    <time>2025-11-09T15:24:29Z</time>
   </trkpt>
   <trkpt lat="53.3579300" lon="-6.2219050">
    <ele>7.8</ele>
    <time>2025-11-09T15:24:34Z</time>
   </trkpt>
   <trkpt lat="53.3579450" lon="-6.2219820">
    <ele>7.2</ele>
    <time>2025-11-09T15:24:39Z</time>
   </trkpt>
   <trkpt lat="53.3579380" lon="-6.2220680">
    <ele>7.6</ele>
    <time>2025-11-09T15:24:44Z</time>
   </trkpt>
   <trkpt lat="53.3579470" lon="-6.2221500">
    <ele>8.1</ele>
    <time>2025-11-09T15:24:50Z</time>
   </trkpt>
   <trkpt lat="53.3579630" lon="-6.2222310">
    <ele>8.3</ele>
    <time>2025-11-09T15:24:56Z</time>
   </trkpt>
   <trkpt lat="53.3579770" lon="-6.2223140">
    <ele>8.1</ele>
    <time>2025-11-09T15:25:02Z</time>
   </trkpt>
   <trkpt lat="53.3579910" lon="-6.2223880">
    <ele>7.5</ele>
    <time>2025-11-09T15:25:09Z</time>
   </trkpt>
   <trkpt lat="53.3580110" lon="-6.2224690">
    <ele>7.2</ele>
    <time>2025-11-09T15:25:14Z</time>
   </trkpt>
   <trkpt lat="53.3580330" lon="-6.2225650">
    <ele>7.0</ele>
    <time>2025-11-09T15:25:19Z</time>
   </trkpt>
   <trkpt lat="53.3580470" lon="-6.2226400">
    <ele>7.4</ele>
    <time>2025-11-09T15:25:26Z</time>
   </trkpt>
   <trkpt lat="53.3580650" lon="-6.2227170">
    <ele>7.2</ele>
    <time>2025-11-09T15:25:31Z</time>
   </trkpt>
   <trkpt lat="53.3580800" lon="-6.2227930">
    <ele>7.0</ele>
    <time>2025-11-09T15:25:38Z</time>
   </trkpt>
   <trkpt lat="53.3580960" lon="-6.2228720">
    <ele>6.9</ele>
    <time>2025-11-09T15:25:45Z</time>
   </trkpt>
   <trkpt lat="53.3581130" lon="-6.2229470">
    <ele>6.9</ele>
    <time>2025-11-09T15:25:51Z</time>
   </trkpt>
   <trkpt lat="53.3581280" lon="-6.2230220">
    <ele>6.9</ele>
    <time>2025-11-09T15:25:58Z</time>
   </trkpt>
   <trkpt lat="53.3581440" lon="-6.2231000">
    <ele>6.9</ele>
    <time>2025-11-09T15:26:04Z</time>
   </trkpt>
   <trkpt lat="53.3581650" lon="-6.2231700">
    <ele>6.9</ele>
    <time>2025-11-09T15:26:09Z</time>
   </trkpt>
   <trkpt lat="53.3581790" lon="-6.2232440">
    <ele>6.9</ele>
    <time>2025-11-09T15:26:16Z</time>
   </trkpt>
   <trkpt lat="53.3581950" lon="-6.2233200">
    <ele>7.3</ele>
    <time>2025-11-09T15:26:24Z</time>
   </trkpt>
   <trkpt lat="53.3582120" lon="-6.2234000">
    <ele>7.7</ele>
    <time>2025-11-09T15:26:29Z</time>
   </trkpt>
   <trkpt lat="53.3582270" lon="-6.2234750">
    <ele>7.2</ele>
    <time>2025-11-09T15:26:35Z</time>
   </trkpt>
   <trkpt lat="53.3582510" lon="-6.2235450">
    <ele>7.0</ele>
    <time>2025-11-09T15:26:41Z</time>
   </trkpt>
   <trkpt lat="53.3582640" lon="-6.2236360">
    <ele>6.9</ele>
    <time>2025-11-09T15:26:47Z</time>
   </trkpt>
   <trkpt lat="53.3582790" lon="-6.2237170">
    <ele>6.9</ele>
    <time>2025-11-09T15:26:53Z</time>
   </trkpt>
   <trkpt lat="53.3583010" lon="-6.2237870">
    <ele>7.0</ele>
    <time>2025-11-09T15:26:59Z</time>
   </trkpt>
   <trkpt lat="53.3583070" lon="-6.2238690">
    <ele>6.8</ele>
    <time>2025-11-09T15:27:07Z</time>
   </trkpt>
   <trkpt lat="53.3583340" lon="-6.2239800">
    <ele>6.7</ele>
    <time>2025-11-09T15:27:13Z</time>
   </trkpt>
   <trkpt lat="53.3583360" lon="-6.2240600">
    <ele>6.7</ele>
    <time>2025-11-09T15:27:18Z</time>
   </trkpt>
   <trkpt lat="53.3583560" lon="-6.2241400">
    <ele>6.7</ele>
    <time>2025-11-09T15:27:24Z</time>
   </trkpt>
   <trkpt lat="53.3583710" lon="-6.2242140">
    <ele>6.7</ele>
    <time>2025-11-09T15:27:29Z</time>
   </trkpt>
   <trkpt lat="53.3583910" lon="-6.2242920">
    <ele>6.7</ele>
    <time>2025-11-09T15:27:35Z</time>
   </trkpt>
   <trkpt lat="53.3584150" lon="-6.2243600">
    <ele>6.6</ele>
    <time>2025-11-09T15:27:41Z</time>
   </trkpt>
   <trkpt lat="53.3584260" lon="-6.2244390">
    <ele>6.7</ele>
    <time>2025-11-09T15:27:55Z</time>
   </trkpt>
   <trkpt lat="53.3584390" lon="-6.2245140">
    <ele>6.7</ele>
    <time>2025-11-09T15:28:03Z</time>
   </trkpt>
   <trkpt lat="53.3584510" lon="-6.2245890">
    <ele>6.7</ele>
    <time>2025-11-09T15:28:26Z</time>
   </trkpt>
   <trkpt lat="53.3584640" lon="-6.2246670">
    <ele>6.7</ele>
    <time>2025-11-09T15:28:32Z</time>
   </trkpt>
   <trkpt lat="53.3584890" lon="-6.2247300">
    <ele>6.6</ele>
    <time>2025-11-09T15:28:37Z</time>
   </trkpt>
   <trkpt lat="53.3585050" lon="-6.2248050">
    <ele>6.9</ele>
    <time>2025-11-09T15:28:44Z</time>
   </trkpt>
   <trkpt lat="53.3585320" lon="-6.2248740">
    <ele>6.8</ele>
    <time>2025-11-09T15:28:49Z</time>
   </trkpt>
   <trkpt lat="53.3585410" lon="-6.2249540">
    <ele>6.6</ele>
    <time>2025-11-09T15:28:57Z</time>
   </trkpt>
   <trkpt lat="53.3585700" lon="-6.2250200">
    <ele>6.6</ele>
    <time>2025-11-09T15:29:02Z</time>
   </trkpt>
   <trkpt lat="53.3585980" lon="-6.2250860">
    <ele>6.7</ele>
    <time>2025-11-09T15:29:08Z</time>
   </trkpt>
   <trkpt lat="53.3586230" lon="-6.2251500">
    <ele>6.8</ele>
    <time>2025-11-09T15:29:13Z</time>
   </trkpt>
   <trkpt lat="53.3586530" lon="-6.2252060">
    <ele>6.8</ele>
    <time>2025-11-09T15:29:18Z</time>
   </trkpt>
   <trkpt lat="53.3586850" lon="-6.2252700">
    <ele>6.7</ele>
    <time>2025-11-09T15:29:24Z</time>
   </trkpt>
   <trkpt lat="53.3587190" lon="-6.2253300">
    <ele>6.7</ele>
    <time>2025-11-09T15:29:31Z</time>
   </trkpt>
   <trkpt lat="53.3587350" lon="-6.2254070">
    <ele>6.5</ele>
    <time>2025-11-09T15:29:36Z</time>
   </trkpt>
   <trkpt lat="53.3587480" lon="-6.2254940">
    <ele>7.1</ele>
    <time>2025-11-09T15:29:41Z</time>
   </trkpt>
   <trkpt lat="53.3587580" lon="-6.2256060">
    <ele>7.2</ele>
    <time>2025-11-09T15:29:47Z</time>
   </trkpt>
   <trkpt lat="53.3587740" lon="-6.2257050">
    <ele>6.7</ele>
    <time>2025-11-09T15:29:52Z</time>
   </trkpt>
   <trkpt lat="53.3587920" lon="-6.2257790">
    <ele>6.4</ele>
    <time>2025-11-09T15:29:57Z</time>
   </trkpt>
   <trkpt lat="53.3588110" lon="-6.2258510">
    <ele>6.4</ele>
    <time>2025-11-09T15:30:03Z</time>
   </trkpt>
   <trkpt lat="53.3588390" lon="-6.2259170">
    <ele>6.3</ele>
    <time>2025-11-09T15:30:08Z</time>
   </trkpt>
   <trkpt lat="53.3588620" lon="-6.2259910">
    <ele>6.3</ele>
    <time>2025-11-09T15:30:13Z</time>
   </trkpt>
   <trkpt lat="53.3588810" lon="-6.2260660">
    <ele>6.4</ele>
    <time>2025-11-09T15:30:18Z</time>
   </trkpt>
   <trkpt lat="53.3589000" lon="-6.2261400">
    <ele>6.3</ele>
    <time>2025-11-09T15:30:24Z</time>
   </trkpt>
   <trkpt lat="53.3589200" lon="-6.2262300">
    <ele>6.3</ele>
    <time>2025-11-09T15:30:29Z</time>
   </trkpt>
   <trkpt lat="53.3589280" lon="-6.2263110">
    <ele>6.3</ele>
    <time>2025-11-09T15:30:35Z</time>
   </trkpt>
   <trkpt lat="53.3589350" lon="-6.2264170">
    <ele>6.9</ele>
    <time>2025-11-09T15:30:40Z</time>
   </trkpt>
   <trkpt lat="53.3589630" lon="-6.2265070">
    <ele>7.1</ele>
    <time>2025-11-09T15:30:45Z</time>
   </trkpt>
   <trkpt lat="53.3589830" lon="-6.2265750">
    <ele>7.6</ele>
    <time>2025-11-09T15:30:51Z</time>
   </trkpt>
   <trkpt lat="53.3590090" lon="-6.2266440">
    <ele>7.9</ele>
    <time>2025-11-09T15:30:56Z</time>
   </trkpt>
   <trkpt lat="53.3590320" lon="-6.2267160">
    <ele>8.0</ele>
    <time>2025-11-09T15:31:01Z</time>
   </trkpt>
   <trkpt lat="53.3590420" lon="-6.2268200">
    <ele>8.0</ele>
    <time>2025-11-09T15:31:07Z</time>
   </trkpt>
   <trkpt lat="53.3590570" lon="-6.2269000">
    <ele>8.0</ele>
    <time>2025-11-09T15:31:13Z</time>
   </trkpt>
   <trkpt lat="53.3590900" lon="-6.2269710">
    <ele>8.0</ele>
    <time>2025-11-09T15:31:18Z</time>
   </trkpt>
   <trkpt lat="53.3591140" lon="-6.2270370">
    <ele>8.0</ele>
    <time>2025-11-09T15:31:23Z</time>
   </trkpt>
   <trkpt lat="53.3590880" lon="-6.2271090">
    <ele>8.1</ele>
    <time>2025-11-09T15:31:31Z</time>
   </trkpt>
   <trkpt lat="53.3590660" lon="-6.2271920">
    <ele>8.0</ele>
    <time>2025-11-09T15:31:37Z</time>
   </trkpt>
   <trkpt lat="53.3590350" lon="-6.2272780">
    <ele>8.0</ele>
    <time>2025-11-09T15:31:43Z</time>
   </trkpt>
   <trkpt lat="53.3590050" lon="-6.2273350">
    <ele>7.2</ele>
    <time>2025-11-09T15:31:48Z</time>
   </trkpt>
   <trkpt lat="53.3589520" lon="-6.2274200">
    <ele>6.8</ele>
    <time>2025-11-09T15:31:53Z</time>
   </trkpt>
   <trkpt lat="53.3588950" lon="-6.2274820">
    <ele>6.7</ele>
    <time>2025-11-09T15:31:58Z</time>
   </trkpt>
   <trkpt lat="53.3588730" lon="-6.2275500">
    <ele>6.6</ele>
    <time>2025-11-09T15:32:04Z</time>
   </trkpt>
   <trkpt lat="53.3588310" lon="-6.2276170">
    <ele>6.6</ele>
    <time>2025-11-09T15:32:10Z</time>
   </trkpt>
   <trkpt lat="53.3588030" lon="-6.2277000">
    <ele>6.6</ele>
    <time>2025-11-09T15:32:15Z</time>
   </trkpt>
   <trkpt lat="53.3587550" lon="-6.2277720">
    <ele>6.6</ele>
    <time>2025-11-09T15:32:21Z</time>
   </trkpt>
   <trkpt lat="53.3587370" lon="-6.2278600">
    <ele>6.6</ele>
    <time>2025-11-09T15:32:26Z</time>
   </trkpt>
   <trkpt lat="53.3587200" lon="-6.2279380">
    <ele>6.6</ele>
    <time>2025-11-09T15:32:55Z</time>
   </trkpt>
   <trkpt lat="53.3586970" lon="-6.2280210">
    <ele>6.6</ele>
    <time>2025-11-09T15:33:00Z</time>
   </trkpt>
   <trkpt lat="53.3586930" lon="-6.2281030">
    <ele>6.9</ele>
    <time>2025-11-09T15:33:05Z</time>
   </trkpt>
   <trkpt lat="53.3587150" lon="-6.2282160">
    <ele>6.8</ele>
    <time>2025-11-09T15:33:11Z</time>
   </trkpt>
   <trkpt lat="53.3587290" lon="-6.2283290">
    <ele>6.7</ele>
    <time>2025-11-09T15:33:16Z</time>
   </trkpt>
   <trkpt lat="53.3587630" lon="-6.2284100">
    <ele>6.7</ele>
    <time>2025-11-09T15:33:22Z</time>
   </trkpt>
   <trkpt lat="53.3587800" lon="-6.2285210">
    <ele>7.1</ele>
    <time>2025-11-09T15:33:27Z</time>
   </trkpt>
   <trkpt lat="53.3587920" lon="-6.2286280">
    <ele>6.8</ele>
    <time>2025-11-09T15:33:32Z</time>
   </trkpt>
   <trkpt lat="53.3588190" lon="-6.2286930">
    <ele>7.4</ele>
    <time>2025-11-09T15:33:38Z</time>
   </trkpt>
   <trkpt lat="53.3588430" lon="-6.2287860">
    <ele>7.9</ele>
    <time>2025-11-09T15:33:43Z</time>
   </trkpt>
   <trkpt lat="53.3588650" lon="-6.2288680">
    <ele>8.1</ele>
    <time>2025-11-09T15:33:48Z</time>
   </trkpt>
   <trkpt lat="53.3588790" lon="-6.2289510">
    <ele>8.0</ele>
    <time>2025-11-09T15:33:54Z</time>
   </trkpt>
   <trkpt lat="53.3588900" lon="-6.2290250">
    <ele>7.4</ele>
    <time>2025-11-09T15:34:16Z</time>
   </trkpt>
   <trkpt lat="53.3589240" lon="-6.2291180">
    <ele>7.3</ele>
    <time>2025-11-09T15:34:22Z</time>
   </trkpt>
   <trkpt lat="53.3589460" lon="-6.2291920">
    <ele>7.5</ele>
    <time>2025-11-09T15:34:27Z</time>
   </trkpt>
   <trkpt lat="53.3589620" lon="-6.2292660">
    <ele>7.3</ele>
    <time>2025-11-09T15:34:32Z</time>
   </trkpt>
   <trkpt lat="53.3589740" lon="-6.2293550">
    <ele>6.8</ele>
    <time>2025-11-09T15:34:38Z</time>
   </trkpt>
   <trkpt lat="53.3589960" lon="-6.2294400">
    <ele>6.9</ele>
    <time>2025-11-09T15:34:43Z</time>
   </trkpt>
   <trkpt lat="53.3590250" lon="-6.2295280">
    <ele>6.9</ele>
    <time>2025-11-09T15:34:49Z</time>
   </trkpt>
   <trkpt lat="53.3590480" lon="-6.2296230">
    <ele>6.9</ele>
    <time>2025-11-09T15:34:54Z</time>
   </trkpt>
   <trkpt lat="53.3590670" lon="-6.2296980">
    <ele>6.8</ele>
    <time>2025-11-09T15:35:00Z</time>
   </trkpt>
   <trkpt lat="53.3590850" lon="-6.2297680">
    <ele>6.7</ele>
    <time>2025-11-09T15:35:14Z</time>
   </trkpt>
   <trkpt lat="53.3591050" lon="-6.2298510">
    <ele>6.8</ele>
    <time>2025-11-09T15:35:27Z</time>
   </trkpt>
   <trkpt lat="53.3591410" lon="-6.2299720">
    <ele>6.7</ele>
    <time>2025-11-09T15:35:32Z</time>
   </trkpt>
   <trkpt lat="53.3591880" lon="-6.2300740">
    <ele>6.7</ele>
    <time>2025-11-09T15:35:37Z</time>
   </trkpt>
   <trkpt lat="53.3592440" lon="-6.2301270">
    <ele>6.7</ele>
    <time>2025-11-09T15:35:43Z</time>
   </trkpt>
   <trkpt lat="53.3592980" lon="-6.2301900">
    <ele>6.7</ele>
    <time>2025-11-09T15:35:48Z</time>
   </trkpt>
   <trkpt lat="53.3593470" lon="-6.2302240">
    <ele>6.7</ele>
    <time>2025-11-09T15:35:53Z</time>
   </trkpt>
   <trkpt lat="53.3593890" lon="-6.2302840">
    <ele>6.7</ele>
    <time>2025-11-09T15:35:59Z</time>
   </trkpt>
   <trkpt lat="53.3593840" lon="-6.2304300">
    <ele>6.7</ele>
    <time>2025-11-09T15:36:04Z</time>
   </trkpt>
   <trkpt lat="53.3593630" lon="-6.2305770">
    <ele>6.7</ele>
    <time>2025-11-09T15:36:10Z</time>
   </trkpt>
   <trkpt lat="53.3593730" lon="-6.2306980">
    <ele>6.7</ele>
    <time>2025-11-09T15:36:15Z</time>
   </trkpt>
   <trkpt lat="53.3593800" lon="-6.2308350">
    <ele>6.7</ele>
    <time>2025-11-09T15:36:20Z</time>
   </trkpt>
   <trkpt lat="53.3593990" lon="-6.2309340">
    <ele>6.7</ele>
    <time>2025-11-09T15:36:25Z</time>
   </trkpt>
   <trkpt lat="53.3594110" lon="-6.2310330">
    <ele>6.7</ele>
    <time>2025-11-09T15:36:31Z</time>
   </trkpt>
   <trkpt lat="53.3594180" lon="-6.2311350">
    <ele>6.7</ele>
    <time>2025-11-09T15:36:36Z</time>
   </trkpt>
   <trkpt lat="53.3594350" lon="-6.2312170">
    <ele>6.7</ele>
    <time>2025-11-09T15:36:41Z</time>
   </trkpt>
   <trkpt lat="53.3594700" lon="-6.2312740">
    <ele>6.7</ele>
    <time>2025-11-09T15:36:46Z</time>
   </trkpt>
   <trkpt lat="53.3594930" lon="-6.2313470">
    <ele>6.7</ele>
    <time>2025-11-09T15:36:51Z</time>
   </trkpt>
   <trkpt lat="53.3595080" lon="-6.2314350">
    <ele>6.7</ele>
    <time>2025-11-09T15:36:56Z</time>
   </trkpt>
   <trkpt lat="53.3595320" lon="-6.2315110">
    <ele>6.7</ele>
    <time>2025-11-09T15:37:02Z</time>
   </trkpt>
   <trkpt lat="53.3595510" lon="-6.2315860">
    <ele>6.7</ele>
    <time>2025-11-09T15:37:11Z</time>
   </trkpt>
   <trkpt lat="53.3595940" lon="-6.2316180">
    <ele>6.8</ele>
    <time>2025-11-09T15:37:53Z</time>
   </trkpt>
   <trkpt lat="53.3596150" lon="-6.2316920">
    <ele>7.3</ele>
    <time>2025-11-09T15:40:03Z</time>
   </trkpt>
   <trkpt lat="53.3596540" lon="-6.2317370">
    <ele>7.2</ele>
    <time>2025-11-09T15:40:11Z</time>
   </trkpt>
   <trkpt lat="53.3596990" lon="-6.2317000">
    <ele>7.2</ele>
    <time>2025-11-09T15:40:20Z</time>
   </trkpt>
   <trkpt lat="53.3597570" lon="-6.2316090">
    <ele>7.3</ele>
    <time>2025-11-09T15:40:25Z</time>
   </trkpt>
   <trkpt lat="53.3597860" lon="-6.2315400">
    <ele>7.4</ele>
    <time>2025-11-09T15:40:31Z</time>
   </trkpt>
   <trkpt lat="53.3598210" lon="-6.2314740">
    <ele>7.4</ele>
    <time>2025-11-09T15:40:37Z</time>
   </trkpt>
   <trkpt lat="53.3598660" lon="-6.2314270">
    <ele>7.2</ele>
    <time>2025-11-09T15:40:43Z</time>
   </trkpt>
   <trkpt lat="53.3599000" lon="-6.2313690">
    <ele>7.3</ele>
    <time>2025-11-09T15:40:48Z</time>
   </trkpt>
   <trkpt lat="53.3599400" lon="-6.2313070">
    <ele>7.5</ele>
    <time>2025-11-09T15:40:54Z</time>
   </trkpt>
   <trkpt lat="53.3599830" lon="-6.2312300">
    <ele>7.7</ele>
    <time>2025-11-09T15:40:59Z</time>
   </trkpt>
   <trkpt lat="53.3600190" lon="-6.2311540">
    <ele>7.8</ele>
    <time>2025-11-09T15:41:05Z</time>
   </trkpt>
   <trkpt lat="53.3600620" lon="-6.2310860">
    <ele>7.7</ele>
    <time>2025-11-09T15:41:10Z</time>
   </trkpt>
   <trkpt lat="53.3600960" lon="-6.2310110">
    <ele>7.8</ele>
    <time>2025-11-09T15:41:15Z</time>
   </trkpt>
   <trkpt lat="53.3601340" lon="-6.2309390">
    <ele>7.9</ele>
    <time>2025-11-09T15:41:21Z</time>
   </trkpt>
   <trkpt lat="53.3601720" lon="-6.2308630">
    <ele>8.0</ele>
    <time>2025-11-09T15:41:27Z</time>
   </trkpt>
   <trkpt lat="53.3602150" lon="-6.2307880">
    <ele>7.6</ele>
    <time>2025-11-09T15:41:32Z</time>
   </trkpt>
   <trkpt lat="53.3602500" lon="-6.2307230">
    <ele>7.2</ele>
    <time>2025-11-09T15:41:37Z</time>
   </trkpt>
   <trkpt lat="53.3602920" lon="-6.2306850">
    <ele>7.1</ele>
    <time>2025-11-09T15:41:42Z</time>
   </trkpt>
   <trkpt lat="53.3603230" lon="-6.2306180">
    <ele>7.5</ele>
    <time>2025-11-09T15:41:47Z</time>
   </trkpt>
   <trkpt lat="53.3603600" lon="-6.2305330">
    <ele>7.6</ele>
    <time>2025-11-09T15:41:53Z</time>
   </trkpt>
   <trkpt lat="53.3603990" lon="-6.2304520">
    <ele>7.7</ele>
    <time>2025-11-09T15:41:58Z</time>
   </trkpt>
   <trkpt lat="53.3604230" lon="-6.2303570">
    <ele>7.6</ele>
    <time>2025-11-09T15:42:03Z</time>
   </trkpt>
   <trkpt lat="53.3604610" lon="-6.2302720">
    <ele>7.4</ele>
    <time>2025-11-09T15:42:08Z</time>
   </trkpt>
   <trkpt lat="53.3604910" lon="-6.2301860">
    <ele>7.3</ele>
    <time>2025-11-09T15:42:14Z</time>
   </trkpt>
   <trkpt lat="53.3605120" lon="-6.2301030">
    <ele>6.7</ele>
    <time>2025-11-09T15:42:19Z</time>
   </trkpt>
   <trkpt lat="53.3605620" lon="-6.2300440">
    <ele>6.2</ele>
    <time>2025-11-09T15:42:24Z</time>
   </trkpt>
   <trkpt lat="53.3605970" lon="-6.2299530">
    <ele>7.0</ele>
    <time>2025-11-09T15:42:29Z</time>
   </trkpt>
   <trkpt lat="53.3606310" lon="-6.2298570">
    <ele>7.2</ele>
    <time>2025-11-09T15:42:35Z</time>
   </trkpt>
   <trkpt lat="53.3606440" lon="-6.2297620">
    <ele>7.3</ele>
    <time>2025-11-09T15:42:40Z</time>
   </trkpt>
   <trkpt lat="53.3606620" lon="-6.2296790">
    <ele>7.4</ele>
    <time>2025-11-09T15:42:45Z</time>
   </trkpt>
   <trkpt lat="53.3606770" lon="-6.2295780">
    <ele>7.4</ele>
    <time>2025-11-09T15:42:50Z</time>
   </trkpt>
   <trkpt lat="53.3607020" lon="-6.2294880">
    <ele>7.2</ele>
    <time>2025-11-09T15:42:56Z</time>
   </trkpt>
   <trkpt lat="53.3607300" lon="-6.2294050">
    <ele>6.8</ele>
    <time>2025-11-09T15:43:01Z</time>
   </trkpt>
   <trkpt lat="53.3607510" lon="-6.2293040">
    <ele>6.7</ele>
    <time>2025-11-09T15:43:06Z</time>
   </trkpt>
   <trkpt lat="53.3607710" lon="-6.2292160">
    <ele>7.1</ele>
    <time>2025-11-09T15:43:12Z</time>
   </trkpt>
   <trkpt lat="53.3607960" lon="-6.2291200">
    <ele>7.1</ele>
    <time>2025-11-09T15:43:17Z</time>
   </trkpt>
   <trkpt lat="53.3608190" lon="-6.2290190">
    <ele>7.2</ele>
    <time>2025-11-09T15:43:22Z</time>
   </trkpt>
   <trkpt lat="53.3608410" lon="-6.2289260">
    <ele>7.1</ele>
    <time>2025-11-09T15:43:27Z</time>
   </trkpt>
   <trkpt lat="53.3608630" lon="-6.2288360">
    <ele>6.8</ele>
    <time>2025-11-09T15:43:32Z</time>
   </trkpt>
   <trkpt lat="53.3608830" lon="-6.2287390">
    <ele>6.6</ele>
    <time>2025-11-09T15:43:37Z</time>
   </trkpt>
   <trkpt lat="53.3609050" lon="-6.2286460">
    <ele>6.7</ele>
    <time>2025-11-09T15:43:43Z</time>
   </trkpt>
   <trkpt lat="53.3609200" lon="-6.2285450">
    <ele>6.5</ele>
    <time>2025-11-09T15:43:48Z</time>
   </trkpt>
   <trkpt lat="53.3609330" lon="-6.2284510">
    <ele>6.5</ele>
    <time>2025-11-09T15:43:53Z</time>
   </trkpt>
   <trkpt lat="53.3609490" lon="-6.2283500">
    <ele>6.3</ele>
    <time>2025-11-09T15:43:58Z</time>
   </trkpt>
   <trkpt lat="53.3609710" lon="-6.2282380">
    <ele>6.1</ele>
    <time>2025-11-09T15:44:04Z</time>
   </trkpt>
   <trkpt lat="53.3609850" lon="-6.2281380">
    <ele>6.2</ele>
    <time>2025-11-09T15:44:09Z</time>
   </trkpt>
   <trkpt lat="53.3610000" lon="-6.2280660">
    <ele>6.1</ele>
    <time>2025-11-09T15:44:15Z</time>
   </trkpt>
   <trkpt lat="53.3610190" lon="-6.2279700">
    <ele>6.3</ele>
    <time>2025-11-09T15:44:20Z</time>
   </trkpt>
   <trkpt lat="53.3610270" lon="-6.2278670">
    <ele>6.0</ele>
    <time>2025-11-09T15:44:25Z</time>
   </trkpt>
   <trkpt lat="53.3610350" lon="-6.2277720">
    <ele>5.7</ele>
    <time>2025-11-09T15:44:31Z</time>
   </trkpt>
   <trkpt lat="53.3610430" lon="-6.2276680">
    <ele>5.8</ele>
    <time>2025-11-09T15:44:36Z</time>
   </trkpt>
   <trkpt lat="53.3610620" lon="-6.2275880">
    <ele>6.1</ele>
    <time>2025-11-09T15:44:41Z</time>
   </trkpt>
   <trkpt lat="53.3610690" lon="-6.2274880">
    <ele>6.0</ele>
    <time>2025-11-09T15:44:47Z</time>
   </trkpt>
   <trkpt lat="53.3610810" lon="-6.2273780">
    <ele>6.0</ele>
    <time>2025-11-09T15:44:52Z</time>
   </trkpt>
   <trkpt lat="53.3610890" lon="-6.2272770">
    <ele>5.9</ele>
    <time>2025-11-09T15:44:57Z</time>
   </trkpt>
   <trkpt lat="53.3611020" lon="-6.2271620">
    <ele>5.5</ele>
    <time>2025-11-09T15:45:02Z</time>
   </trkpt>
   <trkpt lat="53.3611020" lon="-6.2270610">
    <ele>5.8</ele>
    <time>2025-11-09T15:45:07Z</time>
   </trkpt>
   <trkpt lat="53.3611060" lon="-6.2269540">
    <ele>5.9</ele>
    <time>2025-11-09T15:45:13Z</time>
   </trkpt>
   <trkpt lat="53.3611060" lon="-6.2268600">
    <ele>6.0</ele>
    <time>2025-11-09T15:45:18Z</time>
   </trkpt>
   <trkpt lat="53.3611050" lon="-6.2267810">
    <ele>5.6</ele>
    <time>2025-11-09T15:45:24Z</time>
   </trkpt>
   <trkpt lat="53.3611150" lon="-6.2266570">
    <ele>5.2</ele>
    <time>2025-11-09T15:45:29Z</time>
   </trkpt>
   <trkpt lat="53.3611150" lon="-6.2265500">
    <ele>5.2</ele>
    <time>2025-11-09T15:45:34Z</time>
   </trkpt>
   <trkpt lat="53.3611060" lon="-6.2264530">
    <ele>5.4</ele>
    <time>2025-11-09T15:45:40Z</time>
   </trkpt>
   <trkpt lat="53.3611060" lon="-6.2263630">
    <ele>5.4</ele>
    <time>2025-11-09T15:45:45Z</time>
   </trkpt>
   <trkpt lat="53.3611020" lon="-6.2262640">
    <ele>5.2</ele>
    <time>2025-11-09T15:45:50Z</time>
   </trkpt>
   <trkpt lat="53.3611000" lon="-6.2261610">
    <ele>4.9</ele>
    <time>2025-11-09T15:45:55Z</time>
   </trkpt>
   <trkpt lat="53.3611020" lon="-6.2260570">
    <ele>4.6</ele>
    <time>2025-11-09T15:46:00Z</time>
   </trkpt>
   <trkpt lat="53.3611030" lon="-6.2259500">
    <ele>4.6</ele>
    <time>2025-11-09T15:46:05Z</time>
   </trkpt>
   <trkpt lat="53.3611050" lon="-6.2258400">
    <ele>4.7</ele>
    <time>2025-11-09T15:46:11Z</time>
   </trkpt>
   <trkpt lat="53.3611030" lon="-6.2257290">
    <ele>4.7</ele>
    <time>2025-11-09T15:46:16Z</time>
   </trkpt>
   <trkpt lat="53.3611060" lon="-6.2256250">
    <ele>4.5</ele>
    <time>2025-11-09T15:46:21Z</time>
   </trkpt>
   <trkpt lat="53.3611100" lon="-6.2255300">
    <ele>4.4</ele>
    <time>2025-11-09T15:46:26Z</time>
   </trkpt>
   <trkpt lat="53.3611120" lon="-6.2254260">
    <ele>4.3</ele>
    <time>2025-11-09T15:46:32Z</time>
   </trkpt>
   <trkpt lat="53.3611080" lon="-6.2253340">
    <ele>4.4</ele>
    <time>2025-11-09T15:46:37Z</time>
   </trkpt>
   <trkpt lat="53.3611060" lon="-6.2252200">
    <ele>4.7</ele>
    <time>2025-11-09T15:46:42Z</time>
   </trkpt>
   <trkpt lat="53.3611080" lon="-6.2251200">
    <ele>4.5</ele>
    <time>2025-11-09T15:46:47Z</time>
   </trkpt>
   <trkpt lat="53.3611150" lon="-6.2250250">
    <ele>5.1</ele>
    <time>2025-11-09T15:46:53Z</time>
   </trkpt>
   <trkpt lat="53.3611160" lon="-6.2249320">
    <ele>5.4</ele>
    <time>2025-11-09T15:46:58Z</time>
   </trkpt>
   <trkpt lat="53.3611280" lon="-6.2248260">
    <ele>5.5</ele>
    <time>2025-11-09T15:47:04Z</time>
   </trkpt>
   <trkpt lat="53.3611440" lon="-6.2247210">
    <ele>5.6</ele>
    <time>2025-11-09T15:47:09Z</time>
   </trkpt>
   <trkpt lat="53.3611510" lon="-6.2246270">
    <ele>5.6</ele>
    <time>2025-11-09T15:47:14Z</time>
   </trkpt>
   <trkpt lat="53.3611550" lon="-6.2245300">
    <ele>5.4</ele>
    <time>2025-11-09T15:47:19Z</time>
   </trkpt>
   <trkpt lat="53.3611580" lon="-6.2244260">
    <ele>5.6</ele>
    <time>2025-11-09T15:47:25Z</time>
   </trkpt>
   <trkpt lat="53.3611680" lon="-6.2243290">
    <ele>5.8</ele>
    <time>2025-11-09T15:47:30Z</time>
   </trkpt>
   <trkpt lat="53.3611900" lon="-6.2242140">
    <ele>5.7</ele>
    <time>2025-11-09T15:47:35Z</time>
   </trkpt>
   <trkpt lat="53.3612040" lon="-6.2241090">
    <ele>5.8</ele>
    <time>2025-11-09T15:47:40Z</time>
   </trkpt>
   <trkpt lat="53.3612330" lon="-6.2240100">
    <ele>5.4</ele>
    <time>2025-11-09T15:47:45Z</time>
   </trkpt>
   <trkpt lat="53.3612610" lon="-6.2239240">
    <ele>5.5</ele>
    <time>2025-11-09T15:47:51Z</time>
   </trkpt>
   <trkpt lat="53.3612860" lon="-6.2238230">
    <ele>5.6</ele>
    <time>2025-11-09T15:47:56Z</time>
   </trkpt>
   <trkpt lat="53.3613190" lon="-6.2237270">
    <ele>5.8</ele>
    <time>2025-11-09T15:48:01Z</time>
   </trkpt>
   <trkpt lat="53.3613500" lon="-6.2236410">
    <ele>5.7</ele>
    <time>2025-11-09T15:48:07Z</time>
   </trkpt>
   <trkpt lat="53.3613830" lon="-6.2235510">
    <ele>5.5</ele>
    <time>2025-11-09T15:48:12Z</time>
   </trkpt>
   <trkpt lat="53.3614140" lon="-6.2234670">
    <ele>5.6</ele>
    <time>2025-11-09T15:48:17Z</time>
   </trkpt>
   <trkpt lat="53.3614390" lon="-6.2233890">
    <ele>5.4</ele>
    <time>2025-11-09T15:48:22Z</time>
   </trkpt>
   <trkpt lat="53.3614570" lon="-6.2232930">
    <ele>5.7</ele>
    <time>2025-11-09T15:48:27Z</time>
   </trkpt>
   <trkpt lat="53.3615000" lon="-6.2232200">
    <ele>5.8</ele>
    <time>2025-11-09T15:48:33Z</time>
   </trkpt>
   <trkpt lat="53.3615410" lon="-6.2231440">
    <ele>5.7</ele>
    <time>2025-11-09T15:48:38Z</time>
   </trkpt>
   <trkpt lat="53.3615720" lon="-6.2230580">
    <ele>5.5</ele>
    <time>2025-11-09T15:48:43Z</time>
   </trkpt>
   <trkpt lat="53.3616100" lon="-6.2229710">
    <ele>5.6</ele>
    <time>2025-11-09T15:48:48Z</time>
   </trkpt>
   <trkpt lat="53.3616570" lon="-6.2228970">
    <ele>5.7</ele>
    <time>2025-11-09T15:48:54Z</time>
   </trkpt>
   <trkpt lat="53.3617020" lon="-6.2228240">
    <ele>5.8</ele>
    <time>2025-11-09T15:48:59Z</time>
   </trkpt>
   <trkpt lat="53.3617420" lon="-6.2227580">
    <ele>5.7</ele>
    <time>2025-11-09T15:49:04Z</time>
   </trkpt>
   <trkpt lat="53.3617830" lon="-6.2226900">
    <ele>5.3</ele>
    <time>2025-11-09T15:49:09Z</time>
   </trkpt>
   <trkpt lat="53.3618310" lon="-6.2226290">
    <ele>5.3</ele>
    <time>2025-11-09T15:49:15Z</time>
   </trkpt>
   <trkpt lat="53.3618820" lon="-6.2225630">
    <ele>5.6</ele>
    <time>2025-11-09T15:49:20Z</time>
   </trkpt>
   <trkpt lat="53.3619350" lon="-6.2225110">
    <ele>5.5</ele>
    <time>2025-11-09T15:49:25Z</time>
   </trkpt>
   <trkpt lat="53.3619860" lon="-6.2224510">
    <ele>5.2</ele>
    <time>2025-11-09T15:49:30Z</time>
   </trkpt>
   <trkpt lat="53.3620410" lon="-6.2224100">
    <ele>5.4</ele>
    <time>2025-11-09T15:49:36Z</time>
   </trkpt>
   <trkpt lat="53.3620900" lon="-6.2223600">
    <ele>5.3</ele>
    <time>2025-11-09T15:49:41Z</time>
   </trkpt>
   <trkpt lat="53.3621390" lon="-6.2223050">
    <ele>5.3</ele>
    <time>2025-11-09T15:49:46Z</time>
   </trkpt>
   <trkpt lat="53.3621830" lon="-6.2222780">
    <ele>5.3</ele>
    <time>2025-11-09T15:49:51Z</time>
   </trkpt>
   <trkpt lat="53.3622350" lon="-6.2222700">
    <ele>5.3</ele>
    <time>2025-11-09T15:49:57Z</time>
   </trkpt>
   <trkpt lat="53.3622970" lon="-6.2222470">
    <ele>5.4</ele>
    <time>2025-11-09T15:50:02Z</time>
   </trkpt>
   <trkpt lat="53.3623540" lon="-6.2222000">
    <ele>5.4</ele>
    <time>2025-11-09T15:50:07Z</time>
   </trkpt>
   <trkpt lat="53.3624120" lon="-6.2221600">
    <ele>5.5</ele>
    <time>2025-11-09T15:50:12Z</time>
   </trkpt>
   <trkpt lat="53.3624630" lon="-6.2221270">
    <ele>5.4</ele>
    <time>2025-11-09T15:50:17Z</time>
   </trkpt>
   <trkpt lat="53.3625170" lon="-6.2220950">
    <ele>5.6</ele>
    <time>2025-11-09T15:50:23Z</time>
   </trkpt>
   <trkpt lat="53.3625590" lon="-6.2220650">
    <ele>5.5</ele>
    <time>2025-11-09T15:50:29Z</time>
   </trkpt>
   <trkpt lat="53.3626170" lon="-6.2220460">
    <ele>5.5</ele>
    <time>2025-11-09T15:50:34Z</time>
   </trkpt>
   <trkpt lat="53.3626700" lon="-6.2220140">
    <ele>5.6</ele>
    <time>2025-11-09T15:50:40Z</time>
   </trkpt>
   <trkpt lat="53.3627250" lon="-6.2219880">
    <ele>5.7</ele>
    <time>2025-11-09T15:50:45Z</time>
   </trkpt>
   <trkpt lat="53.3627800" lon="-6.2219610">
    <ele>5.7</ele>
    <time>2025-11-09T15:50:50Z</time>
   </trkpt>
   <trkpt lat="53.3628250" lon="-6.2219390">
    <ele>5.6</ele>
    <time>2025-11-09T15:50:57Z</time>
   </trkpt>
   <trkpt lat="53.3628720" lon="-6.2219170">
    <ele>5.7</ele>
    <time>2025-11-09T15:51:08Z</time>
   </trkpt>
   <trkpt lat="53.3629160" lon="-6.2218880">
    <ele>5.8</ele>
    <time>2025-11-09T15:51:13Z</time>
   </trkpt>
   <trkpt lat="53.3629560" lon="-6.2218460">
    <ele>5.5</ele>
    <time>2025-11-09T15:51:19Z</time>
   </trkpt>
   <trkpt lat="53.3629780" lon="-6.2219180">
    <ele>5.3</ele>
    <time>2025-11-09T15:53:52Z</time>
   </trkpt>
   <trkpt lat="53.3629970" lon="-6.2219910">
    <ele>5.3</ele>
    <time>2025-11-09T15:53:57Z</time>
   </trkpt>
   <trkpt lat="53.3630200" lon="-6.2221240">
    <ele>5.3</ele>
    <time>2025-11-09T15:54:02Z</time>
   </trkpt>
   <trkpt lat="53.3630140" lon="-6.2222000">
    <ele>5.3</ele>
    <time>2025-11-09T15:54:08Z</time>
   </trkpt>
   <trkpt lat="53.3630470" lon="-6.2222790">
    <ele>5.3</ele>
    <time>2025-11-09T15:54:13Z</time>
   </trkpt>
   <trkpt lat="53.3630780" lon="-6.2223930">
    <ele>5.3</ele>
    <time>2025-11-09T15:54:18Z</time>
   </trkpt>
   <trkpt lat="53.3630910" lon="-6.2225060">
    <ele>5.3</ele>
    <time>2025-11-09T15:54:24Z</time>
   </trkpt>
   <trkpt lat="53.3631320" lon="-6.2225740">
    <ele>5.3</ele>
    <time>2025-11-09T15:54:29Z</time>
   </trkpt>
   <trkpt lat="53.3631590" lon="-6.2226630">
    <ele>5.4</ele>
    <time>2025-11-09T15:54:34Z</time>
   </trkpt>
   <trkpt lat="53.3631810" lon="-6.2227540">
    <ele>5.3</ele>
    <time>2025-11-09T15:54:40Z</time>
   </trkpt>
   <trkpt lat="53.3632010" lon="-6.2228470">
    <ele>5.3</ele>
    <time>2025-11-09T15:54:45Z</time>
   </trkpt>
   <trkpt lat="53.3632110" lon="-6.2229560">
    <ele>5.4</ele>
    <time>2025-11-09T15:54:50Z</time>
   </trkpt>
   <trkpt lat="53.3632320" lon="-6.2230550">
    <ele>5.3</ele>
    <time>2025-11-09T15:54:55Z</time>
   </trkpt>
   <trkpt lat="53.3632500" lon="-6.2231400">
    <ele>5.6</ele>
    <time>2025-11-09T15:55:01Z</time>
   </trkpt>
   <trkpt lat="53.3632760" lon="-6.2232160">
    <ele>6.2</ele>
    <time>2025-11-09T15:55:06Z</time>
   </trkpt>
   <trkpt lat="53.3632870" lon="-6.2233180">
    <ele>6.6</ele>
    <time>2025-11-09T15:55:12Z</time>
   </trkpt>
   <trkpt lat="53.3633090" lon="-6.2234210">
    <ele>6.4</ele>
    <time>2025-11-09T15:55:17Z</time>
   </trkpt>
   <trkpt lat="53.3633180" lon="-6.2235160">
    <ele>6.0</ele>
    <time>2025-11-09T15:55:22Z</time>
   </trkpt>
   <trkpt lat="53.3633330" lon="-6.2236030">
    <ele>5.8</ele>
    <time>2025-11-09T15:55:27Z</time>
   </trkpt>
   <trkpt lat="53.3633610" lon="-6.2236750">
    <ele>5.7</ele>
    <time>2025-11-09T15:55:34Z</time>
   </trkpt>
   <trkpt lat="53.3633790" lon="-6.2237910">
    <ele>5.7</ele>
    <time>2025-11-09T15:55:39Z</time>
   </trkpt>
   <trkpt lat="53.3633900" lon="-6.2238950">
    <ele>5.7</ele>
    <time>2025-11-09T15:55:45Z</time>
   </trkpt>
   <trkpt lat="53.3634060" lon="-6.2239880">
    <ele>5.7</ele>
    <time>2025-11-09T15:55:50Z</time>
   </trkpt>
   <trkpt lat="53.3634230" lon="-6.2240940">
    <ele>5.6</ele>
    <time>2025-11-09T15:55:55Z</time>
   </trkpt>
   <trkpt lat="53.3634450" lon="-6.2241890">
    <ele>5.7</ele>
    <time>2025-11-09T15:56:01Z</time>
   </trkpt>
   <trkpt lat="53.3634900" lon="-6.2242740">
    <ele>5.6</ele>
    <time>2025-11-09T15:56:06Z</time>
   </trkpt>
   <trkpt lat="53.3634970" lon="-6.2243750">
    <ele>6.0</ele>
    <time>2025-11-09T15:56:11Z</time>
   </trkpt>
   <trkpt lat="53.3635150" lon="-6.2244680">
    <ele>6.0</ele>
    <time>2025-11-09T15:56:16Z</time>
   </trkpt>
   <trkpt lat="53.3635450" lon="-6.2245420">
    <ele>5.8</ele>
    <time>2025-11-09T15:56:22Z</time>
   </trkpt>
   <trkpt lat="53.3635680" lon="-6.2246280">
    <ele>5.7</ele>
    <time>2025-11-09T15:56:27Z</time>
   </trkpt>
   <trkpt lat="53.3635810" lon="-6.2247410">
    <ele>5.5</ele>
    <time>2025-11-09T15:56:32Z</time>
   </trkpt>
   <trkpt lat="53.3635970" lon="-6.2248430">
    <ele>5.4</ele>
    <time>2025-11-09T15:56:37Z</time>
   </trkpt>
   <trkpt lat="53.3635910" lon="-6.2249750">
    <ele>5.7</ele>
    <time>2025-11-09T15:56:42Z</time>
   </trkpt>
   <trkpt lat="53.3636040" lon="-6.2250820">
    <ele>5.8</ele>
    <time>2025-11-09T15:56:47Z</time>
   </trkpt>
   <trkpt lat="53.3636190" lon="-6.2251860">
    <ele>5.7</ele>
    <time>2025-11-09T15:56:52Z</time>
   </trkpt>
   <trkpt lat="53.3636380" lon="-6.2252940">
    <ele>5.6</ele>
    <time>2025-11-09T15:56:58Z</time>
   </trkpt>
   <trkpt lat="53.3636490" lon="-6.2253750">
    <ele>5.5</ele>
    <time>2025-11-09T15:57:03Z</time>
   </trkpt>
   <trkpt lat="53.3636610" lon="-6.2254560">
    <ele>5.4</ele>
    <time>2025-11-09T15:57:09Z</time>
   </trkpt>
   <trkpt lat="53.3636770" lon="-6.2255290">
    <ele>5.8</ele>
    <time>2025-11-09T15:57:16Z</time>
   </trkpt>
   <trkpt lat="53.3636300" lon="-6.2255470">
    <ele>6.0</ele>
    <time>2025-11-09T15:57:44Z</time>
   </trkpt>
   <trkpt lat="53.3636180" lon="-6.2256390">
    <ele>5.9</ele>
    <time>2025-11-09T15:57:49Z</time>
   </trkpt>
   <trkpt lat="53.3635960" lon="-6.2257160">
    <ele>6.1</ele>
    <time>2025-11-09T15:57:55Z</time>
   </trkpt>
   <trkpt lat="53.3635600" lon="-6.2258090">
    <ele>5.9</ele>
    <time>2025-11-09T15:58:00Z</time>
   </trkpt>
   <trkpt lat="53.3635250" lon="-6.2258950">
    <ele>5.7</ele>
    <time>2025-11-09T15:58:05Z</time>
   </trkpt>
   <trkpt lat="53.3634710" lon="-6.2259580">
    <ele>5.8</ele>
    <time>2025-11-09T15:58:11Z</time>
   </trkpt>
   <trkpt lat="53.3634280" lon="-6.2260310">
    <ele>5.7</ele>
    <time>2025-11-09T15:58:16Z</time>
   </trkpt>
   <trkpt lat="53.3633880" lon="-6.2261080">
    <ele>5.9</ele>
    <time>2025-11-09T15:58:21Z</time>
   </trkpt>
   <trkpt lat="53.3633450" lon="-6.2262000">
    <ele>6.3</ele>
    <time>2025-11-09T15:58:27Z</time>
   </trkpt>
   <trkpt lat="53.3632930" lon="-6.2262920">
    <ele>6.8</ele>
    <time>2025-11-09T15:58:32Z</time>
   </trkpt>
   <trkpt lat="53.3632450" lon="-6.2263740">
    <ele>6.4</ele>
    <time>2025-11-09T15:58:37Z</time>
   </trkpt>
   <trkpt lat="53.3632180" lon="-6.2264480">
    <ele>7.4</ele>
    <time>2025-11-09T15:58:52Z</time>
   </trkpt>
   <trkpt lat="53.3631630" lon="-6.2265520">
    <ele>7.4</ele>
    <time>2025-11-09T15:58:57Z</time>
   </trkpt>
   <trkpt lat="53.3631340" lon="-6.2266170">
    <ele>7.4</ele>
    <time>2025-11-09T15:59:02Z</time>
   </trkpt>
   <trkpt lat="53.3631070" lon="-6.2266970">
    <ele>7.4</ele>
    <time>2025-11-09T15:59:08Z</time>
   </trkpt>
   <trkpt lat="53.3630560" lon="-6.2267720">
    <ele>7.4</ele>
    <time>2025-11-09T15:59:13Z</time>
   </trkpt>
  </trkseg>
 </trk>
</gpx>
